<?xml version="1.0" encoding="UTF-8" standalone="no"?><gpx version="1.1" creator="Colorado 300" xmlns:xsi="http://www.w3.org/2001/XMLSchema-instance" xmlns="http://www.topografix.com/GPX/1/1"  xmlns:gpxtpx="http://www.garmin.com/xmlschemas/TrackPointExtension/v1" xmlns:gpxx="http://www.garmin.com/xmlschemas/GpxExtensions/v3" xsi:schemaLocation="http://www.topografix.com/GPX/1/1 http://www.topografix.com/GPX/1/1/gpx.xsd http://www.garmin.com/xmlschemas/GpxExtensions/v3 http://www.garmin.com/xmlschemas/GpxExtensionsv3.xsd http://www.garmin.com/xmlschemas/TrackPointExtension/v1 http://www.garmin.com/xmlschemas/TrackPointExtensionv1.xsd"> <author>Xisco Xavier Jaume</author> <email>xiscox@xmtb.es</email> <url>http://www.xmtb.es</url> <urlname>Xisco Mountain Bike</urlname><time>2009-12-05T18:16:50Z</time><trk><name>Es Verger, Pla des Pouet, Orient, Pas Estalo, es Freus, Coa Negra, Puig des Guix, sa Bastida</name><trkseg><trkpt lat="39.702698" lon="2.794789"><ele>191.92</ele><time>2009-12-05T07:31:04Z</time></trkpt>
<trkpt lat="39.703008" lon="2.794667"><ele>191.44</ele><time>2009-12-05T07:32:41Z</time></trkpt>
<trkpt lat="39.703095" lon="2.794662"><ele>190.96</ele><time>2009-12-05T07:33:40Z</time></trkpt>
<trkpt lat="39.703128" lon="2.794658"><ele>190.48</ele><time>2009-12-05T07:34:06Z</time></trkpt>
<trkpt lat="39.703150" lon="2.794657"><ele>190.48</ele><time>2009-12-05T07:34:14Z</time></trkpt>
<trkpt lat="39.703207" lon="2.794613"><ele>190.48</ele><time>2009-12-05T07:34:20Z</time></trkpt>
<trkpt lat="39.703223" lon="2.794596"><ele>190.48</ele><time>2009-12-05T07:34:29Z</time></trkpt>
<trkpt lat="39.703218" lon="2.794597"><ele>166.45</ele><time>2009-12-05T07:35:03Z</time></trkpt>
<trkpt lat="39.703218" lon="2.794597"><ele>166.45</ele><time>2009-12-05T07:35:04Z</time></trkpt>
<trkpt lat="39.703322" lon="2.794751"><ele>166.45</ele><time>2009-12-05T07:36:30Z</time></trkpt>
<trkpt lat="39.703362" lon="2.794765"><ele>167.41</ele><time>2009-12-05T07:36:51Z</time></trkpt>
<trkpt lat="39.703402" lon="2.794726"><ele>167.89</ele><time>2009-12-05T07:36:55Z</time></trkpt>
<trkpt lat="39.703473" lon="2.794710"><ele>167.89</ele><time>2009-12-05T07:37:00Z</time></trkpt>
<trkpt lat="39.703504" lon="2.794660"><ele>167.89</ele><time>2009-12-05T07:37:04Z</time></trkpt>
<trkpt lat="39.703485" lon="2.794603"><ele>167.89</ele><time>2009-12-05T07:37:11Z</time></trkpt>
<trkpt lat="39.703440" lon="2.794561"><ele>168.37</ele><time>2009-12-05T07:37:22Z</time></trkpt>
<trkpt lat="39.703432" lon="2.794610"><ele>168.85</ele><time>2009-12-05T07:37:46Z</time></trkpt>
<trkpt lat="39.703465" lon="2.794668"><ele>168.85</ele><time>2009-12-05T07:37:57Z</time></trkpt>
<trkpt lat="39.703476" lon="2.794688"><ele>169.33</ele><time>2009-12-05T07:38:11Z</time></trkpt>
<trkpt lat="39.703470" lon="2.794702"><ele>169.33</ele><time>2009-12-05T07:38:21Z</time></trkpt>
<trkpt lat="39.703471" lon="2.794705"><ele>170.29</ele><time>2009-12-05T07:39:30Z</time></trkpt>
<trkpt lat="39.703401" lon="2.794804"><ele>170.29</ele><time>2009-12-05T07:39:37Z</time></trkpt>
<trkpt lat="39.703284" lon="2.794918"><ele>169.81</ele><time>2009-12-05T07:39:43Z</time></trkpt>
<trkpt lat="39.703127" lon="2.795094"><ele>168.85</ele><time>2009-12-05T07:39:49Z</time></trkpt>
<trkpt lat="39.703067" lon="2.795213"><ele>168.85</ele><time>2009-12-05T07:39:53Z</time></trkpt>
<trkpt lat="39.703233" lon="2.795505"><ele>168.85</ele><time>2009-12-05T07:40:03Z</time></trkpt>
<trkpt lat="39.703429" lon="2.795870"><ele>168.85</ele><time>2009-12-05T07:40:15Z</time></trkpt>
<trkpt lat="39.703690" lon="2.796330"><ele>168.37</ele><time>2009-12-05T07:40:30Z</time></trkpt>
<trkpt lat="39.703961" lon="2.796832"><ele>167.89</ele><time>2009-12-05T07:40:43Z</time></trkpt>
<trkpt lat="39.704219" lon="2.797289"><ele>166.93</ele><time>2009-12-05T07:40:54Z</time></trkpt>
<trkpt lat="39.704499" lon="2.797785"><ele>166.45</ele><time>2009-12-05T07:41:07Z</time></trkpt>
<trkpt lat="39.704714" lon="2.798147"><ele>165.96</ele><time>2009-12-05T07:41:16Z</time></trkpt>
<trkpt lat="39.704925" lon="2.798555"><ele>165.48</ele><time>2009-12-05T07:41:25Z</time></trkpt>
<trkpt lat="39.705202" lon="2.799040"><ele>164.04</ele><time>2009-12-05T07:41:35Z</time></trkpt>
<trkpt lat="39.705492" lon="2.799548"><ele>162.60</ele><time>2009-12-05T07:41:44Z</time></trkpt>
<trkpt lat="39.705664" lon="2.799844"><ele>162.12</ele><time>2009-12-05T07:41:49Z</time></trkpt>
<trkpt lat="39.705811" lon="2.799897"><ele>162.12</ele><time>2009-12-05T07:41:53Z</time></trkpt>
<trkpt lat="39.705862" lon="2.799827"><ele>162.12</ele><time>2009-12-05T07:41:55Z</time></trkpt>
<trkpt lat="39.706125" lon="2.799551"><ele>163.56</ele><time>2009-12-05T07:42:04Z</time></trkpt>
<trkpt lat="39.706405" lon="2.799308"><ele>164.04</ele><time>2009-12-05T07:42:13Z</time></trkpt>
<trkpt lat="39.706600" lon="2.799105"><ele>164.52</ele><time>2009-12-05T07:42:20Z</time></trkpt>
<trkpt lat="39.706819" lon="2.798881"><ele>165.48</ele><time>2009-12-05T07:42:28Z</time></trkpt>
<trkpt lat="39.707072" lon="2.798611"><ele>165.96</ele><time>2009-12-05T07:42:37Z</time></trkpt>
<trkpt lat="39.707243" lon="2.798499"><ele>166.45</ele><time>2009-12-05T07:42:43Z</time></trkpt>
<trkpt lat="39.707437" lon="2.798660"><ele>165.96</ele><time>2009-12-05T07:42:49Z</time></trkpt>
<trkpt lat="39.707462" lon="2.798698"><ele>165.96</ele><time>2009-12-05T07:42:50Z</time></trkpt>
<trkpt lat="39.707600" lon="2.799037"><ele>165.96</ele><time>2009-12-05T07:42:57Z</time></trkpt>
<trkpt lat="39.707784" lon="2.799505"><ele>166.93</ele><time>2009-12-05T07:43:07Z</time></trkpt>
<trkpt lat="39.707976" lon="2.800006"><ele>167.41</ele><time>2009-12-05T07:43:18Z</time></trkpt>
<trkpt lat="39.708009" lon="2.800092"><ele>167.41</ele><time>2009-12-05T07:43:20Z</time></trkpt>
<trkpt lat="39.708072" lon="2.800225"><ele>167.41</ele><time>2009-12-05T07:43:23Z</time></trkpt>
<trkpt lat="39.708252" lon="2.800736"><ele>167.89</ele><time>2009-12-05T07:43:34Z</time></trkpt>
<trkpt lat="39.708365" lon="2.801214"><ele>167.41</ele><time>2009-12-05T07:43:43Z</time></trkpt>
<trkpt lat="39.708420" lon="2.801441"><ele>166.93</ele><time>2009-12-05T07:43:47Z</time></trkpt>
<trkpt lat="39.708508" lon="2.801653"><ele>166.93</ele><time>2009-12-05T07:43:51Z</time></trkpt>
<trkpt lat="39.708618" lon="2.801896"><ele>167.41</ele><time>2009-12-05T07:43:56Z</time></trkpt>
<trkpt lat="39.708789" lon="2.802211"><ele>167.41</ele><time>2009-12-05T07:44:03Z</time></trkpt>
<trkpt lat="39.708955" lon="2.802532"><ele>167.89</ele><time>2009-12-05T07:44:10Z</time></trkpt>
<trkpt lat="39.709181" lon="2.802948"><ele>167.89</ele><time>2009-12-05T07:44:19Z</time></trkpt>
<trkpt lat="39.709401" lon="2.803342"><ele>168.37</ele><time>2009-12-05T07:44:27Z</time></trkpt>
<trkpt lat="39.709421" lon="2.803390"><ele>168.37</ele><time>2009-12-05T07:44:28Z</time></trkpt>
<trkpt lat="39.709521" lon="2.803480"><ele>168.85</ele><time>2009-12-05T07:44:32Z</time></trkpt>
<trkpt lat="39.710001" lon="2.803566"><ele>169.81</ele><time>2009-12-05T07:44:44Z</time></trkpt>
<trkpt lat="39.710461" lon="2.803641"><ele>171.73</ele><time>2009-12-05T07:44:57Z</time></trkpt>
<trkpt lat="39.710876" lon="2.803722"><ele>173.17</ele><time>2009-12-05T07:45:09Z</time></trkpt>
<trkpt lat="39.711171" lon="2.803780"><ele>173.66</ele><time>2009-12-05T07:45:17Z</time></trkpt>
<trkpt lat="39.711563" lon="2.803863"><ele>174.62</ele><time>2009-12-05T07:45:28Z</time></trkpt>
<trkpt lat="39.711860" lon="2.803844"><ele>176.06</ele><time>2009-12-05T07:45:36Z</time></trkpt>
<trkpt lat="39.712167" lon="2.803597"><ele>177.02</ele><time>2009-12-05T07:45:46Z</time></trkpt>
<trkpt lat="39.712425" lon="2.803237"><ele>178.94</ele><time>2009-12-05T07:45:57Z</time></trkpt>
<trkpt lat="39.712604" lon="2.802956"><ele>180.38</ele><time>2009-12-05T07:46:06Z</time></trkpt>
<trkpt lat="39.712903" lon="2.802594"><ele>182.79</ele><time>2009-12-05T07:46:19Z</time></trkpt>
<trkpt lat="39.713106" lon="2.802320"><ele>184.23</ele><time>2009-12-05T07:46:29Z</time></trkpt>
<trkpt lat="39.713376" lon="2.801981"><ele>186.63</ele><time>2009-12-05T07:46:42Z</time></trkpt>
<trkpt lat="39.713601" lon="2.801682"><ele>188.08</ele><time>2009-12-05T07:46:54Z</time></trkpt>
<trkpt lat="39.713856" lon="2.801336"><ele>190.48</ele><time>2009-12-05T07:47:07Z</time></trkpt>
<trkpt lat="39.714024" lon="2.801085"><ele>191.44</ele><time>2009-12-05T07:47:16Z</time></trkpt>
<trkpt lat="39.714168" lon="2.800862"><ele>192.40</ele><time>2009-12-05T07:47:24Z</time></trkpt>
<trkpt lat="39.714057" lon="2.800692"><ele>192.88</ele><time>2009-12-05T07:47:30Z</time></trkpt>
<trkpt lat="39.713817" lon="2.800373"><ele>193.36</ele><time>2009-12-05T07:47:40Z</time></trkpt>
<trkpt lat="39.713607" lon="2.800005"><ele>192.88</ele><time>2009-12-05T07:47:50Z</time></trkpt>
<trkpt lat="39.713288" lon="2.799677"><ele>191.44</ele><time>2009-12-05T07:47:59Z</time></trkpt>
<trkpt lat="39.713167" lon="2.799571"><ele>191.44</ele><time>2009-12-05T07:48:02Z</time></trkpt>
<trkpt lat="39.713189" lon="2.799382"><ele>191.44</ele><time>2009-12-05T07:48:06Z</time></trkpt>
<trkpt lat="39.713521" lon="2.799022"><ele>193.84</ele><time>2009-12-05T07:48:20Z</time></trkpt>
<trkpt lat="39.713763" lon="2.798749"><ele>195.77</ele><time>2009-12-05T07:48:31Z</time></trkpt>
<trkpt lat="39.714001" lon="2.798490"><ele>198.17</ele><time>2009-12-05T07:48:43Z</time></trkpt>
<trkpt lat="39.714256" lon="2.798176"><ele>201.05</ele><time>2009-12-05T07:48:57Z</time></trkpt>
<trkpt lat="39.714523" lon="2.797889"><ele>203.94</ele><time>2009-12-05T07:49:11Z</time></trkpt>
<trkpt lat="39.714731" lon="2.797662"><ele>205.86</ele><time>2009-12-05T07:49:22Z</time></trkpt>
<trkpt lat="39.715023" lon="2.797356"><ele>208.74</ele><time>2009-12-05T07:49:36Z</time></trkpt>
<trkpt lat="39.715265" lon="2.797083"><ele>211.15</ele><time>2009-12-05T07:49:48Z</time></trkpt>
<trkpt lat="39.715416" lon="2.796858"><ele>212.59</ele><time>2009-12-05T07:49:57Z</time></trkpt>
<trkpt lat="39.715625" lon="2.796783"><ele>213.07</ele><time>2009-12-05T07:50:05Z</time></trkpt>
<trkpt lat="39.715845" lon="2.796899"><ele>214.03</ele><time>2009-12-05T07:50:13Z</time></trkpt>
<trkpt lat="39.716215" lon="2.797044"><ele>215.47</ele><time>2009-12-05T07:50:26Z</time></trkpt>
<trkpt lat="39.716377" lon="2.796965"><ele>215.47</ele><time>2009-12-05T07:50:32Z</time></trkpt>
<trkpt lat="39.716584" lon="2.796708"><ele>216.91</ele><time>2009-12-05T07:50:42Z</time></trkpt>
<trkpt lat="39.716821" lon="2.796538"><ele>218.36</ele><time>2009-12-05T07:50:52Z</time></trkpt>
<trkpt lat="39.717047" lon="2.796295"><ele>219.80</ele><time>2009-12-05T07:51:02Z</time></trkpt>
<trkpt lat="39.717225" lon="2.796075"><ele>221.72</ele><time>2009-12-05T07:51:12Z</time></trkpt>
<trkpt lat="39.717386" lon="2.795986"><ele>223.64</ele><time>2009-12-05T07:51:20Z</time></trkpt>
<trkpt lat="39.717553" lon="2.795985"><ele>225.57</ele><time>2009-12-05T07:51:28Z</time></trkpt>
<trkpt lat="39.717733" lon="2.796046"><ele>227.01</ele><time>2009-12-05T07:51:36Z</time></trkpt>
<trkpt lat="39.717932" lon="2.796109"><ele>228.93</ele><time>2009-12-05T07:51:44Z</time></trkpt>
<trkpt lat="39.718137" lon="2.796189"><ele>230.37</ele><time>2009-12-05T07:51:52Z</time></trkpt>
<trkpt lat="39.718305" lon="2.796377"><ele>230.85</ele><time>2009-12-05T07:51:59Z</time></trkpt>
<trkpt lat="39.718528" lon="2.796747"><ele>230.85</ele><time>2009-12-05T07:52:10Z</time></trkpt>
<trkpt lat="39.718690" lon="2.797050"><ele>231.33</ele><time>2009-12-05T07:52:19Z</time></trkpt>
<trkpt lat="39.718917" lon="2.797009"><ele>232.78</ele><time>2009-12-05T07:52:27Z</time></trkpt>
<trkpt lat="39.719124" lon="2.796947"><ele>235.18</ele><time>2009-12-05T07:52:36Z</time></trkpt>
<trkpt lat="39.719361" lon="2.796870"><ele>238.06</ele><time>2009-12-05T07:52:47Z</time></trkpt>
<trkpt lat="39.719581" lon="2.796804"><ele>240.47</ele><time>2009-12-05T07:52:58Z</time></trkpt>
<trkpt lat="39.719773" lon="2.796793"><ele>242.39</ele><time>2009-12-05T07:53:08Z</time></trkpt>
<trkpt lat="39.719972" lon="2.796817"><ele>244.31</ele><time>2009-12-05T07:53:17Z</time></trkpt>
<trkpt lat="39.720081" lon="2.796701"><ele>245.75</ele><time>2009-12-05T07:53:24Z</time></trkpt>
<trkpt lat="39.720166" lon="2.796507"><ele>247.68</ele><time>2009-12-05T07:53:33Z</time></trkpt>
<trkpt lat="39.720366" lon="2.796356"><ele>250.08</ele><time>2009-12-05T07:53:44Z</time></trkpt>
<trkpt lat="39.720483" lon="2.796248"><ele>252.00</ele><time>2009-12-05T07:53:52Z</time></trkpt>
<trkpt lat="39.720665" lon="2.796088"><ele>253.93</ele><time>2009-12-05T07:54:03Z</time></trkpt>
<trkpt lat="39.720772" lon="2.795909"><ele>255.85</ele><time>2009-12-05T07:54:12Z</time></trkpt>
<trkpt lat="39.720917" lon="2.795761"><ele>257.77</ele><time>2009-12-05T07:54:22Z</time></trkpt>
<trkpt lat="39.721074" lon="2.795731"><ele>259.21</ele><time>2009-12-05T07:54:30Z</time></trkpt>
<trkpt lat="39.721142" lon="2.795623"><ele>260.17</ele><time>2009-12-05T07:54:36Z</time></trkpt>
<trkpt lat="39.721124" lon="2.795544"><ele>261.14</ele><time>2009-12-05T07:54:40Z</time></trkpt>
<trkpt lat="39.720957" lon="2.795337"><ele>263.54</ele><time>2009-12-05T07:54:52Z</time></trkpt>
<trkpt lat="39.720997" lon="2.795219"><ele>264.50</ele><time>2009-12-05T07:54:58Z</time></trkpt>
<trkpt lat="39.721164" lon="2.795180"><ele>266.90</ele><time>2009-12-05T07:55:07Z</time></trkpt>
<trkpt lat="39.721345" lon="2.795057"><ele>268.83</ele><time>2009-12-05T07:55:17Z</time></trkpt>
<trkpt lat="39.721491" lon="2.794881"><ele>271.23</ele><time>2009-12-05T07:55:29Z</time></trkpt>
<trkpt lat="39.721662" lon="2.794676"><ele>274.11</ele><time>2009-12-05T07:55:42Z</time></trkpt>
<trkpt lat="39.721793" lon="2.794543"><ele>276.52</ele><time>2009-12-05T07:55:52Z</time></trkpt>
<trkpt lat="39.721932" lon="2.794342"><ele>278.92</ele><time>2009-12-05T07:56:04Z</time></trkpt>
<trkpt lat="39.722047" lon="2.794107"><ele>281.32</ele><time>2009-12-05T07:56:16Z</time></trkpt>
<trkpt lat="39.722160" lon="2.793871"><ele>283.25</ele><time>2009-12-05T07:56:27Z</time></trkpt>
<trkpt lat="39.722185" lon="2.793829"><ele>283.73</ele><time>2009-12-05T07:56:29Z</time></trkpt>
<trkpt lat="39.722238" lon="2.793750"><ele>284.21</ele><time>2009-12-05T07:56:33Z</time></trkpt>
<trkpt lat="39.722393" lon="2.793547"><ele>285.65</ele><time>2009-12-05T07:56:44Z</time></trkpt>
<trkpt lat="39.722505" lon="2.793386"><ele>287.57</ele><time>2009-12-05T07:56:53Z</time></trkpt>
<trkpt lat="39.722660" lon="2.793226"><ele>289.01</ele><time>2009-12-05T07:57:02Z</time></trkpt>
<trkpt lat="39.722793" lon="2.793097"><ele>290.46</ele><time>2009-12-05T07:57:12Z</time></trkpt>
<trkpt lat="39.722870" lon="2.793073"><ele>291.42</ele><time>2009-12-05T07:57:16Z</time></trkpt>
<trkpt lat="39.723005" lon="2.793214"><ele>292.38</ele><time>2009-12-05T07:57:24Z</time></trkpt>
<trkpt lat="39.722993" lon="2.793415"><ele>294.30</ele><time>2009-12-05T07:57:32Z</time></trkpt>
<trkpt lat="39.722958" lon="2.793571"><ele>296.22</ele><time>2009-12-05T07:57:39Z</time></trkpt>
<trkpt lat="39.722981" lon="2.793678"><ele>297.67</ele><time>2009-12-05T07:57:44Z</time></trkpt>
<trkpt lat="39.722992" lon="2.793912"><ele>299.11</ele><time>2009-12-05T07:57:53Z</time></trkpt>
<trkpt lat="39.722950" lon="2.794272"><ele>301.03</ele><time>2009-12-05T07:58:06Z</time></trkpt>
<trkpt lat="39.722949" lon="2.794646"><ele>303.43</ele><time>2009-12-05T07:58:20Z</time></trkpt>
<trkpt lat="39.723023" lon="2.795028"><ele>305.84</ele><time>2009-12-05T07:58:35Z</time></trkpt>
<trkpt lat="39.723048" lon="2.795056"><ele>306.80</ele><time>2009-12-05T07:58:37Z</time></trkpt>
<trkpt lat="39.723097" lon="2.794983"><ele>307.76</ele><time>2009-12-05T07:58:42Z</time></trkpt>
<trkpt lat="39.723090" lon="2.794683"><ele>309.20</ele><time>2009-12-05T07:58:53Z</time></trkpt>
<trkpt lat="39.723150" lon="2.794386"><ele>310.64</ele><time>2009-12-05T07:59:04Z</time></trkpt>
<trkpt lat="39.723270" lon="2.794149"><ele>312.09</ele><time>2009-12-05T07:59:15Z</time></trkpt>
<trkpt lat="39.723404" lon="2.793895"><ele>314.49</ele><time>2009-12-05T07:59:27Z</time></trkpt>
<trkpt lat="39.723489" lon="2.793658"><ele>316.41</ele><time>2009-12-05T07:59:38Z</time></trkpt>
<trkpt lat="39.723596" lon="2.793520"><ele>317.85</ele><time>2009-12-05T07:59:47Z</time></trkpt>
<trkpt lat="39.723739" lon="2.793363"><ele>319.30</ele><time>2009-12-05T07:59:58Z</time></trkpt>
<trkpt lat="39.723755" lon="2.793330"><ele>319.78</ele><time>2009-12-05T08:00:00Z</time></trkpt>
<trkpt lat="39.723882" lon="2.793172"><ele>322.18</ele><time>2009-12-05T08:00:10Z</time></trkpt>
<trkpt lat="39.723947" lon="2.793117"><ele>322.66</ele><time>2009-12-05T08:00:15Z</time></trkpt>
<trkpt lat="39.724000" lon="2.793184"><ele>324.10</ele><time>2009-12-05T08:00:21Z</time></trkpt>
<trkpt lat="39.723997" lon="2.793209"><ele>324.58</ele><time>2009-12-05T08:00:22Z</time></trkpt>
<trkpt lat="39.723864" lon="2.793485"><ele>326.50</ele><time>2009-12-05T08:00:34Z</time></trkpt>
<trkpt lat="39.723763" lon="2.793764"><ele>327.95</ele><time>2009-12-05T08:00:45Z</time></trkpt>
<trkpt lat="39.723746" lon="2.793905"><ele>329.39</ele><time>2009-12-05T08:00:51Z</time></trkpt>
<trkpt lat="39.723826" lon="2.793924"><ele>330.83</ele><time>2009-12-05T08:00:57Z</time></trkpt>
<trkpt lat="39.723848" lon="2.793877"><ele>330.83</ele><time>2009-12-05T08:00:59Z</time></trkpt>
<trkpt lat="39.723956" lon="2.793602"><ele>333.23</ele><time>2009-12-05T08:01:11Z</time></trkpt>
<trkpt lat="39.724103" lon="2.793413"><ele>334.68</ele><time>2009-12-05T08:01:21Z</time></trkpt>
<trkpt lat="39.724284" lon="2.793231"><ele>337.08</ele><time>2009-12-05T08:01:33Z</time></trkpt>
<trkpt lat="39.724472" lon="2.793163"><ele>339.96</ele><time>2009-12-05T08:01:44Z</time></trkpt>
<trkpt lat="39.724613" lon="2.793121"><ele>341.89</ele><time>2009-12-05T08:01:53Z</time></trkpt>
<trkpt lat="39.724754" lon="2.793072"><ele>344.29</ele><time>2009-12-05T08:02:02Z</time></trkpt>
<trkpt lat="39.724906" lon="2.793010"><ele>346.69</ele><time>2009-12-05T08:02:11Z</time></trkpt>
<trkpt lat="39.724965" lon="2.792839"><ele>348.62</ele><time>2009-12-05T08:02:20Z</time></trkpt>
<trkpt lat="39.724968" lon="2.792698"><ele>350.06</ele><time>2009-12-05T08:02:28Z</time></trkpt>
<trkpt lat="39.724965" lon="2.792690"><ele>350.54</ele><time>2009-12-05T08:02:29Z</time></trkpt>
<trkpt lat="39.724898" lon="2.792361"><ele>352.46</ele><time>2009-12-05T08:02:40Z</time></trkpt>
<trkpt lat="39.724824" lon="2.792181"><ele>354.38</ele><time>2009-12-05T08:02:49Z</time></trkpt>
<trkpt lat="39.724802" lon="2.792093"><ele>354.86</ele><time>2009-12-05T08:02:53Z</time></trkpt>
<trkpt lat="39.724826" lon="2.791834"><ele>357.27</ele><time>2009-12-05T08:03:04Z</time></trkpt>
<trkpt lat="39.724911" lon="2.791742"><ele>359.19</ele><time>2009-12-05T08:03:12Z</time></trkpt>
<trkpt lat="39.724933" lon="2.791814"><ele>360.15</ele><time>2009-12-05T08:03:16Z</time></trkpt>
<trkpt lat="39.724940" lon="2.792036"><ele>361.59</ele><time>2009-12-05T08:03:25Z</time></trkpt>
<trkpt lat="39.725019" lon="2.792181"><ele>363.52</ele><time>2009-12-05T08:03:33Z</time></trkpt>
<trkpt lat="39.725053" lon="2.792234"><ele>364.00</ele><time>2009-12-05T08:03:36Z</time></trkpt>
<trkpt lat="39.725104" lon="2.792266"><ele>364.96</ele><time>2009-12-05T08:03:40Z</time></trkpt>
<trkpt lat="39.725135" lon="2.792176"><ele>366.40</ele><time>2009-12-05T08:03:45Z</time></trkpt>
<trkpt lat="39.725088" lon="2.791961"><ele>368.32</ele><time>2009-12-05T08:03:55Z</time></trkpt>
<trkpt lat="39.725080" lon="2.791834"><ele>370.24</ele><time>2009-12-05T08:04:02Z</time></trkpt>
<trkpt lat="39.725186" lon="2.791584"><ele>372.17</ele><time>2009-12-05T08:04:14Z</time></trkpt>
<trkpt lat="39.725336" lon="2.791387"><ele>374.09</ele><time>2009-12-05T08:04:26Z</time></trkpt>
<trkpt lat="39.725402" lon="2.791295"><ele>375.53</ele><time>2009-12-05T08:04:33Z</time></trkpt>
<trkpt lat="39.725431" lon="2.791362"><ele>375.53</ele><time>2009-12-05T08:04:37Z</time></trkpt>
<trkpt lat="39.725338" lon="2.791564"><ele>376.97</ele><time>2009-12-05T08:04:46Z</time></trkpt>
<trkpt lat="39.725307" lon="2.791796"><ele>378.90</ele><time>2009-12-05T08:04:55Z</time></trkpt>
<trkpt lat="39.725392" lon="2.791951"><ele>380.34</ele><time>2009-12-05T08:05:04Z</time></trkpt>
<trkpt lat="39.725458" lon="2.791859"><ele>381.78</ele><time>2009-12-05T08:05:10Z</time></trkpt>
<trkpt lat="39.725459" lon="2.791837"><ele>382.26</ele><time>2009-12-05T08:05:11Z</time></trkpt>
<trkpt lat="39.725458" lon="2.791600"><ele>383.22</ele><time>2009-12-05T08:05:20Z</time></trkpt>
<trkpt lat="39.725509" lon="2.791367"><ele>384.66</ele><time>2009-12-05T08:05:29Z</time></trkpt>
<trkpt lat="39.725570" lon="2.791257"><ele>385.63</ele><time>2009-12-05T08:05:34Z</time></trkpt>
<trkpt lat="39.725645" lon="2.791331"><ele>387.55</ele><time>2009-12-05T08:05:41Z</time></trkpt>
<trkpt lat="39.725627" lon="2.791381"><ele>388.03</ele><time>2009-12-05T08:05:43Z</time></trkpt>
<trkpt lat="39.725600" lon="2.791630"><ele>388.99</ele><time>2009-12-05T08:05:52Z</time></trkpt>
<trkpt lat="39.725698" lon="2.791801"><ele>390.43</ele><time>2009-12-05T08:06:01Z</time></trkpt>
<trkpt lat="39.725814" lon="2.791942"><ele>392.36</ele><time>2009-12-05T08:06:10Z</time></trkpt>
<trkpt lat="39.725943" lon="2.792111"><ele>395.24</ele><time>2009-12-05T08:06:20Z</time></trkpt>
<trkpt lat="39.726036" lon="2.792239"><ele>396.68</ele><time>2009-12-05T08:06:27Z</time></trkpt>
<trkpt lat="39.726048" lon="2.792524"><ele>398.60</ele><time>2009-12-05T08:06:38Z</time></trkpt>
<trkpt lat="39.726019" lon="2.792841"><ele>400.53</ele><time>2009-12-05T08:06:51Z</time></trkpt>
<trkpt lat="39.725970" lon="2.793127"><ele>402.45</ele><time>2009-12-05T08:07:02Z</time></trkpt>
<trkpt lat="39.725912" lon="2.793455"><ele>405.81</ele><time>2009-12-05T08:07:16Z</time></trkpt>
<trkpt lat="39.725911" lon="2.793503"><ele>406.29</ele><time>2009-12-05T08:07:18Z</time></trkpt>
<trkpt lat="39.725978" lon="2.793504"><ele>407.74</ele><time>2009-12-05T08:07:23Z</time></trkpt>
<trkpt lat="39.726083" lon="2.793260"><ele>409.18</ele><time>2009-12-05T08:07:34Z</time></trkpt>
<trkpt lat="39.726211" lon="2.793027"><ele>410.62</ele><time>2009-12-05T08:07:45Z</time></trkpt>
<trkpt lat="39.726351" lon="2.792710"><ele>412.54</ele><time>2009-12-05T08:08:00Z</time></trkpt>
<trkpt lat="39.726435" lon="2.792401"><ele>414.95</ele><time>2009-12-05T08:08:13Z</time></trkpt>
<trkpt lat="39.726471" lon="2.792135"><ele>416.87</ele><time>2009-12-05T08:08:23Z</time></trkpt>
<trkpt lat="39.726462" lon="2.791899"><ele>418.79</ele><time>2009-12-05T08:08:33Z</time></trkpt>
<trkpt lat="39.726480" lon="2.791859"><ele>419.27</ele><time>2009-12-05T08:08:35Z</time></trkpt>
<trkpt lat="39.726540" lon="2.791861"><ele>420.23</ele><time>2009-12-05T08:08:39Z</time></trkpt>
<trkpt lat="39.726621" lon="2.792003"><ele>422.16</ele><time>2009-12-05T08:08:47Z</time></trkpt>
<trkpt lat="39.726717" lon="2.792180"><ele>424.56</ele><time>2009-12-05T08:08:57Z</time></trkpt>
<trkpt lat="39.726733" lon="2.792398"><ele>426.00</ele><time>2009-12-05T08:09:06Z</time></trkpt>
<trkpt lat="39.726677" lon="2.792671"><ele>427.92</ele><time>2009-12-05T08:09:18Z</time></trkpt>
<trkpt lat="39.726611" lon="2.792905"><ele>429.37</ele><time>2009-12-05T08:09:28Z</time></trkpt>
<trkpt lat="39.726611" lon="2.792948"><ele>429.37</ele><time>2009-12-05T08:09:30Z</time></trkpt>
<trkpt lat="39.726689" lon="2.792978"><ele>430.81</ele><time>2009-12-05T08:09:36Z</time></trkpt>
<trkpt lat="39.726781" lon="2.792815"><ele>433.21</ele><time>2009-12-05T08:09:46Z</time></trkpt>
<trkpt lat="39.726914" lon="2.792641"><ele>435.61</ele><time>2009-12-05T08:09:57Z</time></trkpt>
<trkpt lat="39.727053" lon="2.792429"><ele>437.54</ele><time>2009-12-05T08:10:09Z</time></trkpt>
<trkpt lat="39.727178" lon="2.792246"><ele>438.98</ele><time>2009-12-05T08:10:20Z</time></trkpt>
<trkpt lat="39.727305" lon="2.792155"><ele>440.42</ele><time>2009-12-05T08:10:28Z</time></trkpt>
<trkpt lat="39.727485" lon="2.792131"><ele>442.82</ele><time>2009-12-05T08:10:39Z</time></trkpt>
<trkpt lat="39.727623" lon="2.792148"><ele>443.79</ele><time>2009-12-05T08:10:46Z</time></trkpt>
<trkpt lat="39.727728" lon="2.792074"><ele>445.71</ele><time>2009-12-05T08:10:56Z</time></trkpt>
<trkpt lat="39.727867" lon="2.792005"><ele>447.63</ele><time>2009-12-05T08:11:06Z</time></trkpt>
<trkpt lat="39.727967" lon="2.791919"><ele>449.55</ele><time>2009-12-05T08:11:16Z</time></trkpt>
<trkpt lat="39.728070" lon="2.791836"><ele>451.96</ele><time>2009-12-05T08:11:26Z</time></trkpt>
<trkpt lat="39.728095" lon="2.791815"><ele>452.44</ele><time>2009-12-05T08:11:29Z</time></trkpt>
<trkpt lat="39.728247" lon="2.791755"><ele>454.84</ele><time>2009-12-05T08:11:41Z</time></trkpt>
<trkpt lat="39.728334" lon="2.791697"><ele>456.28</ele><time>2009-12-05T08:11:50Z</time></trkpt>
<trkpt lat="39.728398" lon="2.791593"><ele>457.72</ele><time>2009-12-05T08:11:58Z</time></trkpt>
<trkpt lat="39.728480" lon="2.791445"><ele>459.65</ele><time>2009-12-05T08:12:09Z</time></trkpt>
<trkpt lat="39.728554" lon="2.791312"><ele>461.57</ele><time>2009-12-05T08:12:19Z</time></trkpt>
<trkpt lat="39.728605" lon="2.791275"><ele>463.01</ele><time>2009-12-05T08:12:25Z</time></trkpt>
<trkpt lat="39.728662" lon="2.791151"><ele>464.93</ele><time>2009-12-05T08:12:38Z</time></trkpt>
<trkpt lat="39.728713" lon="2.791056"><ele>466.38</ele><time>2009-12-05T08:12:47Z</time></trkpt>
<trkpt lat="39.728786" lon="2.790942"><ele>468.30</ele><time>2009-12-05T08:12:58Z</time></trkpt>
<trkpt lat="39.728841" lon="2.790890"><ele>469.74</ele><time>2009-12-05T08:13:06Z</time></trkpt>
<trkpt lat="39.728904" lon="2.790772"><ele>471.66</ele><time>2009-12-05T08:13:16Z</time></trkpt>
<trkpt lat="39.728907" lon="2.790761"><ele>471.66</ele><time>2009-12-05T08:13:17Z</time></trkpt>
<trkpt lat="39.729021" lon="2.790692"><ele>473.59</ele><time>2009-12-05T08:13:28Z</time></trkpt>
<trkpt lat="39.729160" lon="2.790595"><ele>475.99</ele><time>2009-12-05T08:13:42Z</time></trkpt>
<trkpt lat="39.729202" lon="2.790538"><ele>476.47</ele><time>2009-12-05T08:13:47Z</time></trkpt>
<trkpt lat="39.729207" lon="2.790513"><ele>476.95</ele><time>2009-12-05T08:13:49Z</time></trkpt>
<trkpt lat="39.729235" lon="2.790433"><ele>477.91</ele><time>2009-12-05T08:13:55Z</time></trkpt>
<trkpt lat="39.729265" lon="2.790333"><ele>478.87</ele><time>2009-12-05T08:14:03Z</time></trkpt>
<trkpt lat="39.729304" lon="2.790330"><ele>479.35</ele><time>2009-12-05T08:14:06Z</time></trkpt>
<trkpt lat="39.729367" lon="2.790473"><ele>480.80</ele><time>2009-12-05T08:14:15Z</time></trkpt>
<trkpt lat="39.729370" lon="2.790590"><ele>481.76</ele><time>2009-12-05T08:14:22Z</time></trkpt>
<trkpt lat="39.729335" lon="2.790803"><ele>483.68</ele><time>2009-12-05T08:14:33Z</time></trkpt>
<trkpt lat="39.729292" lon="2.791005"><ele>485.12</ele><time>2009-12-05T08:14:43Z</time></trkpt>
<trkpt lat="39.729216" lon="2.791328"><ele>487.05</ele><time>2009-12-05T08:14:58Z</time></trkpt>
<trkpt lat="39.729112" lon="2.791624"><ele>489.45</ele><time>2009-12-05T08:15:12Z</time></trkpt>
<trkpt lat="39.729167" lon="2.791676"><ele>490.89</ele><time>2009-12-05T08:15:18Z</time></trkpt>
<trkpt lat="39.729203" lon="2.791643"><ele>491.85</ele><time>2009-12-05T08:15:21Z</time></trkpt>
<trkpt lat="39.729329" lon="2.791465"><ele>493.77</ele><time>2009-12-05T08:15:33Z</time></trkpt>
<trkpt lat="39.729508" lon="2.791273"><ele>496.18</ele><time>2009-12-05T08:15:46Z</time></trkpt>
<trkpt lat="39.729631" lon="2.791070"><ele>498.58</ele><time>2009-12-05T08:15:59Z</time></trkpt>
<trkpt lat="39.729707" lon="2.790918"><ele>499.54</ele><time>2009-12-05T08:16:07Z</time></trkpt>
<trkpt lat="39.729856" lon="2.790656"><ele>501.46</ele><time>2009-12-05T08:16:20Z</time></trkpt>
<trkpt lat="39.730023" lon="2.790385"><ele>503.39</ele><time>2009-12-05T08:16:32Z</time></trkpt>
<trkpt lat="39.730153" lon="2.790196"><ele>503.87</ele><time>2009-12-05T08:16:41Z</time></trkpt>
<trkpt lat="39.730224" lon="2.790012"><ele>504.83</ele><time>2009-12-05T08:16:50Z</time></trkpt>
<trkpt lat="39.730228" lon="2.789992"><ele>505.31</ele><time>2009-12-05T08:16:51Z</time></trkpt>
<trkpt lat="39.730237" lon="2.789894"><ele>505.79</ele><time>2009-12-05T08:16:55Z</time></trkpt>
<trkpt lat="39.730248" lon="2.789769"><ele>506.27</ele><time>2009-12-05T08:17:01Z</time></trkpt>
<trkpt lat="39.730252" lon="2.789751"><ele>506.27</ele><time>2009-12-05T08:17:02Z</time></trkpt>
<trkpt lat="39.730221" lon="2.789583"><ele>506.75</ele><time>2009-12-05T08:17:07Z</time></trkpt>
<trkpt lat="39.730213" lon="2.789543"><ele>507.23</ele><time>2009-12-05T08:17:09Z</time></trkpt>
<trkpt lat="39.730135" lon="2.789313"><ele>507.71</ele><time>2009-12-05T08:17:14Z</time></trkpt>
<trkpt lat="39.730124" lon="2.789246"><ele>507.71</ele><time>2009-12-05T08:17:17Z</time></trkpt>
<trkpt lat="39.730000" lon="2.789242"><ele>509.16</ele><time>2009-12-05T08:17:25Z</time></trkpt>
<trkpt lat="39.729846" lon="2.789293"><ele>510.60</ele><time>2009-12-05T08:17:34Z</time></trkpt>
<trkpt lat="39.729801" lon="2.789284"><ele>511.08</ele><time>2009-12-05T08:17:37Z</time></trkpt>
<trkpt lat="39.729751" lon="2.789300"><ele>511.56</ele><time>2009-12-05T08:17:40Z</time></trkpt>
<trkpt lat="39.729594" lon="2.789335"><ele>513.48</ele><time>2009-12-05T08:17:50Z</time></trkpt>
<trkpt lat="39.729548" lon="2.789343"><ele>513.48</ele><time>2009-12-05T08:17:53Z</time></trkpt>
<trkpt lat="39.729366" lon="2.789310"><ele>515.88</ele><time>2009-12-05T08:18:06Z</time></trkpt>
<trkpt lat="39.729216" lon="2.789219"><ele>517.81</ele><time>2009-12-05T08:18:16Z</time></trkpt>
<trkpt lat="39.729050" lon="2.789172"><ele>519.25</ele><time>2009-12-05T08:18:27Z</time></trkpt>
<trkpt lat="39.728926" lon="2.789147"><ele>520.21</ele><time>2009-12-05T08:18:34Z</time></trkpt>
<trkpt lat="39.728818" lon="2.789121"><ele>520.69</ele><time>2009-12-05T08:18:40Z</time></trkpt>
<trkpt lat="39.728659" lon="2.789010"><ele>521.17</ele><time>2009-12-05T08:18:50Z</time></trkpt>
<trkpt lat="39.728648" lon="2.788999"><ele>521.17</ele><time>2009-12-05T08:18:51Z</time></trkpt>
<trkpt lat="39.728673" lon="2.788919"><ele>522.13</ele><time>2009-12-05T08:18:57Z</time></trkpt>
<trkpt lat="39.728685" lon="2.788927"><ele>522.61</ele><time>2009-12-05T08:18:58Z</time></trkpt>
<trkpt lat="39.728823" lon="2.789013"><ele>524.06</ele><time>2009-12-05T08:19:07Z</time></trkpt>
<trkpt lat="39.728838" lon="2.789020"><ele>524.54</ele><time>2009-12-05T08:19:08Z</time></trkpt>
<trkpt lat="39.728985" lon="2.789014"><ele>525.50</ele><time>2009-12-05T08:19:16Z</time></trkpt>
<trkpt lat="39.729069" lon="2.789018"><ele>525.98</ele><time>2009-12-05T08:19:22Z</time></trkpt>
<trkpt lat="39.729163" lon="2.789018"><ele>526.94</ele><time>2009-12-05T08:19:27Z</time></trkpt>
<trkpt lat="39.729185" lon="2.788990"><ele>527.90</ele><time>2009-12-05T08:19:30Z</time></trkpt>
<trkpt lat="39.729170" lon="2.788939"><ele>528.38</ele><time>2009-12-05T08:19:33Z</time></trkpt>
<trkpt lat="39.728984" lon="2.788852"><ele>530.79</ele><time>2009-12-05T08:19:45Z</time></trkpt>
<trkpt lat="39.728868" lon="2.788777"><ele>531.75</ele><time>2009-12-05T08:19:54Z</time></trkpt>
<trkpt lat="39.728778" lon="2.788668"><ele>533.19</ele><time>2009-12-05T08:20:02Z</time></trkpt>
<trkpt lat="39.728756" lon="2.788618"><ele>533.67</ele><time>2009-12-05T08:20:05Z</time></trkpt>
<trkpt lat="39.728761" lon="2.788556"><ele>534.15</ele><time>2009-12-05T08:20:09Z</time></trkpt>
<trkpt lat="39.728800" lon="2.788497"><ele>534.63</ele><time>2009-12-05T08:20:12Z</time></trkpt>
<trkpt lat="39.728916" lon="2.788447"><ele>536.55</ele><time>2009-12-05T08:20:20Z</time></trkpt>
<trkpt lat="39.728986" lon="2.788455"><ele>537.99</ele><time>2009-12-05T08:20:26Z</time></trkpt>
<trkpt lat="39.728997" lon="2.788454"><ele>537.99</ele><time>2009-12-05T08:20:27Z</time></trkpt>
<trkpt lat="39.729118" lon="2.788461"><ele>539.44</ele><time>2009-12-05T08:20:35Z</time></trkpt>
<trkpt lat="39.729194" lon="2.788464"><ele>539.92</ele><time>2009-12-05T08:20:39Z</time></trkpt>
<trkpt lat="39.729334" lon="2.788399"><ele>541.36</ele><time>2009-12-05T08:20:50Z</time></trkpt>
<trkpt lat="39.729363" lon="2.788368"><ele>542.32</ele><time>2009-12-05T08:20:54Z</time></trkpt>
<trkpt lat="39.729345" lon="2.788257"><ele>543.76</ele><time>2009-12-05T08:21:01Z</time></trkpt>
<trkpt lat="39.729334" lon="2.788243"><ele>544.24</ele><time>2009-12-05T08:21:02Z</time></trkpt>
<trkpt lat="39.729166" lon="2.788185"><ele>545.20</ele><time>2009-12-05T08:21:12Z</time></trkpt>
<trkpt lat="39.729121" lon="2.788234"><ele>545.20</ele><time>2009-12-05T08:21:17Z</time></trkpt>
<trkpt lat="39.729094" lon="2.788327"><ele>545.20</ele><time>2009-12-05T08:21:26Z</time></trkpt>
<trkpt lat="39.729076" lon="2.788340"><ele>545.20</ele><time>2009-12-05T08:21:34Z</time></trkpt>
<trkpt lat="39.729070" lon="2.788311"><ele>545.20</ele><time>2009-12-05T08:21:46Z</time></trkpt>
<trkpt lat="39.729079" lon="2.788298"><ele>545.20</ele><time>2009-12-05T08:21:56Z</time></trkpt>
<trkpt lat="39.729097" lon="2.788279"><ele>545.20</ele><time>2009-12-05T08:22:05Z</time></trkpt>
<trkpt lat="39.729105" lon="2.788287"><ele>545.20</ele><time>2009-12-05T08:22:13Z</time></trkpt>
<trkpt lat="39.729118" lon="2.788286"><ele>545.20</ele><time>2009-12-05T08:22:18Z</time></trkpt>
<trkpt lat="39.729145" lon="2.788239"><ele>545.20</ele><time>2009-12-05T08:22:23Z</time></trkpt>
<trkpt lat="39.729182" lon="2.788246"><ele>545.69</ele><time>2009-12-05T08:22:30Z</time></trkpt>
<trkpt lat="39.729225" lon="2.788233"><ele>545.69</ele><time>2009-12-05T08:22:38Z</time></trkpt>
<trkpt lat="39.729220" lon="2.788208"><ele>544.72</ele><time>2009-12-05T08:22:46Z</time></trkpt>
<trkpt lat="39.729236" lon="2.788208"><ele>544.72</ele><time>2009-12-05T08:23:06Z</time></trkpt>
<trkpt lat="39.729254" lon="2.788217"><ele>544.72</ele><time>2009-12-05T08:23:23Z</time></trkpt>
<trkpt lat="39.729271" lon="2.788221"><ele>545.20</ele><time>2009-12-05T08:25:26Z</time></trkpt>
<trkpt lat="39.729228" lon="2.788190"><ele>545.20</ele><time>2009-12-05T08:25:40Z</time></trkpt>
<trkpt lat="39.729203" lon="2.788148"><ele>545.69</ele><time>2009-12-05T08:25:59Z</time></trkpt>
<trkpt lat="39.729134" lon="2.787980"><ele>547.13</ele><time>2009-12-05T08:26:09Z</time></trkpt>
<trkpt lat="39.729063" lon="2.787837"><ele>548.57</ele><time>2009-12-05T08:26:19Z</time></trkpt>
<trkpt lat="39.729036" lon="2.787790"><ele>549.05</ele><time>2009-12-05T08:26:22Z</time></trkpt>
<trkpt lat="39.728937" lon="2.787613"><ele>550.49</ele><time>2009-12-05T08:26:33Z</time></trkpt>
<trkpt lat="39.728843" lon="2.787427"><ele>551.93</ele><time>2009-12-05T08:26:43Z</time></trkpt>
<trkpt lat="39.728751" lon="2.787281"><ele>552.90</ele><time>2009-12-05T08:26:52Z</time></trkpt>
<trkpt lat="39.728712" lon="2.787207"><ele>554.34</ele><time>2009-12-05T08:26:57Z</time></trkpt>
<trkpt lat="39.728715" lon="2.787130"><ele>555.30</ele><time>2009-12-05T08:27:02Z</time></trkpt>
<trkpt lat="39.728766" lon="2.787073"><ele>556.26</ele><time>2009-12-05T08:27:07Z</time></trkpt>
<trkpt lat="39.728883" lon="2.787165"><ele>557.70</ele><time>2009-12-05T08:27:16Z</time></trkpt>
<trkpt lat="39.728989" lon="2.787242"><ele>559.14</ele><time>2009-12-05T08:27:24Z</time></trkpt>
<trkpt lat="39.729068" lon="2.787283"><ele>560.11</ele><time>2009-12-05T08:27:30Z</time></trkpt>
<trkpt lat="39.729159" lon="2.787318"><ele>561.55</ele><time>2009-12-05T08:27:37Z</time></trkpt>
<trkpt lat="39.729196" lon="2.787359"><ele>562.03</ele><time>2009-12-05T08:27:41Z</time></trkpt>
<trkpt lat="39.729233" lon="2.787386"><ele>562.99</ele><time>2009-12-05T08:27:45Z</time></trkpt>
<trkpt lat="39.729303" lon="2.787383"><ele>564.43</ele><time>2009-12-05T08:27:50Z</time></trkpt>
<trkpt lat="39.729396" lon="2.787374"><ele>565.39</ele><time>2009-12-05T08:27:57Z</time></trkpt>
<trkpt lat="39.729516" lon="2.787297"><ele>566.35</ele><time>2009-12-05T08:28:06Z</time></trkpt>
<trkpt lat="39.729589" lon="2.787247"><ele>566.83</ele><time>2009-12-05T08:28:11Z</time></trkpt>
<trkpt lat="39.729744" lon="2.787174"><ele>568.28</ele><time>2009-12-05T08:28:19Z</time></trkpt>
<trkpt lat="39.729779" lon="2.787171"><ele>568.28</ele><time>2009-12-05T08:28:21Z</time></trkpt>
<trkpt lat="39.729893" lon="2.787121"><ele>569.72</ele><time>2009-12-05T08:28:29Z</time></trkpt>
<trkpt lat="39.729909" lon="2.787091"><ele>569.72</ele><time>2009-12-05T08:28:31Z</time></trkpt>
<trkpt lat="39.729958" lon="2.787068"><ele>570.20</ele><time>2009-12-05T08:28:34Z</time></trkpt>
<trkpt lat="39.730085" lon="2.787005"><ele>571.64</ele><time>2009-12-05T08:28:43Z</time></trkpt>
<trkpt lat="39.730217" lon="2.786963"><ele>573.56</ele><time>2009-12-05T08:28:53Z</time></trkpt>
<trkpt lat="39.730250" lon="2.786963"><ele>574.53</ele><time>2009-12-05T08:28:57Z</time></trkpt>
<trkpt lat="39.730242" lon="2.786886"><ele>575.49</ele><time>2009-12-05T08:29:03Z</time></trkpt>
<trkpt lat="39.730216" lon="2.786877"><ele>575.97</ele><time>2009-12-05T08:29:04Z</time></trkpt>
<trkpt lat="39.730095" lon="2.786876"><ele>576.93</ele><time>2009-12-05T08:29:10Z</time></trkpt>
<trkpt lat="39.729998" lon="2.786860"><ele>577.41</ele><time>2009-12-05T08:29:16Z</time></trkpt>
<trkpt lat="39.729963" lon="2.786815"><ele>578.37</ele><time>2009-12-05T08:29:19Z</time></trkpt>
<trkpt lat="39.729954" lon="2.786773"><ele>578.85</ele><time>2009-12-05T08:29:21Z</time></trkpt>
<trkpt lat="39.730002" lon="2.786729"><ele>579.33</ele><time>2009-12-05T08:29:26Z</time></trkpt>
<trkpt lat="39.730046" lon="2.786724"><ele>579.81</ele><time>2009-12-05T08:29:29Z</time></trkpt>
<trkpt lat="39.730146" lon="2.786732"><ele>580.29</ele><time>2009-12-05T08:29:36Z</time></trkpt>
<trkpt lat="39.730263" lon="2.786739"><ele>581.73</ele><time>2009-12-05T08:29:43Z</time></trkpt>
<trkpt lat="39.730305" lon="2.786720"><ele>581.73</ele><time>2009-12-05T08:29:46Z</time></trkpt>
<trkpt lat="39.730381" lon="2.786659"><ele>583.18</ele><time>2009-12-05T08:29:54Z</time></trkpt>
<trkpt lat="39.730379" lon="2.786589"><ele>584.14</ele><time>2009-12-05T08:29:58Z</time></trkpt>
<trkpt lat="39.730336" lon="2.786550"><ele>585.10</ele><time>2009-12-05T08:30:01Z</time></trkpt>
<trkpt lat="39.730259" lon="2.786518"><ele>586.06</ele><time>2009-12-05T08:30:07Z</time></trkpt>
<trkpt lat="39.730078" lon="2.786485"><ele>587.02</ele><time>2009-12-05T08:30:17Z</time></trkpt>
<trkpt lat="39.729893" lon="2.786478"><ele>588.95</ele><time>2009-12-05T08:30:28Z</time></trkpt>
<trkpt lat="39.729880" lon="2.786456"><ele>589.43</ele><time>2009-12-05T08:30:29Z</time></trkpt>
<trkpt lat="39.729866" lon="2.786414"><ele>589.43</ele><time>2009-12-05T08:30:31Z</time></trkpt>
<trkpt lat="39.729890" lon="2.786326"><ele>591.35</ele><time>2009-12-05T08:30:37Z</time></trkpt>
<trkpt lat="39.730043" lon="2.786200"><ele>593.27</ele><time>2009-12-05T08:30:49Z</time></trkpt>
<trkpt lat="39.730125" lon="2.786117"><ele>594.71</ele><time>2009-12-05T08:30:56Z</time></trkpt>
<trkpt lat="39.730136" lon="2.786104"><ele>594.71</ele><time>2009-12-05T08:30:57Z</time></trkpt>
<trkpt lat="39.730264" lon="2.786070"><ele>596.15</ele><time>2009-12-05T08:31:05Z</time></trkpt>
<trkpt lat="39.730380" lon="2.786059"><ele>596.64</ele><time>2009-12-05T08:31:12Z</time></trkpt>
<trkpt lat="39.730490" lon="2.786009"><ele>598.08</ele><time>2009-12-05T08:31:19Z</time></trkpt>
<trkpt lat="39.730535" lon="2.785981"><ele>598.08</ele><time>2009-12-05T08:31:22Z</time></trkpt>
<trkpt lat="39.730503" lon="2.785884"><ele>600.00</ele><time>2009-12-05T08:31:29Z</time></trkpt>
<trkpt lat="39.730477" lon="2.785893"><ele>600.48</ele><time>2009-12-05T08:31:31Z</time></trkpt>
<trkpt lat="39.730279" lon="2.785903"><ele>602.40</ele><time>2009-12-05T08:31:42Z</time></trkpt>
<trkpt lat="39.730126" lon="2.785912"><ele>602.88</ele><time>2009-12-05T08:31:50Z</time></trkpt>
<trkpt lat="39.730025" lon="2.785962"><ele>604.33</ele><time>2009-12-05T08:31:56Z</time></trkpt>
<trkpt lat="39.729933" lon="2.786033"><ele>605.29</ele><time>2009-12-05T08:32:02Z</time></trkpt>
<trkpt lat="39.729869" lon="2.786110"><ele>605.77</ele><time>2009-12-05T08:32:07Z</time></trkpt>
<trkpt lat="39.729642" lon="2.786138"><ele>608.17</ele><time>2009-12-05T08:32:19Z</time></trkpt>
<trkpt lat="39.729603" lon="2.786143"><ele>608.65</ele><time>2009-12-05T08:32:21Z</time></trkpt>
<trkpt lat="39.729464" lon="2.786142"><ele>610.09</ele><time>2009-12-05T08:32:29Z</time></trkpt>
<trkpt lat="39.729436" lon="2.786122"><ele>611.06</ele><time>2009-12-05T08:32:31Z</time></trkpt>
<trkpt lat="39.729424" lon="2.785876"><ele>611.54</ele><time>2009-12-05T08:32:40Z</time></trkpt>
<trkpt lat="39.729362" lon="2.785635"><ele>612.98</ele><time>2009-12-05T08:32:49Z</time></trkpt>
<trkpt lat="39.729335" lon="2.785564"><ele>613.94</ele><time>2009-12-05T08:32:53Z</time></trkpt>
<trkpt lat="39.729337" lon="2.785532"><ele>613.94</ele><time>2009-12-05T08:32:55Z</time></trkpt>
<trkpt lat="39.729374" lon="2.785490"><ele>615.38</ele><time>2009-12-05T08:33:00Z</time></trkpt>
<trkpt lat="39.729477" lon="2.785529"><ele>615.86</ele><time>2009-12-05T08:33:06Z</time></trkpt>
<trkpt lat="39.729625" lon="2.785555"><ele>617.30</ele><time>2009-12-05T08:33:14Z</time></trkpt>
<trkpt lat="39.729826" lon="2.785674"><ele>618.75</ele><time>2009-12-05T08:33:23Z</time></trkpt>
<trkpt lat="39.729848" lon="2.785685"><ele>618.75</ele><time>2009-12-05T08:33:24Z</time></trkpt>
<trkpt lat="39.729931" lon="2.785680"><ele>619.71</ele><time>2009-12-05T08:33:28Z</time></trkpt>
<trkpt lat="39.730101" lon="2.785505"><ele>620.67</ele><time>2009-12-05T08:33:37Z</time></trkpt>
<trkpt lat="39.730120" lon="2.785497"><ele>620.67</ele><time>2009-12-05T08:33:38Z</time></trkpt>
<trkpt lat="39.730273" lon="2.785452"><ele>622.11</ele><time>2009-12-05T08:33:47Z</time></trkpt>
<trkpt lat="39.730298" lon="2.785455"><ele>622.11</ele><time>2009-12-05T08:33:48Z</time></trkpt>
<trkpt lat="39.730376" lon="2.785394"><ele>622.59</ele><time>2009-12-05T08:33:54Z</time></trkpt>
<trkpt lat="39.730431" lon="2.785332"><ele>623.07</ele><time>2009-12-05T08:33:58Z</time></trkpt>
<trkpt lat="39.730526" lon="2.785254"><ele>623.55</ele><time>2009-12-05T08:34:04Z</time></trkpt>
<trkpt lat="39.730546" lon="2.785237"><ele>624.03</ele><time>2009-12-05T08:34:05Z</time></trkpt>
<trkpt lat="39.730655" lon="2.785163"><ele>624.99</ele><time>2009-12-05T08:34:11Z</time></trkpt>
<trkpt lat="39.730741" lon="2.785059"><ele>625.47</ele><time>2009-12-05T08:34:17Z</time></trkpt>
<trkpt lat="39.730867" lon="2.785016"><ele>626.44</ele><time>2009-12-05T08:34:23Z</time></trkpt>
<trkpt lat="39.730889" lon="2.784976"><ele>626.92</ele><time>2009-12-05T08:34:25Z</time></trkpt>
<trkpt lat="39.730875" lon="2.784918"><ele>628.36</ele><time>2009-12-05T08:34:29Z</time></trkpt>
<trkpt lat="39.730818" lon="2.784966"><ele>629.32</ele><time>2009-12-05T08:34:34Z</time></trkpt>
<trkpt lat="39.730706" lon="2.785021"><ele>630.28</ele><time>2009-12-05T08:34:40Z</time></trkpt>
<trkpt lat="39.730558" lon="2.785127"><ele>631.24</ele><time>2009-12-05T08:34:48Z</time></trkpt>
<trkpt lat="39.730455" lon="2.785214"><ele>632.20</ele><time>2009-12-05T08:34:54Z</time></trkpt>
<trkpt lat="39.730412" lon="2.785240"><ele>632.68</ele><time>2009-12-05T08:34:57Z</time></trkpt>
<trkpt lat="39.730382" lon="2.785197"><ele>633.65</ele><time>2009-12-05T08:35:02Z</time></trkpt>
<trkpt lat="39.730423" lon="2.785182"><ele>634.13</ele><time>2009-12-05T08:35:05Z</time></trkpt>
<trkpt lat="39.730452" lon="2.785163"><ele>634.13</ele><time>2009-12-05T08:35:07Z</time></trkpt>
<trkpt lat="39.730498" lon="2.785103"><ele>635.57</ele><time>2009-12-05T08:35:11Z</time></trkpt>
<trkpt lat="39.730574" lon="2.784998"><ele>637.01</ele><time>2009-12-05T08:35:18Z</time></trkpt>
<trkpt lat="39.730586" lon="2.784971"><ele>637.49</ele><time>2009-12-05T08:35:20Z</time></trkpt>
<trkpt lat="39.730608" lon="2.784912"><ele>637.97</ele><time>2009-12-05T08:35:24Z</time></trkpt>
<trkpt lat="39.730725" lon="2.784807"><ele>639.41</ele><time>2009-12-05T08:35:31Z</time></trkpt>
<trkpt lat="39.730775" lon="2.784788"><ele>639.89</ele><time>2009-12-05T08:35:33Z</time></trkpt>
<trkpt lat="39.730952" lon="2.784707"><ele>641.34</ele><time>2009-12-05T08:35:42Z</time></trkpt>
<trkpt lat="39.731034" lon="2.784703"><ele>642.30</ele><time>2009-12-05T08:35:46Z</time></trkpt>
<trkpt lat="39.731088" lon="2.784683"><ele>642.30</ele><time>2009-12-05T08:35:49Z</time></trkpt>
<trkpt lat="39.731202" lon="2.784652"><ele>643.74</ele><time>2009-12-05T08:35:55Z</time></trkpt>
<trkpt lat="39.731220" lon="2.784647"><ele>643.74</ele><time>2009-12-05T08:35:56Z</time></trkpt>
<trkpt lat="39.731385" lon="2.784663"><ele>645.18</ele><time>2009-12-05T08:36:04Z</time></trkpt>
<trkpt lat="39.731399" lon="2.784671"><ele>645.18</ele><time>2009-12-05T08:36:05Z</time></trkpt>
<trkpt lat="39.731512" lon="2.784669"><ele>646.14</ele><time>2009-12-05T08:36:12Z</time></trkpt>
<trkpt lat="39.731562" lon="2.784643"><ele>647.10</ele><time>2009-12-05T08:36:15Z</time></trkpt>
<trkpt lat="39.731648" lon="2.784665"><ele>647.59</ele><time>2009-12-05T08:36:19Z</time></trkpt>
<trkpt lat="39.731709" lon="2.784663"><ele>648.07</ele><time>2009-12-05T08:36:22Z</time></trkpt>
<trkpt lat="39.731820" lon="2.784697"><ele>648.55</ele><time>2009-12-05T08:36:28Z</time></trkpt>
<trkpt lat="39.731985" lon="2.784847"><ele>649.99</ele><time>2009-12-05T08:36:37Z</time></trkpt>
<trkpt lat="39.732041" lon="2.784903"><ele>650.47</ele><time>2009-12-05T08:36:41Z</time></trkpt>
<trkpt lat="39.732112" lon="2.785019"><ele>651.43</ele><time>2009-12-05T08:36:47Z</time></trkpt>
<trkpt lat="39.732226" lon="2.785131"><ele>652.87</ele><time>2009-12-05T08:36:55Z</time></trkpt>
<trkpt lat="39.732281" lon="2.785169"><ele>653.35</ele><time>2009-12-05T08:36:59Z</time></trkpt>
<trkpt lat="39.732330" lon="2.785156"><ele>654.31</ele><time>2009-12-05T08:37:02Z</time></trkpt>
<trkpt lat="39.732447" lon="2.785172"><ele>654.80</ele><time>2009-12-05T08:37:08Z</time></trkpt>
<trkpt lat="39.732543" lon="2.785242"><ele>656.24</ele><time>2009-12-05T08:37:14Z</time></trkpt>
<trkpt lat="39.732623" lon="2.785218"><ele>657.68</ele><time>2009-12-05T08:37:21Z</time></trkpt>
<trkpt lat="39.732621" lon="2.785201"><ele>657.68</ele><time>2009-12-05T08:37:22Z</time></trkpt>
<trkpt lat="39.732546" lon="2.785154"><ele>658.16</ele><time>2009-12-05T08:37:27Z</time></trkpt>
<trkpt lat="39.732375" lon="2.785010"><ele>659.12</ele><time>2009-12-05T08:37:37Z</time></trkpt>
<trkpt lat="39.732310" lon="2.784881"><ele>659.60</ele><time>2009-12-05T08:37:43Z</time></trkpt>
<trkpt lat="39.732205" lon="2.784694"><ele>660.56</ele><time>2009-12-05T08:37:52Z</time></trkpt>
<trkpt lat="39.732127" lon="2.784513"><ele>661.52</ele><time>2009-12-05T08:38:00Z</time></trkpt>
<trkpt lat="39.732102" lon="2.784466"><ele>662.01</ele><time>2009-12-05T08:38:02Z</time></trkpt>
<trkpt lat="39.732052" lon="2.784416"><ele>662.01</ele><time>2009-12-05T08:38:05Z</time></trkpt>
<trkpt lat="39.732084" lon="2.784284"><ele>662.97</ele><time>2009-12-05T08:38:11Z</time></trkpt>
<trkpt lat="39.732123" lon="2.784279"><ele>663.45</ele><time>2009-12-05T08:38:12Z</time></trkpt>
<trkpt lat="39.732190" lon="2.784299"><ele>664.41</ele><time>2009-12-05T08:38:15Z</time></trkpt>
<trkpt lat="39.732269" lon="2.784361"><ele>665.37</ele><time>2009-12-05T08:38:19Z</time></trkpt>
<trkpt lat="39.732376" lon="2.784425"><ele>666.33</ele><time>2009-12-05T08:38:26Z</time></trkpt>
<trkpt lat="39.732487" lon="2.784455"><ele>667.29</ele><time>2009-12-05T08:38:32Z</time></trkpt>
<trkpt lat="39.732552" lon="2.784457"><ele>667.77</ele><time>2009-12-05T08:38:35Z</time></trkpt>
<trkpt lat="39.732691" lon="2.784449"><ele>668.73</ele><time>2009-12-05T08:38:42Z</time></trkpt>
<trkpt lat="39.732810" lon="2.784501"><ele>669.22</ele><time>2009-12-05T08:38:48Z</time></trkpt>
<trkpt lat="39.732877" lon="2.784517"><ele>670.18</ele><time>2009-12-05T08:38:52Z</time></trkpt>
<trkpt lat="39.733054" lon="2.784702"><ele>671.14</ele><time>2009-12-05T08:39:00Z</time></trkpt>
<trkpt lat="39.733177" lon="2.784809"><ele>672.58</ele><time>2009-12-05T08:39:10Z</time></trkpt>
<trkpt lat="39.733218" lon="2.784859"><ele>673.06</ele><time>2009-12-05T08:39:13Z</time></trkpt>
<trkpt lat="39.733312" lon="2.784933"><ele>674.02</ele><time>2009-12-05T08:39:20Z</time></trkpt>
<trkpt lat="39.733365" lon="2.784998"><ele>674.98</ele><time>2009-12-05T08:39:24Z</time></trkpt>
<trkpt lat="39.733445" lon="2.785054"><ele>675.46</ele><time>2009-12-05T08:39:29Z</time></trkpt>
<trkpt lat="39.733514" lon="2.785111"><ele>676.42</ele><time>2009-12-05T08:39:33Z</time></trkpt>
<trkpt lat="39.733691" lon="2.785198"><ele>677.87</ele><time>2009-12-05T08:39:43Z</time></trkpt>
<trkpt lat="39.733845" lon="2.785330"><ele>679.31</ele><time>2009-12-05T08:39:51Z</time></trkpt>
<trkpt lat="39.733887" lon="2.785434"><ele>680.27</ele><time>2009-12-05T08:39:57Z</time></trkpt>
<trkpt lat="39.733921" lon="2.785502"><ele>681.23</ele><time>2009-12-05T08:40:01Z</time></trkpt>
<trkpt lat="39.733974" lon="2.785665"><ele>682.19</ele><time>2009-12-05T08:40:09Z</time></trkpt>
<trkpt lat="39.734032" lon="2.785902"><ele>683.15</ele><time>2009-12-05T08:40:19Z</time></trkpt>
<trkpt lat="39.734125" lon="2.786209"><ele>684.12</ele><time>2009-12-05T08:40:31Z</time></trkpt>
<trkpt lat="39.734196" lon="2.786407"><ele>685.56</ele><time>2009-12-05T08:40:40Z</time></trkpt>
<trkpt lat="39.734283" lon="2.786543"><ele>687.00</ele><time>2009-12-05T08:40:48Z</time></trkpt>
<trkpt lat="39.734359" lon="2.786645"><ele>687.96</ele><time>2009-12-05T08:40:54Z</time></trkpt>
<trkpt lat="39.734503" lon="2.786813"><ele>689.40</ele><time>2009-12-05T08:41:04Z</time></trkpt>
<trkpt lat="39.734520" lon="2.786824"><ele>689.88</ele><time>2009-12-05T08:41:05Z</time></trkpt>
<trkpt lat="39.734623" lon="2.786818"><ele>689.88</ele><time>2009-12-05T08:41:10Z</time></trkpt>
<trkpt lat="39.734703" lon="2.786728"><ele>690.36</ele><time>2009-12-05T08:41:15Z</time></trkpt>
<trkpt lat="39.734766" lon="2.786702"><ele>690.84</ele><time>2009-12-05T08:41:23Z</time></trkpt>
<trkpt lat="39.734771" lon="2.786689"><ele>690.36</ele><time>2009-12-05T08:41:42Z</time></trkpt>
<trkpt lat="39.734800" lon="2.786651"><ele>690.36</ele><time>2009-12-05T08:41:51Z</time></trkpt>
<trkpt lat="39.734885" lon="2.786652"><ele>688.44</ele><time>2009-12-05T08:41:55Z</time></trkpt>
<trkpt lat="39.734961" lon="2.786684"><ele>687.00</ele><time>2009-12-05T08:41:57Z</time></trkpt>
<trkpt lat="39.735156" lon="2.786696"><ele>684.60</ele><time>2009-12-05T08:42:01Z</time></trkpt>
<trkpt lat="39.735344" lon="2.786691"><ele>680.75</ele><time>2009-12-05T08:42:07Z</time></trkpt>
<trkpt lat="39.735370" lon="2.786689"><ele>680.27</ele><time>2009-12-05T08:42:08Z</time></trkpt>
<trkpt lat="39.735504" lon="2.786744"><ele>679.31</ele><time>2009-12-05T08:42:16Z</time></trkpt>
<trkpt lat="39.735517" lon="2.786747"><ele>679.31</ele><time>2009-12-05T08:42:33Z</time></trkpt>
<trkpt lat="39.735570" lon="2.786712"><ele>680.27</ele><time>2009-12-05T08:46:15Z</time></trkpt>
<trkpt lat="39.735570" lon="2.786712"><ele>679.79</ele><time>2009-12-05T08:46:18Z</time></trkpt>
<trkpt lat="39.735628" lon="2.786809"><ele>677.39</ele><time>2009-12-05T08:46:25Z</time></trkpt>
<trkpt lat="39.735688" lon="2.786928"><ele>674.50</ele><time>2009-12-05T08:46:31Z</time></trkpt>
<trkpt lat="39.735760" lon="2.787034"><ele>672.10</ele><time>2009-12-05T08:46:38Z</time></trkpt>
<trkpt lat="39.735776" lon="2.786975"><ele>670.66</ele><time>2009-12-05T08:46:45Z</time></trkpt>
<trkpt lat="39.735823" lon="2.786957"><ele>669.22</ele><time>2009-12-05T08:46:49Z</time></trkpt>
<trkpt lat="39.735870" lon="2.786975"><ele>668.25</ele><time>2009-12-05T08:46:57Z</time></trkpt>
<trkpt lat="39.735906" lon="2.786993"><ele>666.33</ele><time>2009-12-05T08:47:05Z</time></trkpt>
<trkpt lat="39.735939" lon="2.786938"><ele>665.37</ele><time>2009-12-05T08:47:12Z</time></trkpt>
<trkpt lat="39.735984" lon="2.786952"><ele>662.49</ele><time>2009-12-05T08:47:22Z</time></trkpt>
<trkpt lat="39.736013" lon="2.786954"><ele>660.08</ele><time>2009-12-05T08:47:32Z</time></trkpt>
<trkpt lat="39.736102" lon="2.786961"><ele>659.60</ele><time>2009-12-05T08:47:39Z</time></trkpt>
<trkpt lat="39.736062" lon="2.786950"><ele>658.16</ele><time>2009-12-05T08:47:47Z</time></trkpt>
<trkpt lat="39.736142" lon="2.786917"><ele>655.28</ele><time>2009-12-05T08:48:01Z</time></trkpt>
<trkpt lat="39.736158" lon="2.786898"><ele>654.80</ele><time>2009-12-05T08:48:03Z</time></trkpt>
<trkpt lat="39.736210" lon="2.786826"><ele>653.83</ele><time>2009-12-05T08:48:07Z</time></trkpt>
<trkpt lat="39.736289" lon="2.786781"><ele>652.39</ele><time>2009-12-05T08:48:11Z</time></trkpt>
<trkpt lat="39.736338" lon="2.786603"><ele>650.47</ele><time>2009-12-05T08:48:16Z</time></trkpt>
<trkpt lat="39.736342" lon="2.786570"><ele>650.47</ele><time>2009-12-05T08:48:17Z</time></trkpt>
<trkpt lat="39.736351" lon="2.786393"><ele>649.99</ele><time>2009-12-05T08:48:23Z</time></trkpt>
<trkpt lat="39.736387" lon="2.786382"><ele>649.51</ele><time>2009-12-05T08:48:24Z</time></trkpt>
<trkpt lat="39.736377" lon="2.786319"><ele>648.55</ele><time>2009-12-05T08:48:29Z</time></trkpt>
<trkpt lat="39.736384" lon="2.786283"><ele>648.07</ele><time>2009-12-05T08:48:31Z</time></trkpt>
<trkpt lat="39.736456" lon="2.786281"><ele>646.62</ele><time>2009-12-05T08:48:35Z</time></trkpt>
<trkpt lat="39.736485" lon="2.786293"><ele>645.18</ele><time>2009-12-05T08:48:38Z</time></trkpt>
<trkpt lat="39.736509" lon="2.786311"><ele>644.70</ele><time>2009-12-05T08:48:44Z</time></trkpt>
<trkpt lat="39.736513" lon="2.786382"><ele>643.74</ele><time>2009-12-05T08:48:51Z</time></trkpt>
<trkpt lat="39.736422" lon="2.786341"><ele>642.78</ele><time>2009-12-05T08:49:00Z</time></trkpt>
<trkpt lat="39.736454" lon="2.786323"><ele>642.78</ele><time>2009-12-05T08:49:03Z</time></trkpt>
<trkpt lat="39.736466" lon="2.786248"><ele>641.82</ele><time>2009-12-05T08:49:07Z</time></trkpt>
<trkpt lat="39.736446" lon="2.786238"><ele>641.34</ele><time>2009-12-05T08:49:13Z</time></trkpt>
<trkpt lat="39.736364" lon="2.786285"><ele>640.86</ele><time>2009-12-05T08:49:24Z</time></trkpt>
<trkpt lat="39.736410" lon="2.786255"><ele>638.45</ele><time>2009-12-05T08:49:32Z</time></trkpt>
<trkpt lat="39.736438" lon="2.786247"><ele>638.45</ele><time>2009-12-05T08:49:35Z</time></trkpt>
<trkpt lat="39.736491" lon="2.786152"><ele>636.53</ele><time>2009-12-05T08:49:42Z</time></trkpt>
<trkpt lat="39.736498" lon="2.786036"><ele>634.13</ele><time>2009-12-05T08:49:49Z</time></trkpt>
<trkpt lat="39.736490" lon="2.785915"><ele>631.72</ele><time>2009-12-05T08:49:56Z</time></trkpt>
<trkpt lat="39.736489" lon="2.785880"><ele>632.20</ele><time>2009-12-05T08:50:02Z</time></trkpt>
<trkpt lat="39.736480" lon="2.785792"><ele>632.68</ele><time>2009-12-05T08:50:11Z</time></trkpt>
<trkpt lat="39.736490" lon="2.785740"><ele>632.68</ele><time>2009-12-05T08:50:18Z</time></trkpt>
<trkpt lat="39.736462" lon="2.785780"><ele>632.68</ele><time>2009-12-05T08:50:27Z</time></trkpt>
<trkpt lat="39.736390" lon="2.785775"><ele>633.65</ele><time>2009-12-05T08:50:37Z</time></trkpt>
<trkpt lat="39.736398" lon="2.785792"><ele>633.65</ele><time>2009-12-05T08:50:54Z</time></trkpt>
<trkpt lat="39.736292" lon="2.785701"><ele>634.13</ele><time>2009-12-05T08:51:18Z</time></trkpt>
<trkpt lat="39.736329" lon="2.785712"><ele>635.09</ele><time>2009-12-05T08:51:55Z</time></trkpt>
<trkpt lat="39.736428" lon="2.785774"><ele>633.17</ele><time>2009-12-05T08:52:03Z</time></trkpt>
<trkpt lat="39.736477" lon="2.785802"><ele>631.72</ele><time>2009-12-05T08:52:09Z</time></trkpt>
<trkpt lat="39.736480" lon="2.785787"><ele>629.80</ele><time>2009-12-05T08:52:17Z</time></trkpt>
<trkpt lat="39.736475" lon="2.785693"><ele>627.40</ele><time>2009-12-05T08:52:26Z</time></trkpt>
<trkpt lat="39.736537" lon="2.785656"><ele>624.51</ele><time>2009-12-05T08:52:37Z</time></trkpt>
<trkpt lat="39.736526" lon="2.785674"><ele>624.03</ele><time>2009-12-05T08:52:44Z</time></trkpt>
<trkpt lat="39.736561" lon="2.785694"><ele>621.15</ele><time>2009-12-05T08:52:50Z</time></trkpt>
<trkpt lat="39.736665" lon="2.785782"><ele>619.71</ele><time>2009-12-05T08:52:53Z</time></trkpt>
<trkpt lat="39.736670" lon="2.785797"><ele>619.23</ele><time>2009-12-05T08:52:54Z</time></trkpt>
<trkpt lat="39.736714" lon="2.785847"><ele>618.26</ele><time>2009-12-05T08:52:56Z</time></trkpt>
<trkpt lat="39.736717" lon="2.785862"><ele>618.26</ele><time>2009-12-05T08:52:57Z</time></trkpt>
<trkpt lat="39.736756" lon="2.785882"><ele>617.30</ele><time>2009-12-05T08:53:04Z</time></trkpt>
<trkpt lat="39.736774" lon="2.785838"><ele>614.90</ele><time>2009-12-05T08:53:14Z</time></trkpt>
<trkpt lat="39.736849" lon="2.785855"><ele>612.98</ele><time>2009-12-05T08:53:24Z</time></trkpt>
<trkpt lat="39.736908" lon="2.785806"><ele>610.57</ele><time>2009-12-05T08:53:36Z</time></trkpt>
<trkpt lat="39.736953" lon="2.785768"><ele>609.13</ele><time>2009-12-05T08:53:46Z</time></trkpt>
<trkpt lat="39.736935" lon="2.785791"><ele>607.69</ele><time>2009-12-05T08:53:57Z</time></trkpt>
<trkpt lat="39.736954" lon="2.785779"><ele>608.17</ele><time>2009-12-05T08:55:37Z</time></trkpt>
<trkpt lat="39.736990" lon="2.785688"><ele>606.73</ele><time>2009-12-05T08:55:46Z</time></trkpt>
<trkpt lat="39.737018" lon="2.785642"><ele>606.25</ele><time>2009-12-05T08:56:22Z</time></trkpt>
<trkpt lat="39.737071" lon="2.785673"><ele>605.29</ele><time>2009-12-05T08:56:32Z</time></trkpt>
<trkpt lat="39.737083" lon="2.785732"><ele>603.85</ele><time>2009-12-05T08:56:38Z</time></trkpt>
<trkpt lat="39.737097" lon="2.785875"><ele>600.96</ele><time>2009-12-05T08:56:42Z</time></trkpt>
<trkpt lat="39.737121" lon="2.785944"><ele>600.48</ele><time>2009-12-05T08:56:44Z</time></trkpt>
<trkpt lat="39.737111" lon="2.786078"><ele>597.60</ele><time>2009-12-05T08:56:48Z</time></trkpt>
<trkpt lat="39.737117" lon="2.786111"><ele>597.12</ele><time>2009-12-05T08:56:49Z</time></trkpt>
<trkpt lat="39.737083" lon="2.786291"><ele>593.75</ele><time>2009-12-05T08:56:58Z</time></trkpt>
<trkpt lat="39.737093" lon="2.786294"><ele>591.35</ele><time>2009-12-05T08:57:00Z</time></trkpt>
<trkpt lat="39.737225" lon="2.786319"><ele>587.50</ele><time>2009-12-05T08:57:08Z</time></trkpt>
<trkpt lat="39.737226" lon="2.786377"><ele>585.10</ele><time>2009-12-05T08:57:14Z</time></trkpt>
<trkpt lat="39.737227" lon="2.786457"><ele>583.66</ele><time>2009-12-05T08:57:25Z</time></trkpt>
<trkpt lat="39.737252" lon="2.786516"><ele>581.73</ele><time>2009-12-05T08:57:40Z</time></trkpt>
<trkpt lat="39.737325" lon="2.786437"><ele>579.33</ele><time>2009-12-05T08:57:49Z</time></trkpt>
<trkpt lat="39.737409" lon="2.786370"><ele>576.45</ele><time>2009-12-05T08:57:57Z</time></trkpt>
<trkpt lat="39.737527" lon="2.786252"><ele>571.64</ele><time>2009-12-05T08:58:02Z</time></trkpt>
<trkpt lat="39.737601" lon="2.786154"><ele>570.20</ele><time>2009-12-05T08:58:05Z</time></trkpt>
<trkpt lat="39.737727" lon="2.786054"><ele>566.83</ele><time>2009-12-05T08:58:10Z</time></trkpt>
<trkpt lat="39.737781" lon="2.786026"><ele>565.39</ele><time>2009-12-05T08:58:12Z</time></trkpt>
<trkpt lat="39.737804" lon="2.785983"><ele>564.43</ele><time>2009-12-05T08:58:14Z</time></trkpt>
<trkpt lat="39.737837" lon="2.785904"><ele>562.99</ele><time>2009-12-05T08:58:17Z</time></trkpt>
<trkpt lat="39.737889" lon="2.785780"><ele>560.59</ele><time>2009-12-05T08:58:22Z</time></trkpt>
<trkpt lat="39.737866" lon="2.785774"><ele>559.14</ele><time>2009-12-05T08:58:28Z</time></trkpt>
<trkpt lat="39.737854" lon="2.785798"><ele>559.14</ele><time>2009-12-05T08:58:30Z</time></trkpt>
<trkpt lat="39.737843" lon="2.785813"><ele>557.22</ele><time>2009-12-05T08:58:38Z</time></trkpt>
<trkpt lat="39.737825" lon="2.785751"><ele>555.78</ele><time>2009-12-05T08:58:47Z</time></trkpt>
<trkpt lat="39.737862" lon="2.785717"><ele>554.34</ele><time>2009-12-05T08:58:55Z</time></trkpt>
<trkpt lat="39.737884" lon="2.785648"><ele>551.93</ele><time>2009-12-05T08:59:04Z</time></trkpt>
<trkpt lat="39.737880" lon="2.785604"><ele>551.45</ele><time>2009-12-05T08:59:10Z</time></trkpt>
<trkpt lat="39.737854" lon="2.785443"><ele>550.01</ele><time>2009-12-05T08:59:15Z</time></trkpt>
<trkpt lat="39.737736" lon="2.785101"><ele>547.61</ele><time>2009-12-05T08:59:22Z</time></trkpt>
<trkpt lat="39.737709" lon="2.784936"><ele>543.76</ele><time>2009-12-05T08:59:27Z</time></trkpt>
<trkpt lat="39.737687" lon="2.784792"><ele>540.88</ele><time>2009-12-05T08:59:31Z</time></trkpt>
<trkpt lat="39.737677" lon="2.784748"><ele>540.40</ele><time>2009-12-05T08:59:32Z</time></trkpt>
<trkpt lat="39.737652" lon="2.784633"><ele>538.48</ele><time>2009-12-05T08:59:36Z</time></trkpt>
<trkpt lat="39.737592" lon="2.784474"><ele>536.55</ele><time>2009-12-05T08:59:41Z</time></trkpt>
<trkpt lat="39.737618" lon="2.784099"><ele>537.99</ele><time>2009-12-05T08:59:48Z</time></trkpt>
<trkpt lat="39.737669" lon="2.783844"><ele>536.07</ele><time>2009-12-05T08:59:55Z</time></trkpt>
<trkpt lat="39.737669" lon="2.783821"><ele>536.07</ele><time>2009-12-05T08:59:56Z</time></trkpt>
<trkpt lat="39.737658" lon="2.783741"><ele>536.07</ele><time>2009-12-05T08:59:59Z</time></trkpt>
<trkpt lat="39.737660" lon="2.783618"><ele>534.15</ele><time>2009-12-05T09:00:02Z</time></trkpt>
<trkpt lat="39.737657" lon="2.783596"><ele>534.15</ele><time>2009-12-05T09:00:05Z</time></trkpt>
<trkpt lat="39.737649" lon="2.783568"><ele>534.15</ele><time>2009-12-05T09:00:12Z</time></trkpt>
<trkpt lat="39.737654" lon="2.783550"><ele>533.19</ele><time>2009-12-05T09:00:17Z</time></trkpt>
<trkpt lat="39.737670" lon="2.783452"><ele>532.23</ele><time>2009-12-05T09:00:24Z</time></trkpt>
<trkpt lat="39.737650" lon="2.783384"><ele>532.71</ele><time>2009-12-05T09:00:33Z</time></trkpt>
<trkpt lat="39.737652" lon="2.783350"><ele>532.71</ele><time>2009-12-05T09:00:45Z</time></trkpt>
<trkpt lat="39.737656" lon="2.783308"><ele>531.27</ele><time>2009-12-05T09:00:52Z</time></trkpt>
<trkpt lat="39.737661" lon="2.783247"><ele>530.30</ele><time>2009-12-05T09:00:56Z</time></trkpt>
<trkpt lat="39.737639" lon="2.783178"><ele>529.34</ele><time>2009-12-05T09:01:03Z</time></trkpt>
<trkpt lat="39.737578" lon="2.783059"><ele>528.38</ele><time>2009-12-05T09:01:08Z</time></trkpt>
<trkpt lat="39.737525" lon="2.783013"><ele>527.42</ele><time>2009-12-05T09:01:12Z</time></trkpt>
<trkpt lat="39.737480" lon="2.782727"><ele>525.50</ele><time>2009-12-05T09:01:20Z</time></trkpt>
<trkpt lat="39.737523" lon="2.782508"><ele>526.46</ele><time>2009-12-05T09:01:26Z</time></trkpt>
<trkpt lat="39.737532" lon="2.782393"><ele>526.94</ele><time>2009-12-05T09:01:30Z</time></trkpt>
<trkpt lat="39.737519" lon="2.782165"><ele>526.94</ele><time>2009-12-05T09:01:37Z</time></trkpt>
<trkpt lat="39.737488" lon="2.782045"><ele>526.46</ele><time>2009-12-05T09:01:42Z</time></trkpt>
<trkpt lat="39.737443" lon="2.781928"><ele>525.50</ele><time>2009-12-05T09:01:48Z</time></trkpt>
<trkpt lat="39.737375" lon="2.781676"><ele>523.09</ele><time>2009-12-05T09:01:55Z</time></trkpt>
<trkpt lat="39.737332" lon="2.781422"><ele>520.69</ele><time>2009-12-05T09:02:02Z</time></trkpt>
<trkpt lat="39.737298" lon="2.781317"><ele>520.21</ele><time>2009-12-05T09:02:04Z</time></trkpt>
<trkpt lat="39.737234" lon="2.781003"><ele>518.77</ele><time>2009-12-05T09:02:10Z</time></trkpt>
<trkpt lat="39.737234" lon="2.780951"><ele>518.77</ele><time>2009-12-05T09:02:11Z</time></trkpt>
<trkpt lat="39.737267" lon="2.780753"><ele>517.33</ele><time>2009-12-05T09:02:14Z</time></trkpt>
<trkpt lat="39.737279" lon="2.780680"><ele>516.85</ele><time>2009-12-05T09:02:15Z</time></trkpt>
<trkpt lat="39.737247" lon="2.780340"><ele>517.33</ele><time>2009-12-05T09:02:20Z</time></trkpt>
<trkpt lat="39.737249" lon="2.780066"><ele>515.88</ele><time>2009-12-05T09:02:24Z</time></trkpt>
<trkpt lat="39.737156" lon="2.779775"><ele>515.88</ele><time>2009-12-05T09:02:30Z</time></trkpt>
<trkpt lat="39.737138" lon="2.779723"><ele>515.88</ele><time>2009-12-05T09:02:31Z</time></trkpt>
<trkpt lat="39.737140" lon="2.779426"><ele>515.88</ele><time>2009-12-05T09:02:36Z</time></trkpt>
<trkpt lat="39.737138" lon="2.779368"><ele>515.88</ele><time>2009-12-05T09:02:37Z</time></trkpt>
<trkpt lat="39.737089" lon="2.779146"><ele>513.48</ele><time>2009-12-05T09:02:41Z</time></trkpt>
<trkpt lat="39.736975" lon="2.779005"><ele>510.60</ele><time>2009-12-05T09:02:44Z</time></trkpt>
<trkpt lat="39.736925" lon="2.778851"><ele>509.16</ele><time>2009-12-05T09:02:46Z</time></trkpt>
<trkpt lat="39.736860" lon="2.778574"><ele>509.64</ele><time>2009-12-05T09:02:50Z</time></trkpt>
<trkpt lat="39.736910" lon="2.778276"><ele>509.64</ele><time>2009-12-05T09:02:55Z</time></trkpt>
<trkpt lat="39.736881" lon="2.778005"><ele>509.16</ele><time>2009-12-05T09:02:59Z</time></trkpt>
<trkpt lat="39.736869" lon="2.777949"><ele>508.19</ele><time>2009-12-05T09:03:05Z</time></trkpt>
<trkpt lat="39.736877" lon="2.777885"><ele>507.71</ele><time>2009-12-05T09:03:07Z</time></trkpt>
<trkpt lat="39.736823" lon="2.777414"><ele>507.71</ele><time>2009-12-05T09:03:15Z</time></trkpt>
<trkpt lat="39.736736" lon="2.777132"><ele>508.19</ele><time>2009-12-05T09:03:20Z</time></trkpt>
<trkpt lat="39.736619" lon="2.776939"><ele>508.67</ele><time>2009-12-05T09:03:24Z</time></trkpt>
<trkpt lat="39.736468" lon="2.776541"><ele>507.23</ele><time>2009-12-05T09:03:30Z</time></trkpt>
<trkpt lat="39.736404" lon="2.776173"><ele>504.83</ele><time>2009-12-05T09:03:34Z</time></trkpt>
<trkpt lat="39.736396" lon="2.775903"><ele>504.35</ele><time>2009-12-05T09:03:37Z</time></trkpt>
<trkpt lat="39.736338" lon="2.775617"><ele>504.83</ele><time>2009-12-05T09:03:42Z</time></trkpt>
<trkpt lat="39.736314" lon="2.775536"><ele>505.79</ele><time>2009-12-05T09:03:44Z</time></trkpt>
<trkpt lat="39.736359" lon="2.775373"><ele>504.83</ele><time>2009-12-05T09:03:49Z</time></trkpt>
<trkpt lat="39.736467" lon="2.775294"><ele>503.87</ele><time>2009-12-05T09:03:56Z</time></trkpt>
<trkpt lat="39.736483" lon="2.775290"><ele>503.87</ele><time>2009-12-05T09:04:05Z</time></trkpt>
<trkpt lat="39.736524" lon="2.775259"><ele>502.43</ele><time>2009-12-05T09:04:14Z</time></trkpt>
<trkpt lat="39.736533" lon="2.775229"><ele>501.95</ele><time>2009-12-05T09:04:22Z</time></trkpt>
<trkpt lat="39.736539" lon="2.775231"><ele>501.95</ele><time>2009-12-05T09:05:06Z</time></trkpt>
<trkpt lat="39.736556" lon="2.775199"><ele>501.95</ele><time>2009-12-05T09:05:08Z</time></trkpt>
<trkpt lat="39.736568" lon="2.774889"><ele>501.95</ele><time>2009-12-05T09:05:16Z</time></trkpt>
<trkpt lat="39.736483" lon="2.774536"><ele>500.98</ele><time>2009-12-05T09:05:23Z</time></trkpt>
<trkpt lat="39.736304" lon="2.774114"><ele>499.06</ele><time>2009-12-05T09:05:30Z</time></trkpt>
<trkpt lat="39.736077" lon="2.773574"><ele>497.14</ele><time>2009-12-05T09:05:37Z</time></trkpt>
<trkpt lat="39.735962" lon="2.773302"><ele>497.14</ele><time>2009-12-05T09:05:41Z</time></trkpt>
<trkpt lat="39.735825" lon="2.772690"><ele>498.10</ele><time>2009-12-05T09:05:50Z</time></trkpt>
<trkpt lat="39.735721" lon="2.772328"><ele>498.10</ele><time>2009-12-05T09:05:56Z</time></trkpt>
<trkpt lat="39.735476" lon="2.771871"><ele>496.18</ele><time>2009-12-05T09:06:03Z</time></trkpt>
<trkpt lat="39.735362" lon="2.771659"><ele>495.22</ele><time>2009-12-05T09:06:06Z</time></trkpt>
<trkpt lat="39.735155" lon="2.771014"><ele>493.29</ele><time>2009-12-05T09:06:14Z</time></trkpt>
<trkpt lat="39.735067" lon="2.770774"><ele>492.81</ele><time>2009-12-05T09:06:17Z</time></trkpt>
<trkpt lat="39.734801" lon="2.770148"><ele>490.89</ele><time>2009-12-05T09:06:25Z</time></trkpt>
<trkpt lat="39.734643" lon="2.769863"><ele>490.41</ele><time>2009-12-05T09:06:30Z</time></trkpt>
<trkpt lat="39.734417" lon="2.769441"><ele>490.41</ele><time>2009-12-05T09:06:39Z</time></trkpt>
<trkpt lat="39.734263" lon="2.769171"><ele>490.89</ele><time>2009-12-05T09:06:47Z</time></trkpt>
<trkpt lat="39.734162" lon="2.769007"><ele>491.37</ele><time>2009-12-05T09:06:55Z</time></trkpt>
<trkpt lat="39.734046" lon="2.768770"><ele>491.37</ele><time>2009-12-05T09:07:04Z</time></trkpt>
<trkpt lat="39.733908" lon="2.768360"><ele>491.37</ele><time>2009-12-05T09:07:13Z</time></trkpt>
<trkpt lat="39.733799" lon="2.767941"><ele>491.85</ele><time>2009-12-05T09:07:21Z</time></trkpt>
<trkpt lat="39.733747" lon="2.767273"><ele>492.81</ele><time>2009-12-05T09:07:33Z</time></trkpt>
<trkpt lat="39.733683" lon="2.766663"><ele>494.26</ele><time>2009-12-05T09:07:44Z</time></trkpt>
<trkpt lat="39.733571" lon="2.766108"><ele>494.26</ele><time>2009-12-05T09:07:54Z</time></trkpt>
<trkpt lat="39.733490" lon="2.765676"><ele>493.29</ele><time>2009-12-05T09:08:01Z</time></trkpt>
<trkpt lat="39.733367" lon="2.765398"><ele>493.29</ele><time>2009-12-05T09:08:06Z</time></trkpt>
<trkpt lat="39.733305" lon="2.765313"><ele>493.29</ele><time>2009-12-05T09:08:08Z</time></trkpt>
<trkpt lat="39.733229" lon="2.765233"><ele>493.29</ele><time>2009-12-05T09:08:10Z</time></trkpt>
<trkpt lat="39.732980" lon="2.765010"><ele>492.81</ele><time>2009-12-05T09:08:16Z</time></trkpt>
<trkpt lat="39.732572" lon="2.764379"><ele>490.89</ele><time>2009-12-05T09:08:27Z</time></trkpt>
<trkpt lat="39.732382" lon="2.763933"><ele>490.89</ele><time>2009-12-05T09:08:33Z</time></trkpt>
<trkpt lat="39.732310" lon="2.763723"><ele>491.85</ele><time>2009-12-05T09:08:36Z</time></trkpt>
<trkpt lat="39.732282" lon="2.763213"><ele>491.85</ele><time>2009-12-05T09:08:44Z</time></trkpt>
<trkpt lat="39.732283" lon="2.763142"><ele>491.37</ele><time>2009-12-05T09:08:45Z</time></trkpt>
<trkpt lat="39.732342" lon="2.762873"><ele>489.93</ele><time>2009-12-05T09:08:49Z</time></trkpt>
<trkpt lat="39.732394" lon="2.762707"><ele>488.49</ele><time>2009-12-05T09:08:52Z</time></trkpt>
<trkpt lat="39.732438" lon="2.762560"><ele>487.05</ele><time>2009-12-05T09:08:57Z</time></trkpt>
<trkpt lat="39.732561" lon="2.762280"><ele>485.60</ele><time>2009-12-05T09:09:05Z</time></trkpt>
<trkpt lat="39.732585" lon="2.762183"><ele>485.12</ele><time>2009-12-05T09:09:07Z</time></trkpt>
<trkpt lat="39.732674" lon="2.761661"><ele>481.76</ele><time>2009-12-05T09:09:17Z</time></trkpt>
<trkpt lat="39.732670" lon="2.761591"><ele>481.28</ele><time>2009-12-05T09:09:19Z</time></trkpt>
<trkpt lat="39.732657" lon="2.761543"><ele>481.28</ele><time>2009-12-05T09:09:26Z</time></trkpt>
<trkpt lat="39.732653" lon="2.761523"><ele>481.28</ele><time>2009-12-05T09:09:45Z</time></trkpt>
<trkpt lat="39.732649" lon="2.761538"><ele>481.28</ele><time>2009-12-05T09:10:10Z</time></trkpt>
<trkpt lat="39.732648" lon="2.761573"><ele>481.28</ele><time>2009-12-05T09:10:21Z</time></trkpt>
<trkpt lat="39.732647" lon="2.761568"><ele>481.28</ele><time>2009-12-05T09:10:34Z</time></trkpt>
<trkpt lat="39.732632" lon="2.761540"><ele>481.28</ele><time>2009-12-05T09:10:47Z</time></trkpt>
<trkpt lat="39.732626" lon="2.761513"><ele>481.28</ele><time>2009-12-05T09:10:59Z</time></trkpt>
<trkpt lat="39.732570" lon="2.761355"><ele>481.28</ele><time>2009-12-05T09:11:08Z</time></trkpt>
<trkpt lat="39.732484" lon="2.761172"><ele>481.76</ele><time>2009-12-05T09:11:16Z</time></trkpt>
<trkpt lat="39.732450" lon="2.761150"><ele>482.24</ele><time>2009-12-05T09:11:18Z</time></trkpt>
<trkpt lat="39.732418" lon="2.761201"><ele>483.20</ele><time>2009-12-05T09:11:24Z</time></trkpt>
<trkpt lat="39.732479" lon="2.761369"><ele>483.68</ele><time>2009-12-05T09:11:33Z</time></trkpt>
<trkpt lat="39.732578" lon="2.761726"><ele>483.68</ele><time>2009-12-05T09:11:44Z</time></trkpt>
<trkpt lat="39.732539" lon="2.761956"><ele>485.12</ele><time>2009-12-05T09:11:53Z</time></trkpt>
<trkpt lat="39.732486" lon="2.762231"><ele>486.56</ele><time>2009-12-05T09:12:03Z</time></trkpt>
<trkpt lat="39.732434" lon="2.762226"><ele>487.05</ele><time>2009-12-05T09:12:08Z</time></trkpt>
<trkpt lat="39.732343" lon="2.761967"><ele>488.49</ele><time>2009-12-05T09:12:19Z</time></trkpt>
<trkpt lat="39.732283" lon="2.761935"><ele>489.45</ele><time>2009-12-05T09:12:23Z</time></trkpt>
<trkpt lat="39.732209" lon="2.761975"><ele>490.89</ele><time>2009-12-05T09:12:29Z</time></trkpt>
<trkpt lat="39.732203" lon="2.762068"><ele>491.85</ele><time>2009-12-05T09:12:36Z</time></trkpt>
<trkpt lat="39.732216" lon="2.762101"><ele>491.85</ele><time>2009-12-05T09:12:39Z</time></trkpt>
<trkpt lat="39.732177" lon="2.762153"><ele>493.29</ele><time>2009-12-05T09:12:45Z</time></trkpt>
<trkpt lat="39.732020" lon="2.762044"><ele>495.70</ele><time>2009-12-05T09:12:58Z</time></trkpt>
<trkpt lat="39.731979" lon="2.762046"><ele>496.18</ele><time>2009-12-05T09:13:02Z</time></trkpt>
<trkpt lat="39.731864" lon="2.762041"><ele>498.58</ele><time>2009-12-05T09:13:14Z</time></trkpt>
<trkpt lat="39.731774" lon="2.762020"><ele>499.54</ele><time>2009-12-05T09:13:22Z</time></trkpt>
<trkpt lat="39.731655" lon="2.762004"><ele>501.46</ele><time>2009-12-05T09:13:33Z</time></trkpt>
<trkpt lat="39.731535" lon="2.761966"><ele>503.39</ele><time>2009-12-05T09:13:44Z</time></trkpt>
<trkpt lat="39.731389" lon="2.761825"><ele>504.35</ele><time>2009-12-05T09:13:56Z</time></trkpt>
<trkpt lat="39.731249" lon="2.761607"><ele>504.83</ele><time>2009-12-05T09:14:09Z</time></trkpt>
<trkpt lat="39.731131" lon="2.761455"><ele>505.79</ele><time>2009-12-05T09:14:20Z</time></trkpt>
<trkpt lat="39.731001" lon="2.761357"><ele>507.23</ele><time>2009-12-05T09:14:30Z</time></trkpt>
<trkpt lat="39.730807" lon="2.761220"><ele>508.19</ele><time>2009-12-05T09:14:43Z</time></trkpt>
<trkpt lat="39.730636" lon="2.761103"><ele>509.64</ele><time>2009-12-05T09:14:55Z</time></trkpt>
<trkpt lat="39.730613" lon="2.761110"><ele>510.60</ele><time>2009-12-05T09:15:16Z</time></trkpt>
<trkpt lat="39.730553" lon="2.761072"><ele>510.60</ele><time>2009-12-05T09:15:29Z</time></trkpt>
<trkpt lat="39.730557" lon="2.761073"><ele>510.12</ele><time>2009-12-05T09:15:30Z</time></trkpt>
<trkpt lat="39.730566" lon="2.761058"><ele>511.08</ele><time>2009-12-05T09:16:10Z</time></trkpt>
<trkpt lat="39.730514" lon="2.760963"><ele>511.08</ele><time>2009-12-05T09:16:14Z</time></trkpt>
<trkpt lat="39.730425" lon="2.760768"><ele>509.16</ele><time>2009-12-05T09:16:22Z</time></trkpt>
<trkpt lat="39.730293" lon="2.760451"><ele>507.71</ele><time>2009-12-05T09:16:29Z</time></trkpt>
<trkpt lat="39.730277" lon="2.760409"><ele>507.71</ele><time>2009-12-05T09:16:30Z</time></trkpt>
<trkpt lat="39.730210" lon="2.760344"><ele>508.19</ele><time>2009-12-05T09:16:34Z</time></trkpt>
<trkpt lat="39.730071" lon="2.760244"><ele>510.60</ele><time>2009-12-05T09:16:43Z</time></trkpt>
<trkpt lat="39.729964" lon="2.760202"><ele>512.04</ele><time>2009-12-05T09:16:49Z</time></trkpt>
<trkpt lat="39.729841" lon="2.760029"><ele>513.48</ele><time>2009-12-05T09:16:59Z</time></trkpt>
<trkpt lat="39.729730" lon="2.759955"><ele>513.96</ele><time>2009-12-05T09:17:06Z</time></trkpt>
<trkpt lat="39.729681" lon="2.759894"><ele>514.92</ele><time>2009-12-05T09:17:13Z</time></trkpt>
<trkpt lat="39.729624" lon="2.759855"><ele>515.40</ele><time>2009-12-05T09:17:17Z</time></trkpt>
<trkpt lat="39.729605" lon="2.759818"><ele>515.88</ele><time>2009-12-05T09:17:20Z</time></trkpt>
<trkpt lat="39.729481" lon="2.759658"><ele>516.37</ele><time>2009-12-05T09:17:30Z</time></trkpt>
<trkpt lat="39.729387" lon="2.759565"><ele>517.33</ele><time>2009-12-05T09:17:36Z</time></trkpt>
<trkpt lat="39.729357" lon="2.759548"><ele>517.33</ele><time>2009-12-05T09:17:40Z</time></trkpt>
<trkpt lat="39.729322" lon="2.759517"><ele>517.81</ele><time>2009-12-05T09:17:44Z</time></trkpt>
<trkpt lat="39.729212" lon="2.759429"><ele>519.25</ele><time>2009-12-05T09:17:52Z</time></trkpt>
<trkpt lat="39.729179" lon="2.759395"><ele>519.25</ele><time>2009-12-05T09:17:55Z</time></trkpt>
<trkpt lat="39.729147" lon="2.759394"><ele>520.21</ele><time>2009-12-05T09:17:59Z</time></trkpt>
<trkpt lat="39.729183" lon="2.759548"><ele>522.61</ele><time>2009-12-05T09:18:10Z</time></trkpt>
<trkpt lat="39.729212" lon="2.759663"><ele>524.54</ele><time>2009-12-05T09:18:18Z</time></trkpt>
<trkpt lat="39.729219" lon="2.759730"><ele>525.02</ele><time>2009-12-05T09:18:24Z</time></trkpt>
<trkpt lat="39.729216" lon="2.759769"><ele>526.46</ele><time>2009-12-05T09:18:30Z</time></trkpt>
<trkpt lat="39.729186" lon="2.759740"><ele>526.46</ele><time>2009-12-05T09:18:35Z</time></trkpt>
<trkpt lat="39.729091" lon="2.759647"><ele>525.98</ele><time>2009-12-05T09:18:43Z</time></trkpt>
<trkpt lat="39.729030" lon="2.759618"><ele>526.94</ele><time>2009-12-05T09:18:47Z</time></trkpt>
<trkpt lat="39.729006" lon="2.759625"><ele>527.42</ele><time>2009-12-05T09:18:49Z</time></trkpt>
<trkpt lat="39.728942" lon="2.759591"><ele>529.82</ele><time>2009-12-05T09:18:59Z</time></trkpt>
<trkpt lat="39.728830" lon="2.759494"><ele>531.27</ele><time>2009-12-05T09:19:08Z</time></trkpt>
<trkpt lat="39.728756" lon="2.759425"><ele>532.23</ele><time>2009-12-05T09:19:14Z</time></trkpt>
<trkpt lat="39.728650" lon="2.759296"><ele>532.71</ele><time>2009-12-05T09:19:24Z</time></trkpt>
<trkpt lat="39.728560" lon="2.759234"><ele>534.15</ele><time>2009-12-05T09:19:33Z</time></trkpt>
<trkpt lat="39.728497" lon="2.759170"><ele>536.07</ele><time>2009-12-05T09:19:40Z</time></trkpt>
<trkpt lat="39.728424" lon="2.759117"><ele>538.48</ele><time>2009-12-05T09:19:52Z</time></trkpt>
<trkpt lat="39.728330" lon="2.759020"><ele>540.40</ele><time>2009-12-05T09:20:03Z</time></trkpt>
<trkpt lat="39.728287" lon="2.758972"><ele>541.36</ele><time>2009-12-05T09:20:14Z</time></trkpt>
<trkpt lat="39.728287" lon="2.758968"><ele>541.84</ele><time>2009-12-05T09:20:27Z</time></trkpt>
<trkpt lat="39.728230" lon="2.758892"><ele>543.76</ele><time>2009-12-05T09:20:37Z</time></trkpt>
<trkpt lat="39.728134" lon="2.758760"><ele>546.17</ele><time>2009-12-05T09:20:50Z</time></trkpt>
<trkpt lat="39.728026" lon="2.758655"><ele>548.09</ele><time>2009-12-05T09:21:02Z</time></trkpt>
<trkpt lat="39.727956" lon="2.758586"><ele>549.53</ele><time>2009-12-05T09:21:12Z</time></trkpt>
<trkpt lat="39.727877" lon="2.758557"><ele>551.93</ele><time>2009-12-05T09:21:20Z</time></trkpt>
<trkpt lat="39.727789" lon="2.758425"><ele>552.41</ele><time>2009-12-05T09:21:32Z</time></trkpt>
<trkpt lat="39.727712" lon="2.758299"><ele>553.38</ele><time>2009-12-05T09:21:41Z</time></trkpt>
<trkpt lat="39.727671" lon="2.758202"><ele>554.34</ele><time>2009-12-05T09:21:46Z</time></trkpt>
<trkpt lat="39.727632" lon="2.758028"><ele>555.78</ele><time>2009-12-05T09:21:54Z</time></trkpt>
<trkpt lat="39.727581" lon="2.757933"><ele>557.70</ele><time>2009-12-05T09:22:03Z</time></trkpt>
<trkpt lat="39.727567" lon="2.757818"><ele>558.66</ele><time>2009-12-05T09:22:12Z</time></trkpt>
<trkpt lat="39.727495" lon="2.757668"><ele>560.59</ele><time>2009-12-05T09:22:22Z</time></trkpt>
<trkpt lat="39.727468" lon="2.757600"><ele>561.07</ele><time>2009-12-05T09:22:27Z</time></trkpt>
<trkpt lat="39.727441" lon="2.757548"><ele>561.07</ele><time>2009-12-05T09:22:31Z</time></trkpt>
<trkpt lat="39.727431" lon="2.757515"><ele>560.59</ele><time>2009-12-05T09:22:33Z</time></trkpt>
<trkpt lat="39.727394" lon="2.757414"><ele>560.11</ele><time>2009-12-05T09:22:39Z</time></trkpt>
<trkpt lat="39.727405" lon="2.757377"><ele>560.59</ele><time>2009-12-05T09:22:42Z</time></trkpt>
<trkpt lat="39.727493" lon="2.757275"><ele>561.07</ele><time>2009-12-05T09:22:49Z</time></trkpt>
<trkpt lat="39.727563" lon="2.757148"><ele>562.03</ele><time>2009-12-05T09:22:57Z</time></trkpt>
<trkpt lat="39.727550" lon="2.757103"><ele>562.51</ele><time>2009-12-05T09:22:59Z</time></trkpt>
<trkpt lat="39.727312" lon="2.756767"><ele>564.91</ele><time>2009-12-05T09:23:12Z</time></trkpt>
<trkpt lat="39.727267" lon="2.756732"><ele>566.35</ele><time>2009-12-05T09:23:19Z</time></trkpt>
<trkpt lat="39.727261" lon="2.756711"><ele>566.35</ele><time>2009-12-05T09:23:23Z</time></trkpt>
<trkpt lat="39.727216" lon="2.756643"><ele>567.32</ele><time>2009-12-05T09:23:30Z</time></trkpt>
<trkpt lat="39.727128" lon="2.756634"><ele>566.35</ele><time>2009-12-05T09:23:38Z</time></trkpt>
<trkpt lat="39.727113" lon="2.756606"><ele>565.39</ele><time>2009-12-05T09:23:41Z</time></trkpt>
<trkpt lat="39.727152" lon="2.756511"><ele>563.95</ele><time>2009-12-05T09:23:48Z</time></trkpt>
<trkpt lat="39.727144" lon="2.756505"><ele>563.95</ele><time>2009-12-05T09:23:58Z</time></trkpt>
<trkpt lat="39.727111" lon="2.756490"><ele>562.99</ele><time>2009-12-05T09:24:19Z</time></trkpt>
<trkpt lat="39.727217" lon="2.756626"><ele>561.55</ele><time>2009-12-05T09:25:47Z</time></trkpt>
<trkpt lat="39.727285" lon="2.756670"><ele>561.55</ele><time>2009-12-05T09:26:06Z</time></trkpt>
<trkpt lat="39.727257" lon="2.756682"><ele>561.07</ele><time>2009-12-05T09:26:30Z</time></trkpt>
<trkpt lat="39.727127" lon="2.756632"><ele>560.59</ele><time>2009-12-05T09:26:51Z</time></trkpt>
<trkpt lat="39.727127" lon="2.756554"><ele>559.14</ele><time>2009-12-05T09:35:47Z</time></trkpt>
<trkpt lat="39.727051" lon="2.756533"><ele>557.22</ele><time>2009-12-05T09:35:52Z</time></trkpt>
<trkpt lat="39.726930" lon="2.756527"><ele>553.86</ele><time>2009-12-05T09:35:56Z</time></trkpt>
<trkpt lat="39.726895" lon="2.756517"><ele>553.86</ele><time>2009-12-05T09:35:57Z</time></trkpt>
<trkpt lat="39.726877" lon="2.756494"><ele>552.90</ele><time>2009-12-05T09:35:58Z</time></trkpt>
<trkpt lat="39.726863" lon="2.756362"><ele>549.53</ele><time>2009-12-05T09:36:04Z</time></trkpt>
<trkpt lat="39.726850" lon="2.756355"><ele>549.53</ele><time>2009-12-05T09:36:05Z</time></trkpt>
<trkpt lat="39.726784" lon="2.756326"><ele>547.61</ele><time>2009-12-05T09:36:08Z</time></trkpt>
<trkpt lat="39.726738" lon="2.756160"><ele>544.72</ele><time>2009-12-05T09:36:15Z</time></trkpt>
<trkpt lat="39.726713" lon="2.756146"><ele>544.24</ele><time>2009-12-05T09:36:16Z</time></trkpt>
<trkpt lat="39.726637" lon="2.756072"><ele>541.36</ele><time>2009-12-05T09:36:21Z</time></trkpt>
<trkpt lat="39.726539" lon="2.756051"><ele>537.99</ele><time>2009-12-05T09:36:26Z</time></trkpt>
<trkpt lat="39.726520" lon="2.755958"><ele>536.55</ele><time>2009-12-05T09:36:29Z</time></trkpt>
<trkpt lat="39.726474" lon="2.755905"><ele>534.15</ele><time>2009-12-05T09:36:32Z</time></trkpt>
<trkpt lat="39.726296" lon="2.755800"><ele>530.79</ele><time>2009-12-05T09:36:37Z</time></trkpt>
<trkpt lat="39.726281" lon="2.755703"><ele>528.86</ele><time>2009-12-05T09:36:39Z</time></trkpt>
<trkpt lat="39.726238" lon="2.755672"><ele>527.90</ele><time>2009-12-05T09:36:41Z</time></trkpt>
<trkpt lat="39.726174" lon="2.755603"><ele>526.94</ele><time>2009-12-05T09:36:43Z</time></trkpt>
<trkpt lat="39.726163" lon="2.755492"><ele>525.02</ele><time>2009-12-05T09:36:47Z</time></trkpt>
<trkpt lat="39.726119" lon="2.755418"><ele>523.09</ele><time>2009-12-05T09:36:51Z</time></trkpt>
<trkpt lat="39.726034" lon="2.755358"><ele>521.17</ele><time>2009-12-05T09:36:54Z</time></trkpt>
<trkpt lat="39.725967" lon="2.755242"><ele>517.81</ele><time>2009-12-05T09:36:57Z</time></trkpt>
<trkpt lat="39.725865" lon="2.755089"><ele>514.44</ele><time>2009-12-05T09:37:00Z</time></trkpt>
<trkpt lat="39.725819" lon="2.754977"><ele>512.04</ele><time>2009-12-05T09:37:02Z</time></trkpt>
<trkpt lat="39.725793" lon="2.754813"><ele>508.19</ele><time>2009-12-05T09:37:07Z</time></trkpt>
<trkpt lat="39.725786" lon="2.754790"><ele>507.71</ele><time>2009-12-05T09:37:08Z</time></trkpt>
<trkpt lat="39.725732" lon="2.754644"><ele>504.83</ele><time>2009-12-05T09:37:12Z</time></trkpt>
<trkpt lat="39.725658" lon="2.754505"><ele>500.98</ele><time>2009-12-05T09:37:18Z</time></trkpt>
<trkpt lat="39.725611" lon="2.754412"><ele>498.58</ele><time>2009-12-05T09:37:22Z</time></trkpt>
<trkpt lat="39.725553" lon="2.754329"><ele>497.14</ele><time>2009-12-05T09:37:25Z</time></trkpt>
<trkpt lat="39.725479" lon="2.754236"><ele>493.77</ele><time>2009-12-05T09:37:29Z</time></trkpt>
<trkpt lat="39.725465" lon="2.754118"><ele>491.37</ele><time>2009-12-05T09:37:32Z</time></trkpt>
<trkpt lat="39.725385" lon="2.753840"><ele>487.05</ele><time>2009-12-05T09:37:38Z</time></trkpt>
<trkpt lat="39.725394" lon="2.753667"><ele>486.08</ele><time>2009-12-05T09:37:41Z</time></trkpt>
<trkpt lat="39.725346" lon="2.753432"><ele>483.68</ele><time>2009-12-05T09:37:44Z</time></trkpt>
<trkpt lat="39.725267" lon="2.753219"><ele>480.80</ele><time>2009-12-05T09:37:47Z</time></trkpt>
<trkpt lat="39.725196" lon="2.752965"><ele>477.43</ele><time>2009-12-05T09:37:51Z</time></trkpt>
<trkpt lat="39.724997" lon="2.752779"><ele>474.55</ele><time>2009-12-05T09:37:56Z</time></trkpt>
<trkpt lat="39.724819" lon="2.752574"><ele>472.14</ele><time>2009-12-05T09:38:01Z</time></trkpt>
<trkpt lat="39.724761" lon="2.752529"><ele>472.14</ele><time>2009-12-05T09:38:05Z</time></trkpt>
<trkpt lat="39.724738" lon="2.752492"><ele>472.14</ele><time>2009-12-05T09:38:24Z</time></trkpt>
<trkpt lat="39.724692" lon="2.752256"><ele>470.22</ele><time>2009-12-05T09:38:29Z</time></trkpt>
<trkpt lat="39.724663" lon="2.752041"><ele>468.78</ele><time>2009-12-05T09:38:32Z</time></trkpt>
<trkpt lat="39.724649" lon="2.751954"><ele>468.30</ele><time>2009-12-05T09:38:33Z</time></trkpt>
<trkpt lat="39.724594" lon="2.751826"><ele>467.34</ele><time>2009-12-05T09:38:35Z</time></trkpt>
<trkpt lat="39.724513" lon="2.751372"><ele>464.45</ele><time>2009-12-05T09:38:40Z</time></trkpt>
<trkpt lat="39.724486" lon="2.751286"><ele>463.97</ele><time>2009-12-05T09:38:41Z</time></trkpt>
<trkpt lat="39.724445" lon="2.750916"><ele>462.05</ele><time>2009-12-05T09:38:45Z</time></trkpt>
<trkpt lat="39.724352" lon="2.750720"><ele>461.09</ele><time>2009-12-05T09:38:49Z</time></trkpt>
<trkpt lat="39.724203" lon="2.750515"><ele>458.69</ele><time>2009-12-05T09:38:53Z</time></trkpt>
<trkpt lat="39.724112" lon="2.750437"><ele>456.76</ele><time>2009-12-05T09:38:55Z</time></trkpt>
<trkpt lat="39.723984" lon="2.750325"><ele>455.80</ele><time>2009-12-05T09:38:58Z</time></trkpt>
<trkpt lat="39.723812" lon="2.750175"><ele>454.36</ele><time>2009-12-05T09:39:01Z</time></trkpt>
<trkpt lat="39.723651" lon="2.749876"><ele>452.44</ele><time>2009-12-05T09:39:05Z</time></trkpt>
<trkpt lat="39.723609" lon="2.749701"><ele>451.96</ele><time>2009-12-05T09:39:07Z</time></trkpt>
<trkpt lat="39.723561" lon="2.749514"><ele>450.03</ele><time>2009-12-05T09:39:10Z</time></trkpt>
<trkpt lat="39.723518" lon="2.749376"><ele>450.03</ele><time>2009-12-05T09:39:16Z</time></trkpt>
<trkpt lat="39.723515" lon="2.749373"><ele>450.03</ele><time>2009-12-05T09:39:24Z</time></trkpt>
<trkpt lat="39.723425" lon="2.749263"><ele>449.55</ele><time>2009-12-05T09:39:29Z</time></trkpt>
<trkpt lat="39.723160" lon="2.749210"><ele>451.00</ele><time>2009-12-05T09:39:37Z</time></trkpt>
<trkpt lat="39.723001" lon="2.749309"><ele>450.52</ele><time>2009-12-05T09:39:41Z</time></trkpt>
<trkpt lat="39.722789" lon="2.749395"><ele>449.07</ele><time>2009-12-05T09:39:46Z</time></trkpt>
<trkpt lat="39.722672" lon="2.749442"><ele>449.55</ele><time>2009-12-05T09:39:48Z</time></trkpt>
<trkpt lat="39.722474" lon="2.749419"><ele>449.55</ele><time>2009-12-05T09:39:51Z</time></trkpt>
<trkpt lat="39.722261" lon="2.749369"><ele>448.11</ele><time>2009-12-05T09:39:54Z</time></trkpt>
<trkpt lat="39.722026" lon="2.749204"><ele>444.27</ele><time>2009-12-05T09:40:00Z</time></trkpt>
<trkpt lat="39.721997" lon="2.749172"><ele>443.79</ele><time>2009-12-05T09:40:01Z</time></trkpt>
<trkpt lat="39.721864" lon="2.749089"><ele>440.42</ele><time>2009-12-05T09:40:06Z</time></trkpt>
<trkpt lat="39.721697" lon="2.749120"><ele>437.06</ele><time>2009-12-05T09:40:10Z</time></trkpt>
<trkpt lat="39.721657" lon="2.749118"><ele>436.10</ele><time>2009-12-05T09:40:11Z</time></trkpt>
<trkpt lat="39.721442" lon="2.749101"><ele>433.21</ele><time>2009-12-05T09:40:14Z</time></trkpt>
<trkpt lat="39.721304" lon="2.749199"><ele>431.29</ele><time>2009-12-05T09:40:18Z</time></trkpt>
<trkpt lat="39.721114" lon="2.749118"><ele>427.92</ele><time>2009-12-05T09:40:23Z</time></trkpt>
<trkpt lat="39.721080" lon="2.749089"><ele>427.44</ele><time>2009-12-05T09:40:24Z</time></trkpt>
<trkpt lat="39.720827" lon="2.749113"><ele>427.44</ele><time>2009-12-05T09:40:29Z</time></trkpt>
<trkpt lat="39.720736" lon="2.749150"><ele>427.92</ele><time>2009-12-05T09:40:31Z</time></trkpt>
<trkpt lat="39.720342" lon="2.749078"><ele>425.52</ele><time>2009-12-05T09:40:38Z</time></trkpt>
<trkpt lat="39.720285" lon="2.749070"><ele>424.56</ele><time>2009-12-05T09:40:39Z</time></trkpt>
<trkpt lat="39.720018" lon="2.749035"><ele>422.16</ele><time>2009-12-05T09:40:44Z</time></trkpt>
<trkpt lat="39.720052" lon="2.749030"><ele>421.19</ele><time>2009-12-05T09:40:48Z</time></trkpt>
<trkpt lat="39.720141" lon="2.748974"><ele>420.23</ele><time>2009-12-05T09:40:53Z</time></trkpt>
<trkpt lat="39.720106" lon="2.748927"><ele>418.79</ele><time>2009-12-05T09:40:57Z</time></trkpt>
<trkpt lat="39.719920" lon="2.748914"><ele>417.35</ele><time>2009-12-05T09:41:02Z</time></trkpt>
<trkpt lat="39.719890" lon="2.748887"><ele>417.35</ele><time>2009-12-05T09:41:04Z</time></trkpt>
<trkpt lat="39.719942" lon="2.748799"><ele>415.91</ele><time>2009-12-05T09:41:09Z</time></trkpt>
<trkpt lat="39.720036" lon="2.748840"><ele>415.43</ele><time>2009-12-05T09:41:13Z</time></trkpt>
<trkpt lat="39.720257" lon="2.748716"><ele>414.47</ele><time>2009-12-05T09:41:19Z</time></trkpt>
<trkpt lat="39.720298" lon="2.748683"><ele>413.50</ele><time>2009-12-05T09:41:22Z</time></trkpt>
<trkpt lat="39.720170" lon="2.748646"><ele>411.10</ele><time>2009-12-05T09:41:27Z</time></trkpt>
<trkpt lat="39.719875" lon="2.748562"><ele>407.26</ele><time>2009-12-05T09:41:33Z</time></trkpt>
<trkpt lat="39.719837" lon="2.748559"><ele>406.77</ele><time>2009-12-05T09:41:34Z</time></trkpt>
<trkpt lat="39.719666" lon="2.748588"><ele>403.41</ele><time>2009-12-05T09:41:39Z</time></trkpt>
<trkpt lat="39.719526" lon="2.748699"><ele>399.57</ele><time>2009-12-05T09:41:44Z</time></trkpt>
<trkpt lat="39.719338" lon="2.748803"><ele>396.20</ele><time>2009-12-05T09:41:49Z</time></trkpt>
<trkpt lat="39.719289" lon="2.748845"><ele>395.72</ele><time>2009-12-05T09:41:56Z</time></trkpt>
<trkpt lat="39.719167" lon="2.748920"><ele>394.76</ele><time>2009-12-05T09:42:03Z</time></trkpt>
<trkpt lat="39.719141" lon="2.748867"><ele>393.80</ele><time>2009-12-05T09:42:11Z</time></trkpt>
<trkpt lat="39.719144" lon="2.748855"><ele>393.32</ele><time>2009-12-05T09:42:12Z</time></trkpt>
<trkpt lat="39.719160" lon="2.748836"><ele>393.32</ele><time>2009-12-05T09:42:14Z</time></trkpt>
<trkpt lat="39.719153" lon="2.748789"><ele>392.36</ele><time>2009-12-05T09:42:17Z</time></trkpt>
<trkpt lat="39.719001" lon="2.748850"><ele>389.95</ele><time>2009-12-05T09:42:23Z</time></trkpt>
<trkpt lat="39.718871" lon="2.748883"><ele>388.99</ele><time>2009-12-05T09:42:26Z</time></trkpt>
<trkpt lat="39.718615" lon="2.748787"><ele>386.11</ele><time>2009-12-05T09:42:31Z</time></trkpt>
<trkpt lat="39.718494" lon="2.748673"><ele>384.66</ele><time>2009-12-05T09:42:34Z</time></trkpt>
<trkpt lat="39.718362" lon="2.748661"><ele>381.78</ele><time>2009-12-05T09:42:38Z</time></trkpt>
<trkpt lat="39.718139" lon="2.748683"><ele>377.94</ele><time>2009-12-05T09:42:45Z</time></trkpt>
<trkpt lat="39.717837" lon="2.749008"><ele>374.57</ele><time>2009-12-05T09:42:51Z</time></trkpt>
<trkpt lat="39.717774" lon="2.749250"><ele>370.24</ele><time>2009-12-05T09:42:56Z</time></trkpt>
<trkpt lat="39.717692" lon="2.749415"><ele>368.32</ele><time>2009-12-05T09:43:01Z</time></trkpt>
<trkpt lat="39.717667" lon="2.749452"><ele>367.84</ele><time>2009-12-05T09:43:02Z</time></trkpt>
<trkpt lat="39.717605" lon="2.749501"><ele>366.88</ele><time>2009-12-05T09:43:06Z</time></trkpt>
<trkpt lat="39.717576" lon="2.749406"><ele>365.44</ele><time>2009-12-05T09:43:11Z</time></trkpt>
<trkpt lat="39.717553" lon="2.749215"><ele>363.04</ele><time>2009-12-05T09:43:19Z</time></trkpt>
<trkpt lat="39.717532" lon="2.749185"><ele>362.55</ele><time>2009-12-05T09:43:22Z</time></trkpt>
<trkpt lat="39.717401" lon="2.749275"><ele>362.07</ele><time>2009-12-05T09:43:29Z</time></trkpt>
<trkpt lat="39.717233" lon="2.749226"><ele>364.48</ele><time>2009-12-05T09:43:35Z</time></trkpt>
<trkpt lat="39.717119" lon="2.749226"><ele>365.44</ele><time>2009-12-05T09:43:43Z</time></trkpt>
<trkpt lat="39.717090" lon="2.749201"><ele>365.44</ele><time>2009-12-05T09:43:51Z</time></trkpt>
<trkpt lat="39.717027" lon="2.749182"><ele>364.96</ele><time>2009-12-05T09:44:08Z</time></trkpt>
<trkpt lat="39.716911" lon="2.749161"><ele>363.52</ele><time>2009-12-05T09:44:15Z</time></trkpt>
<trkpt lat="39.716898" lon="2.749155"><ele>363.52</ele><time>2009-12-05T09:44:16Z</time></trkpt>
<trkpt lat="39.716850" lon="2.749165"><ele>363.04</ele><time>2009-12-05T09:44:18Z</time></trkpt>
<trkpt lat="39.716901" lon="2.749118"><ele>361.59</ele><time>2009-12-05T09:44:21Z</time></trkpt>
<trkpt lat="39.716935" lon="2.749080"><ele>361.11</ele><time>2009-12-05T09:44:23Z</time></trkpt>
<trkpt lat="39.716890" lon="2.749033"><ele>359.67</ele><time>2009-12-05T09:44:28Z</time></trkpt>
<trkpt lat="39.716762" lon="2.749092"><ele>356.31</ele><time>2009-12-05T09:44:34Z</time></trkpt>
<trkpt lat="39.716693" lon="2.749159"><ele>352.94</ele><time>2009-12-05T09:44:38Z</time></trkpt>
<trkpt lat="39.716672" lon="2.749185"><ele>352.46</ele><time>2009-12-05T09:44:40Z</time></trkpt>
<trkpt lat="39.716626" lon="2.749255"><ele>348.62</ele><time>2009-12-05T09:44:46Z</time></trkpt>
<trkpt lat="39.716621" lon="2.749274"><ele>347.65</ele><time>2009-12-05T09:44:48Z</time></trkpt>
<trkpt lat="39.716472" lon="2.749382"><ele>345.73</ele><time>2009-12-05T09:44:57Z</time></trkpt>
<trkpt lat="39.716278" lon="2.749480"><ele>342.85</ele><time>2009-12-05T09:45:08Z</time></trkpt>
<trkpt lat="39.716218" lon="2.749510"><ele>341.89</ele><time>2009-12-05T09:45:12Z</time></trkpt>
<trkpt lat="39.716013" lon="2.749480"><ele>341.89</ele><time>2009-12-05T09:45:20Z</time></trkpt>
<trkpt lat="39.715998" lon="2.749488"><ele>342.37</ele><time>2009-12-05T09:45:21Z</time></trkpt>
<trkpt lat="39.715921" lon="2.749546"><ele>343.81</ele><time>2009-12-05T09:45:27Z</time></trkpt>
<trkpt lat="39.715864" lon="2.749560"><ele>342.85</ele><time>2009-12-05T09:45:32Z</time></trkpt>
<trkpt lat="39.715811" lon="2.749549"><ele>341.89</ele><time>2009-12-05T09:45:34Z</time></trkpt>
<trkpt lat="39.715756" lon="2.749542"><ele>340.44</ele><time>2009-12-05T09:45:37Z</time></trkpt>
<trkpt lat="39.715729" lon="2.749530"><ele>339.48</ele><time>2009-12-05T09:45:41Z</time></trkpt>
<trkpt lat="39.715678" lon="2.749571"><ele>338.04</ele><time>2009-12-05T09:45:48Z</time></trkpt>
<trkpt lat="39.715591" lon="2.749581"><ele>338.04</ele><time>2009-12-05T09:45:56Z</time></trkpt>
<trkpt lat="39.715362" lon="2.749537"><ele>338.04</ele><time>2009-12-05T09:46:04Z</time></trkpt>
<trkpt lat="39.715345" lon="2.749490"><ele>338.52</ele><time>2009-12-05T09:46:09Z</time></trkpt>
<trkpt lat="39.715314" lon="2.749465"><ele>339.48</ele><time>2009-12-05T09:46:16Z</time></trkpt>
<trkpt lat="39.715224" lon="2.749444"><ele>340.44</ele><time>2009-12-05T09:46:27Z</time></trkpt>
<trkpt lat="39.715179" lon="2.749417"><ele>341.89</ele><time>2009-12-05T09:46:36Z</time></trkpt>
<trkpt lat="39.715078" lon="2.749459"><ele>343.81</ele><time>2009-12-05T09:46:48Z</time></trkpt>
<trkpt lat="39.714994" lon="2.749509"><ele>344.77</ele><time>2009-12-05T09:46:57Z</time></trkpt>
<trkpt lat="39.714959" lon="2.749573"><ele>343.33</ele><time>2009-12-05T09:47:06Z</time></trkpt>
<trkpt lat="39.714903" lon="2.749533"><ele>341.89</ele><time>2009-12-05T09:47:14Z</time></trkpt>
<trkpt lat="39.714874" lon="2.749545"><ele>339.48</ele><time>2009-12-05T09:47:23Z</time></trkpt>
<trkpt lat="39.714845" lon="2.749559"><ele>339.48</ele><time>2009-12-05T09:47:25Z</time></trkpt>
<trkpt lat="39.714850" lon="2.749669"><ele>338.04</ele><time>2009-12-05T09:47:35Z</time></trkpt>
<trkpt lat="39.714845" lon="2.749785"><ele>335.64</ele><time>2009-12-05T09:47:48Z</time></trkpt>
<trkpt lat="39.714786" lon="2.749846"><ele>333.23</ele><time>2009-12-05T09:48:01Z</time></trkpt>
<trkpt lat="39.714779" lon="2.749872"><ele>332.27</ele><time>2009-12-05T09:48:11Z</time></trkpt>
<trkpt lat="39.714761" lon="2.749909"><ele>330.35</ele><time>2009-12-05T09:48:21Z</time></trkpt>
<trkpt lat="39.714832" lon="2.749935"><ele>326.99</ele><time>2009-12-05T09:48:43Z</time></trkpt>
<trkpt lat="39.714780" lon="2.750013"><ele>326.50</ele><time>2009-12-05T09:48:50Z</time></trkpt>
<trkpt lat="39.714735" lon="2.750073"><ele>325.06</ele><time>2009-12-05T09:48:58Z</time></trkpt>
<trkpt lat="39.714706" lon="2.750080"><ele>322.18</ele><time>2009-12-05T09:49:12Z</time></trkpt>
<trkpt lat="39.714588" lon="2.750070"><ele>322.18</ele><time>2009-12-05T09:49:23Z</time></trkpt>
<trkpt lat="39.714587" lon="2.750056"><ele>322.18</ele><time>2009-12-05T09:49:24Z</time></trkpt>
<trkpt lat="39.714583" lon="2.750029"><ele>323.14</ele><time>2009-12-05T09:49:27Z</time></trkpt>
<trkpt lat="39.714558" lon="2.749961"><ele>323.62</ele><time>2009-12-05T09:49:36Z</time></trkpt>
<trkpt lat="39.714521" lon="2.749895"><ele>324.10</ele><time>2009-12-05T09:49:57Z</time></trkpt>
<trkpt lat="39.714480" lon="2.749928"><ele>323.62</ele><time>2009-12-05T09:50:07Z</time></trkpt>
<trkpt lat="39.714424" lon="2.749980"><ele>323.62</ele><time>2009-12-05T09:50:16Z</time></trkpt>
<trkpt lat="39.714379" lon="2.750030"><ele>322.18</ele><time>2009-12-05T09:50:28Z</time></trkpt>
<trkpt lat="39.714320" lon="2.750099"><ele>318.81</ele><time>2009-12-05T09:50:39Z</time></trkpt>
<trkpt lat="39.714255" lon="2.750132"><ele>316.89</ele><time>2009-12-05T09:50:46Z</time></trkpt>
<trkpt lat="39.714134" lon="2.750234"><ele>315.93</ele><time>2009-12-05T09:50:58Z</time></trkpt>
<trkpt lat="39.714104" lon="2.750256"><ele>317.37</ele><time>2009-12-05T09:51:05Z</time></trkpt>
<trkpt lat="39.714035" lon="2.750261"><ele>317.85</ele><time>2009-12-05T09:51:13Z</time></trkpt>
<trkpt lat="39.713993" lon="2.750246"><ele>317.37</ele><time>2009-12-05T09:51:16Z</time></trkpt>
<trkpt lat="39.713900" lon="2.750249"><ele>318.33</ele><time>2009-12-05T09:51:21Z</time></trkpt>
<trkpt lat="39.713798" lon="2.750201"><ele>320.26</ele><time>2009-12-05T09:51:29Z</time></trkpt>
<trkpt lat="39.713719" lon="2.750228"><ele>321.22</ele><time>2009-12-05T09:51:35Z</time></trkpt>
<trkpt lat="39.713569" lon="2.750293"><ele>322.66</ele><time>2009-12-05T09:51:43Z</time></trkpt>
<trkpt lat="39.713362" lon="2.750539"><ele>324.10</ele><time>2009-12-05T09:51:51Z</time></trkpt>
<trkpt lat="39.713215" lon="2.750671"><ele>323.14</ele><time>2009-12-05T09:52:04Z</time></trkpt>
<trkpt lat="39.713204" lon="2.750668"><ele>323.14</ele><time>2009-12-05T09:52:05Z</time></trkpt>
<trkpt lat="39.713132" lon="2.750790"><ele>322.66</ele><time>2009-12-05T09:52:14Z</time></trkpt>
<trkpt lat="39.713105" lon="2.750816"><ele>321.70</ele><time>2009-12-05T09:52:53Z</time></trkpt>
<trkpt lat="39.713079" lon="2.750884"><ele>320.74</ele><time>2009-12-05T09:52:58Z</time></trkpt>
<trkpt lat="39.713027" lon="2.751006"><ele>317.37</ele><time>2009-12-05T09:53:05Z</time></trkpt>
<trkpt lat="39.713018" lon="2.751022"><ele>316.89</ele><time>2009-12-05T09:53:06Z</time></trkpt>
<trkpt lat="39.712989" lon="2.751039"><ele>314.49</ele><time>2009-12-05T09:53:11Z</time></trkpt>
<trkpt lat="39.712938" lon="2.751031"><ele>313.53</ele><time>2009-12-05T09:53:20Z</time></trkpt>
<trkpt lat="39.712895" lon="2.751076"><ele>313.05</ele><time>2009-12-05T09:53:34Z</time></trkpt>
<trkpt lat="39.712902" lon="2.751063"><ele>311.12</ele><time>2009-12-05T09:53:48Z</time></trkpt>
<trkpt lat="39.712866" lon="2.751076"><ele>309.20</ele><time>2009-12-05T09:53:52Z</time></trkpt>
<trkpt lat="39.712790" lon="2.751123"><ele>307.76</ele><time>2009-12-05T09:53:56Z</time></trkpt>
<trkpt lat="39.712755" lon="2.751148"><ele>306.80</ele><time>2009-12-05T09:53:58Z</time></trkpt>
<trkpt lat="39.712693" lon="2.751175"><ele>305.36</ele><time>2009-12-05T09:54:01Z</time></trkpt>
<trkpt lat="39.712583" lon="2.751281"><ele>301.51</ele><time>2009-12-05T09:54:08Z</time></trkpt>
<trkpt lat="39.712550" lon="2.751307"><ele>301.03</ele><time>2009-12-05T09:54:09Z</time></trkpt>
<trkpt lat="39.712518" lon="2.751420"><ele>297.67</ele><time>2009-12-05T09:54:16Z</time></trkpt>
<trkpt lat="39.712517" lon="2.751424"><ele>297.67</ele><time>2009-12-05T09:54:17Z</time></trkpt>
<trkpt lat="39.712537" lon="2.751474"><ele>296.22</ele><time>2009-12-05T09:54:20Z</time></trkpt>
<trkpt lat="39.712595" lon="2.751581"><ele>295.26</ele><time>2009-12-05T09:54:22Z</time></trkpt>
<trkpt lat="39.712369" lon="2.751682"><ele>293.34</ele><time>2009-12-05T09:54:29Z</time></trkpt>
<trkpt lat="39.712248" lon="2.751568"><ele>291.90</ele><time>2009-12-05T09:54:35Z</time></trkpt>
<trkpt lat="39.712217" lon="2.751545"><ele>291.42</ele><time>2009-12-05T09:54:37Z</time></trkpt>
<trkpt lat="39.712088" lon="2.751557"><ele>289.97</ele><time>2009-12-05T09:54:42Z</time></trkpt>
<trkpt lat="39.712014" lon="2.751547"><ele>289.01</ele><time>2009-12-05T09:54:45Z</time></trkpt>
<trkpt lat="39.711958" lon="2.751468"><ele>288.53</ele><time>2009-12-05T09:54:48Z</time></trkpt>
<trkpt lat="39.711783" lon="2.751340"><ele>285.17</ele><time>2009-12-05T09:54:55Z</time></trkpt>
<trkpt lat="39.711664" lon="2.751112"><ele>283.73</ele><time>2009-12-05T09:55:03Z</time></trkpt>
<trkpt lat="39.711554" lon="2.750968"><ele>281.32</ele><time>2009-12-05T09:55:10Z</time></trkpt>
<trkpt lat="39.711540" lon="2.750963"><ele>280.36</ele><time>2009-12-05T09:55:11Z</time></trkpt>
<trkpt lat="39.711495" lon="2.750888"><ele>278.44</ele><time>2009-12-05T09:55:17Z</time></trkpt>
<trkpt lat="39.711511" lon="2.750763"><ele>279.40</ele><time>2009-12-05T09:56:05Z</time></trkpt>
<trkpt lat="39.711514" lon="2.750777"><ele>279.40</ele><time>2009-12-05T09:56:34Z</time></trkpt>
<trkpt lat="39.711634" lon="2.750760"><ele>277.96</ele><time>2009-12-05T09:56:41Z</time></trkpt>
<trkpt lat="39.711766" lon="2.750793"><ele>275.56</ele><time>2009-12-05T09:56:47Z</time></trkpt>
<trkpt lat="39.711751" lon="2.750924"><ele>273.63</ele><time>2009-12-05T09:56:52Z</time></trkpt>
<trkpt lat="39.711931" lon="2.751022"><ele>271.23</ele><time>2009-12-05T09:56:59Z</time></trkpt>
<trkpt lat="39.712031" lon="2.751012"><ele>270.75</ele><time>2009-12-05T09:57:02Z</time></trkpt>
<trkpt lat="39.712147" lon="2.750945"><ele>268.35</ele><time>2009-12-05T09:57:07Z</time></trkpt>
<trkpt lat="39.712154" lon="2.750938"><ele>268.35</ele><time>2009-12-05T09:57:08Z</time></trkpt>
<trkpt lat="39.712159" lon="2.750921"><ele>267.86</ele><time>2009-12-05T09:57:09Z</time></trkpt>
<trkpt lat="39.712182" lon="2.750852"><ele>266.90</ele><time>2009-12-05T09:57:16Z</time></trkpt>
<trkpt lat="39.712193" lon="2.750842"><ele>264.98</ele><time>2009-12-05T09:57:36Z</time></trkpt>
<trkpt lat="39.712200" lon="2.750829"><ele>263.06</ele><time>2009-12-05T09:57:46Z</time></trkpt>
<trkpt lat="39.712246" lon="2.750811"><ele>261.14</ele><time>2009-12-05T09:57:50Z</time></trkpt>
<trkpt lat="39.712337" lon="2.750785"><ele>259.69</ele><time>2009-12-05T09:57:54Z</time></trkpt>
<trkpt lat="39.712402" lon="2.750753"><ele>258.73</ele><time>2009-12-05T09:57:58Z</time></trkpt>
<trkpt lat="39.712478" lon="2.750723"><ele>257.77</ele><time>2009-12-05T09:58:04Z</time></trkpt>
<trkpt lat="39.712499" lon="2.750714"><ele>257.29</ele><time>2009-12-05T09:58:06Z</time></trkpt>
<trkpt lat="39.712384" lon="2.750406"><ele>254.41</ele><time>2009-12-05T09:58:14Z</time></trkpt>
<trkpt lat="39.712371" lon="2.750379"><ele>253.93</ele><time>2009-12-05T09:58:15Z</time></trkpt>
<trkpt lat="39.712342" lon="2.750361"><ele>253.44</ele><time>2009-12-05T09:58:18Z</time></trkpt>
<trkpt lat="39.712190" lon="2.750269"><ele>251.04</ele><time>2009-12-05T09:58:26Z</time></trkpt>
<trkpt lat="39.711959" lon="2.750243"><ele>249.12</ele><time>2009-12-05T09:58:31Z</time></trkpt>
<trkpt lat="39.711748" lon="2.750283"><ele>247.68</ele><time>2009-12-05T09:58:34Z</time></trkpt>
<trkpt lat="39.711573" lon="2.750297"><ele>247.20</ele><time>2009-12-05T09:58:37Z</time></trkpt>
<trkpt lat="39.711305" lon="2.750259"><ele>246.72</ele><time>2009-12-05T09:58:42Z</time></trkpt>
<trkpt lat="39.711183" lon="2.750200"><ele>246.23</ele><time>2009-12-05T09:58:45Z</time></trkpt>
<trkpt lat="39.711049" lon="2.750169"><ele>245.75</ele><time>2009-12-05T09:58:48Z</time></trkpt>
<trkpt lat="39.710709" lon="2.750165"><ele>245.27</ele><time>2009-12-05T09:58:56Z</time></trkpt>
<trkpt lat="39.710649" lon="2.750152"><ele>245.27</ele><time>2009-12-05T09:59:01Z</time></trkpt>
<trkpt lat="39.710619" lon="2.750156"><ele>245.27</ele><time>2009-12-05T09:59:09Z</time></trkpt>
<trkpt lat="39.710525" lon="2.750232"><ele>247.68</ele><time>2009-12-05T10:00:32Z</time></trkpt>
<trkpt lat="39.710477" lon="2.750159"><ele>247.68</ele><time>2009-12-05T10:00:36Z</time></trkpt>
<trkpt lat="39.710255" lon="2.750040"><ele>247.20</ele><time>2009-12-05T10:00:45Z</time></trkpt>
<trkpt lat="39.710055" lon="2.749903"><ele>246.72</ele><time>2009-12-05T10:00:54Z</time></trkpt>
<trkpt lat="39.709863" lon="2.749781"><ele>246.23</ele><time>2009-12-05T10:01:02Z</time></trkpt>
<trkpt lat="39.709671" lon="2.749636"><ele>246.23</ele><time>2009-12-05T10:01:10Z</time></trkpt>
<trkpt lat="39.709505" lon="2.749597"><ele>246.23</ele><time>2009-12-05T10:01:16Z</time></trkpt>
<trkpt lat="39.709369" lon="2.749652"><ele>246.72</ele><time>2009-12-05T10:01:22Z</time></trkpt>
<trkpt lat="39.709287" lon="2.749723"><ele>246.23</ele><time>2009-12-05T10:01:25Z</time></trkpt>
<trkpt lat="39.709127" lon="2.749935"><ele>245.27</ele><time>2009-12-05T10:01:35Z</time></trkpt>
<trkpt lat="39.708937" lon="2.750153"><ele>245.27</ele><time>2009-12-05T10:01:41Z</time></trkpt>
<trkpt lat="39.708882" lon="2.750184"><ele>244.79</ele><time>2009-12-05T10:01:43Z</time></trkpt>
<trkpt lat="39.708750" lon="2.750257"><ele>243.35</ele><time>2009-12-05T10:01:48Z</time></trkpt>
<trkpt lat="39.708726" lon="2.750279"><ele>243.35</ele><time>2009-12-05T10:01:49Z</time></trkpt>
<trkpt lat="39.708419" lon="2.750408"><ele>242.39</ele><time>2009-12-05T10:01:55Z</time></trkpt>
<trkpt lat="39.708186" lon="2.750486"><ele>242.39</ele><time>2009-12-05T10:02:00Z</time></trkpt>
<trkpt lat="39.708159" lon="2.750528"><ele>242.39</ele><time>2009-12-05T10:02:08Z</time></trkpt>
<trkpt lat="39.708149" lon="2.750529"><ele>242.39</ele><time>2009-12-05T10:02:10Z</time></trkpt>
<trkpt lat="39.708028" lon="2.750427"><ele>242.87</ele><time>2009-12-05T10:02:19Z</time></trkpt>
<trkpt lat="39.707924" lon="2.750216"><ele>242.87</ele><time>2009-12-05T10:02:26Z</time></trkpt>
<trkpt lat="39.707902" lon="2.750200"><ele>242.87</ele><time>2009-12-05T10:02:27Z</time></trkpt>
<trkpt lat="39.707732" lon="2.750044"><ele>243.83</ele><time>2009-12-05T10:02:36Z</time></trkpt>
<trkpt lat="39.707584" lon="2.749923"><ele>244.31</ele><time>2009-12-05T10:02:46Z</time></trkpt>
<trkpt lat="39.707541" lon="2.749890"><ele>244.31</ele><time>2009-12-05T10:02:49Z</time></trkpt>
<trkpt lat="39.707434" lon="2.750003"><ele>246.23</ele><time>2009-12-05T10:02:56Z</time></trkpt>
<trkpt lat="39.707430" lon="2.750040"><ele>247.20</ele><time>2009-12-05T10:02:58Z</time></trkpt>
<trkpt lat="39.707385" lon="2.750177"><ele>248.16</ele><time>2009-12-05T10:03:04Z</time></trkpt>
<trkpt lat="39.707243" lon="2.750356"><ele>248.16</ele><time>2009-12-05T10:03:13Z</time></trkpt>
<trkpt lat="39.707270" lon="2.750400"><ele>249.12</ele><time>2009-12-05T10:03:21Z</time></trkpt>
<trkpt lat="39.707298" lon="2.750472"><ele>251.04</ele><time>2009-12-05T10:03:34Z</time></trkpt>
<trkpt lat="39.707317" lon="2.750496"><ele>251.52</ele><time>2009-12-05T10:03:47Z</time></trkpt>
<trkpt lat="39.707381" lon="2.750557"><ele>254.41</ele><time>2009-12-05T10:04:06Z</time></trkpt>
<trkpt lat="39.707372" lon="2.750675"><ele>254.89</ele><time>2009-12-05T10:04:20Z</time></trkpt>
<trkpt lat="39.707355" lon="2.750719"><ele>254.41</ele><time>2009-12-05T10:05:09Z</time></trkpt>
<trkpt lat="39.707338" lon="2.750730"><ele>253.44</ele><time>2009-12-05T10:05:11Z</time></trkpt>
<trkpt lat="39.707325" lon="2.750756"><ele>252.48</ele><time>2009-12-05T10:05:13Z</time></trkpt>
<trkpt lat="39.707309" lon="2.750774"><ele>252.00</ele><time>2009-12-05T10:05:14Z</time></trkpt>
<trkpt lat="39.707203" lon="2.750788"><ele>248.64</ele><time>2009-12-05T10:05:20Z</time></trkpt>
<trkpt lat="39.707132" lon="2.750852"><ele>246.72</ele><time>2009-12-05T10:05:24Z</time></trkpt>
<trkpt lat="39.707046" lon="2.750854"><ele>244.79</ele><time>2009-12-05T10:05:27Z</time></trkpt>
<trkpt lat="39.707007" lon="2.750860"><ele>244.31</ele><time>2009-12-05T10:05:29Z</time></trkpt>
<trkpt lat="39.706981" lon="2.750880"><ele>243.83</ele><time>2009-12-05T10:05:32Z</time></trkpt>
<trkpt lat="39.706881" lon="2.751069"><ele>243.35</ele><time>2009-12-05T10:05:43Z</time></trkpt>
<trkpt lat="39.706796" lon="2.751282"><ele>242.87</ele><time>2009-12-05T10:05:52Z</time></trkpt>
<trkpt lat="39.706704" lon="2.751488"><ele>242.39</ele><time>2009-12-05T10:05:58Z</time></trkpt>
<trkpt lat="39.706628" lon="2.751770"><ele>242.39</ele><time>2009-12-05T10:06:03Z</time></trkpt>
<trkpt lat="39.706611" lon="2.751887"><ele>242.39</ele><time>2009-12-05T10:06:05Z</time></trkpt>
<trkpt lat="39.706538" lon="2.752168"><ele>241.43</ele><time>2009-12-05T10:06:10Z</time></trkpt>
<trkpt lat="39.706269" lon="2.752615"><ele>239.51</ele><time>2009-12-05T10:06:17Z</time></trkpt>
<trkpt lat="39.706202" lon="2.752722"><ele>239.51</ele><time>2009-12-05T10:06:19Z</time></trkpt>
<trkpt lat="39.706012" lon="2.752979"><ele>239.02</ele><time>2009-12-05T10:06:26Z</time></trkpt>
<trkpt lat="39.705939" lon="2.753052"><ele>238.06</ele><time>2009-12-05T10:06:28Z</time></trkpt>
<trkpt lat="39.705746" lon="2.753135"><ele>236.14</ele><time>2009-12-05T10:06:33Z</time></trkpt>
<trkpt lat="39.705617" lon="2.753072"><ele>234.22</ele><time>2009-12-05T10:06:36Z</time></trkpt>
<trkpt lat="39.705424" lon="2.753141"><ele>232.78</ele><time>2009-12-05T10:06:41Z</time></trkpt>
<trkpt lat="39.704979" lon="2.753525"><ele>232.30</ele><time>2009-12-05T10:06:52Z</time></trkpt>
<trkpt lat="39.704719" lon="2.753720"><ele>231.81</ele><time>2009-12-05T10:06:59Z</time></trkpt>
<trkpt lat="39.704396" lon="2.753914"><ele>230.37</ele><time>2009-12-05T10:07:08Z</time></trkpt>
<trkpt lat="39.704359" lon="2.753935"><ele>230.37</ele><time>2009-12-05T10:07:13Z</time></trkpt>
<trkpt lat="39.704352" lon="2.753930"><ele>230.37</ele><time>2009-12-05T10:07:22Z</time></trkpt>
<trkpt lat="39.704346" lon="2.753991"><ele>229.89</ele><time>2009-12-05T10:07:32Z</time></trkpt>
<trkpt lat="39.704327" lon="2.754013"><ele>229.89</ele><time>2009-12-05T10:07:35Z</time></trkpt>
<trkpt lat="39.704300" lon="2.754052"><ele>229.89</ele><time>2009-12-05T10:07:37Z</time></trkpt>
<trkpt lat="39.704274" lon="2.754141"><ele>229.41</ele><time>2009-12-05T10:07:41Z</time></trkpt>
<trkpt lat="39.704239" lon="2.754305"><ele>228.93</ele><time>2009-12-05T10:07:48Z</time></trkpt>
<trkpt lat="39.704243" lon="2.754322"><ele>228.93</ele><time>2009-12-05T10:07:49Z</time></trkpt>
<trkpt lat="39.704287" lon="2.754413"><ele>228.93</ele><time>2009-12-05T10:07:57Z</time></trkpt>
<trkpt lat="39.704307" lon="2.754449"><ele>228.93</ele><time>2009-12-05T10:08:02Z</time></trkpt>
<trkpt lat="39.704363" lon="2.754500"><ele>228.45</ele><time>2009-12-05T10:08:11Z</time></trkpt>
<trkpt lat="39.704439" lon="2.754595"><ele>227.97</ele><time>2009-12-05T10:08:27Z</time></trkpt>
<trkpt lat="39.704492" lon="2.754652"><ele>227.97</ele><time>2009-12-05T10:08:30Z</time></trkpt>
<trkpt lat="39.704666" lon="2.754727"><ele>227.49</ele><time>2009-12-05T10:08:34Z</time></trkpt>
<trkpt lat="39.704674" lon="2.754775"><ele>227.49</ele><time>2009-12-05T10:08:40Z</time></trkpt>
<trkpt lat="39.704677" lon="2.754816"><ele>227.01</ele><time>2009-12-05T10:08:52Z</time></trkpt>
<trkpt lat="39.704683" lon="2.754857"><ele>226.53</ele><time>2009-12-05T10:10:00Z</time></trkpt>
<trkpt lat="39.704720" lon="2.754930"><ele>226.05</ele><time>2009-12-05T10:10:06Z</time></trkpt>
<trkpt lat="39.704742" lon="2.755094"><ele>225.09</ele><time>2009-12-05T10:10:15Z</time></trkpt>
<trkpt lat="39.704669" lon="2.755268"><ele>225.09</ele><time>2009-12-05T10:10:24Z</time></trkpt>
<trkpt lat="39.704636" lon="2.755332"><ele>224.61</ele><time>2009-12-05T10:10:28Z</time></trkpt>
<trkpt lat="39.704597" lon="2.755404"><ele>224.12</ele><time>2009-12-05T10:10:35Z</time></trkpt>
<trkpt lat="39.704625" lon="2.755441"><ele>224.12</ele><time>2009-12-05T10:10:50Z</time></trkpt>
<trkpt lat="39.704668" lon="2.755513"><ele>223.64</ele><time>2009-12-05T10:11:03Z</time></trkpt>
<trkpt lat="39.704661" lon="2.755545"><ele>223.64</ele><time>2009-12-05T10:11:24Z</time></trkpt>
<trkpt lat="39.704616" lon="2.755654"><ele>224.61</ele><time>2009-12-05T10:11:31Z</time></trkpt>
<trkpt lat="39.704532" lon="2.755776"><ele>227.49</ele><time>2009-12-05T10:11:39Z</time></trkpt>
<trkpt lat="39.704492" lon="2.755830"><ele>228.45</ele><time>2009-12-05T10:11:42Z</time></trkpt>
<trkpt lat="39.704402" lon="2.755979"><ele>230.37</ele><time>2009-12-05T10:11:51Z</time></trkpt>
<trkpt lat="39.704390" lon="2.755992"><ele>230.37</ele><time>2009-12-05T10:11:52Z</time></trkpt>
<trkpt lat="39.704348" lon="2.756033"><ele>230.85</ele><time>2009-12-05T10:11:59Z</time></trkpt>
<trkpt lat="39.704320" lon="2.756053"><ele>230.37</ele><time>2009-12-05T10:12:26Z</time></trkpt>
<trkpt lat="39.704359" lon="2.756178"><ele>228.93</ele><time>2009-12-05T10:13:07Z</time></trkpt>
<trkpt lat="39.704342" lon="2.756199"><ele>228.45</ele><time>2009-12-05T10:14:16Z</time></trkpt>
<trkpt lat="39.704152" lon="2.756301"><ele>228.45</ele><time>2009-12-05T10:14:25Z</time></trkpt>
<trkpt lat="39.703991" lon="2.756397"><ele>228.45</ele><time>2009-12-05T10:14:33Z</time></trkpt>
<trkpt lat="39.703842" lon="2.756572"><ele>228.45</ele><time>2009-12-05T10:14:43Z</time></trkpt>
<trkpt lat="39.703728" lon="2.756711"><ele>228.45</ele><time>2009-12-05T10:14:50Z</time></trkpt>
<trkpt lat="39.703659" lon="2.756830"><ele>228.93</ele><time>2009-12-05T10:14:56Z</time></trkpt>
<trkpt lat="39.703633" lon="2.757008"><ele>230.37</ele><time>2009-12-05T10:15:05Z</time></trkpt>
<trkpt lat="39.703630" lon="2.757115"><ele>231.33</ele><time>2009-12-05T10:15:10Z</time></trkpt>
<trkpt lat="39.703696" lon="2.757285"><ele>231.33</ele><time>2009-12-05T10:15:19Z</time></trkpt>
<trkpt lat="39.703735" lon="2.757525"><ele>231.33</ele><time>2009-12-05T10:15:27Z</time></trkpt>
<trkpt lat="39.703796" lon="2.757621"><ele>231.33</ele><time>2009-12-05T10:15:32Z</time></trkpt>
<trkpt lat="39.703815" lon="2.757691"><ele>230.85</ele><time>2009-12-05T10:15:35Z</time></trkpt>
<trkpt lat="39.703843" lon="2.757822"><ele>230.85</ele><time>2009-12-05T10:15:41Z</time></trkpt>
<trkpt lat="39.703877" lon="2.757912"><ele>231.33</ele><time>2009-12-05T10:15:46Z</time></trkpt>
<trkpt lat="39.704013" lon="2.758015"><ele>233.26</ele><time>2009-12-05T10:15:55Z</time></trkpt>
<trkpt lat="39.704110" lon="2.758102"><ele>234.70</ele><time>2009-12-05T10:16:03Z</time></trkpt>
<trkpt lat="39.704241" lon="2.758264"><ele>236.14</ele><time>2009-12-05T10:16:14Z</time></trkpt>
<trkpt lat="39.704298" lon="2.758419"><ele>238.54</ele><time>2009-12-05T10:16:27Z</time></trkpt>
<trkpt lat="39.704355" lon="2.758491"><ele>239.99</ele><time>2009-12-05T10:16:34Z</time></trkpt>
<trkpt lat="39.704488" lon="2.758600"><ele>241.91</ele><time>2009-12-05T10:16:47Z</time></trkpt>
<trkpt lat="39.704552" lon="2.758665"><ele>242.87</ele><time>2009-12-05T10:16:52Z</time></trkpt>
<trkpt lat="39.704659" lon="2.758828"><ele>245.27</ele><time>2009-12-05T10:17:06Z</time></trkpt>
<trkpt lat="39.704781" lon="2.758950"><ele>246.23</ele><time>2009-12-05T10:17:16Z</time></trkpt>
<trkpt lat="39.704939" lon="2.759147"><ele>248.64</ele><time>2009-12-05T10:17:28Z</time></trkpt>
<trkpt lat="39.705051" lon="2.759223"><ele>250.56</ele><time>2009-12-05T10:17:39Z</time></trkpt>
<trkpt lat="39.705273" lon="2.759365"><ele>252.48</ele><time>2009-12-05T10:17:50Z</time></trkpt>
<trkpt lat="39.705582" lon="2.759415"><ele>254.89</ele><time>2009-12-05T10:18:05Z</time></trkpt>
<trkpt lat="39.705693" lon="2.759442"><ele>256.33</ele><time>2009-12-05T10:18:16Z</time></trkpt>
<trkpt lat="39.705862" lon="2.759568"><ele>259.21</ele><time>2009-12-05T10:18:33Z</time></trkpt>
<trkpt lat="39.705954" lon="2.759649"><ele>260.65</ele><time>2009-12-05T10:18:44Z</time></trkpt>
<trkpt lat="39.706055" lon="2.759712"><ele>261.62</ele><time>2009-12-05T10:18:56Z</time></trkpt>
<trkpt lat="39.706202" lon="2.759793"><ele>263.06</ele><time>2009-12-05T10:19:10Z</time></trkpt>
<trkpt lat="39.706240" lon="2.759833"><ele>264.02</ele><time>2009-12-05T10:19:14Z</time></trkpt>
<trkpt lat="39.706233" lon="2.759854"><ele>264.98</ele><time>2009-12-05T10:19:19Z</time></trkpt>
<trkpt lat="39.706172" lon="2.759862"><ele>264.98</ele><time>2009-12-05T10:19:23Z</time></trkpt>
<trkpt lat="39.705994" lon="2.759899"><ele>265.94</ele><time>2009-12-05T10:19:35Z</time></trkpt>
<trkpt lat="39.705883" lon="2.759960"><ele>267.38</ele><time>2009-12-05T10:19:44Z</time></trkpt>
<trkpt lat="39.705788" lon="2.760006"><ele>267.86</ele><time>2009-12-05T10:19:51Z</time></trkpt>
<trkpt lat="39.705718" lon="2.760026"><ele>269.31</ele><time>2009-12-05T10:19:58Z</time></trkpt>
<trkpt lat="39.705631" lon="2.760075"><ele>270.27</ele><time>2009-12-05T10:20:06Z</time></trkpt>
<trkpt lat="39.705501" lon="2.760121"><ele>271.23</ele><time>2009-12-05T10:20:14Z</time></trkpt>
<trkpt lat="39.705403" lon="2.760111"><ele>272.67</ele><time>2009-12-05T10:20:22Z</time></trkpt>
<trkpt lat="39.705306" lon="2.760153"><ele>274.59</ele><time>2009-12-05T10:20:31Z</time></trkpt>
<trkpt lat="39.705210" lon="2.760157"><ele>277.00</ele><time>2009-12-05T10:20:40Z</time></trkpt>
<trkpt lat="39.705123" lon="2.760162"><ele>279.40</ele><time>2009-12-05T10:20:49Z</time></trkpt>
<trkpt lat="39.705115" lon="2.760188"><ele>279.88</ele><time>2009-12-05T10:20:58Z</time></trkpt>
<trkpt lat="39.705070" lon="2.760134"><ele>281.32</ele><time>2009-12-05T10:21:23Z</time></trkpt>
<trkpt lat="39.704972" lon="2.760206"><ele>283.73</ele><time>2009-12-05T10:21:39Z</time></trkpt>
<trkpt lat="39.704973" lon="2.760219"><ele>284.21</ele><time>2009-12-05T10:21:54Z</time></trkpt>
<trkpt lat="39.705075" lon="2.760276"><ele>287.09</ele><time>2009-12-05T10:22:10Z</time></trkpt>
<trkpt lat="39.705084" lon="2.760335"><ele>288.53</ele><time>2009-12-05T10:22:16Z</time></trkpt>
<trkpt lat="39.705153" lon="2.760439"><ele>291.42</ele><time>2009-12-05T10:22:27Z</time></trkpt>
<trkpt lat="39.705142" lon="2.760437"><ele>291.42</ele><time>2009-12-05T10:22:38Z</time></trkpt>
<trkpt lat="39.705099" lon="2.760447"><ele>292.86</ele><time>2009-12-05T10:22:56Z</time></trkpt>
<trkpt lat="39.704994" lon="2.760488"><ele>295.74</ele><time>2009-12-05T10:23:12Z</time></trkpt>
<trkpt lat="39.704928" lon="2.760573"><ele>297.18</ele><time>2009-12-05T10:23:24Z</time></trkpt>
<trkpt lat="39.704864" lon="2.760668"><ele>300.07</ele><time>2009-12-05T10:23:37Z</time></trkpt>
<trkpt lat="39.704781" lon="2.760792"><ele>301.03</ele><time>2009-12-05T10:23:52Z</time></trkpt>
<trkpt lat="39.704703" lon="2.760861"><ele>302.95</ele><time>2009-12-05T10:24:04Z</time></trkpt>
<trkpt lat="39.704637" lon="2.760937"><ele>304.88</ele><time>2009-12-05T10:24:14Z</time></trkpt>
<trkpt lat="39.704554" lon="2.761033"><ele>305.84</ele><time>2009-12-05T10:24:24Z</time></trkpt>
<trkpt lat="39.704565" lon="2.761097"><ele>305.36</ele><time>2009-12-05T10:24:39Z</time></trkpt>
<trkpt lat="39.704554" lon="2.761125"><ele>307.76</ele><time>2009-12-05T10:24:57Z</time></trkpt>
<trkpt lat="39.704533" lon="2.761214"><ele>309.20</ele><time>2009-12-05T10:25:12Z</time></trkpt>
<trkpt lat="39.704502" lon="2.761273"><ele>312.09</ele><time>2009-12-05T10:25:27Z</time></trkpt>
<trkpt lat="39.704478" lon="2.761291"><ele>313.53</ele><time>2009-12-05T10:25:51Z</time></trkpt>
<trkpt lat="39.704541" lon="2.761356"><ele>315.93</ele><time>2009-12-05T10:26:08Z</time></trkpt>
<trkpt lat="39.704481" lon="2.761339"><ele>316.89</ele><time>2009-12-05T10:26:17Z</time></trkpt>
<trkpt lat="39.704380" lon="2.761282"><ele>318.33</ele><time>2009-12-05T10:26:36Z</time></trkpt>
<trkpt lat="39.704352" lon="2.761273"><ele>318.81</ele><time>2009-12-05T10:26:54Z</time></trkpt>
<trkpt lat="39.704298" lon="2.761225"><ele>321.70</ele><time>2009-12-05T10:27:12Z</time></trkpt>
<trkpt lat="39.704278" lon="2.761196"><ele>324.58</ele><time>2009-12-05T10:27:36Z</time></trkpt>
<trkpt lat="39.704298" lon="2.761243"><ele>326.02</ele><time>2009-12-05T10:27:48Z</time></trkpt>
<trkpt lat="39.704350" lon="2.761328"><ele>328.91</ele><time>2009-12-05T10:28:09Z</time></trkpt>
<trkpt lat="39.704370" lon="2.761336"><ele>328.91</ele><time>2009-12-05T10:28:22Z</time></trkpt>
<trkpt lat="39.704293" lon="2.761256"><ele>331.31</ele><time>2009-12-05T10:28:39Z</time></trkpt>
<trkpt lat="39.704119" lon="2.761157"><ele>334.20</ele><time>2009-12-05T10:28:59Z</time></trkpt>
<trkpt lat="39.704050" lon="2.761091"><ele>335.64</ele><time>2009-12-05T10:29:10Z</time></trkpt>
<trkpt lat="39.704000" lon="2.761073"><ele>337.56</ele><time>2009-12-05T10:29:20Z</time></trkpt>
<trkpt lat="39.703956" lon="2.761053"><ele>338.52</ele><time>2009-12-05T10:29:29Z</time></trkpt>
<trkpt lat="39.703950" lon="2.761051"><ele>338.52</ele><time>2009-12-05T10:29:38Z</time></trkpt>
<trkpt lat="39.703936" lon="2.761039"><ele>339.00</ele><time>2009-12-05T10:29:55Z</time></trkpt>
<trkpt lat="39.703890" lon="2.761012"><ele>339.48</ele><time>2009-12-05T10:29:59Z</time></trkpt>
<trkpt lat="39.703784" lon="2.760969"><ele>341.41</ele><time>2009-12-05T10:30:08Z</time></trkpt>
<trkpt lat="39.703744" lon="2.760958"><ele>342.85</ele><time>2009-12-05T10:30:18Z</time></trkpt>
<trkpt lat="39.703790" lon="2.760976"><ele>343.81</ele><time>2009-12-05T10:30:25Z</time></trkpt>
<trkpt lat="39.703809" lon="2.761024"><ele>345.25</ele><time>2009-12-05T10:30:41Z</time></trkpt>
<trkpt lat="39.703795" lon="2.761034"><ele>345.25</ele><time>2009-12-05T10:30:54Z</time></trkpt>
<trkpt lat="39.703734" lon="2.761036"><ele>347.65</ele><time>2009-12-05T10:31:22Z</time></trkpt>
<trkpt lat="39.703669" lon="2.761104"><ele>350.06</ele><time>2009-12-05T10:31:34Z</time></trkpt>
<trkpt lat="39.703616" lon="2.761176"><ele>351.50</ele><time>2009-12-05T10:31:45Z</time></trkpt>
<trkpt lat="39.703638" lon="2.761229"><ele>352.94</ele><time>2009-12-05T10:31:56Z</time></trkpt>
<trkpt lat="39.703647" lon="2.761266"><ele>353.90</ele><time>2009-12-05T10:32:12Z</time></trkpt>
<trkpt lat="39.703672" lon="2.761274"><ele>355.34</ele><time>2009-12-05T10:32:27Z</time></trkpt>
<trkpt lat="39.703710" lon="2.761323"><ele>356.31</ele><time>2009-12-05T10:32:36Z</time></trkpt>
<trkpt lat="39.703734" lon="2.761357"><ele>357.27</ele><time>2009-12-05T10:32:42Z</time></trkpt>
<trkpt lat="39.703757" lon="2.761398"><ele>358.71</ele><time>2009-12-05T10:32:49Z</time></trkpt>
<trkpt lat="39.703782" lon="2.761472"><ele>360.15</ele><time>2009-12-05T10:33:03Z</time></trkpt>
<trkpt lat="39.703742" lon="2.761601"><ele>361.59</ele><time>2009-12-05T10:33:19Z</time></trkpt>
<trkpt lat="39.703740" lon="2.761612"><ele>364.00</ele><time>2009-12-05T10:33:45Z</time></trkpt>
<trkpt lat="39.703777" lon="2.761743"><ele>366.40</ele><time>2009-12-05T10:34:06Z</time></trkpt>
<trkpt lat="39.703787" lon="2.761858"><ele>367.36</ele><time>2009-12-05T10:34:17Z</time></trkpt>
<trkpt lat="39.703795" lon="2.761994"><ele>369.28</ele><time>2009-12-05T10:34:34Z</time></trkpt>
<trkpt lat="39.703774" lon="2.762034"><ele>370.24</ele><time>2009-12-05T10:34:48Z</time></trkpt>
<trkpt lat="39.703768" lon="2.762073"><ele>370.24</ele><time>2009-12-05T10:35:14Z</time></trkpt>
<trkpt lat="39.703809" lon="2.762102"><ele>370.24</ele><time>2009-12-05T10:35:32Z</time></trkpt>
<trkpt lat="39.703932" lon="2.762158"><ele>369.28</ele><time>2009-12-05T10:35:40Z</time></trkpt>
<trkpt lat="39.703933" lon="2.762184"><ele>369.76</ele><time>2009-12-05T10:35:42Z</time></trkpt>
<trkpt lat="39.704041" lon="2.762243"><ele>369.28</ele><time>2009-12-05T10:35:50Z</time></trkpt>
<trkpt lat="39.704172" lon="2.762320"><ele>368.80</ele><time>2009-12-05T10:36:01Z</time></trkpt>
<trkpt lat="39.704292" lon="2.762330"><ele>368.80</ele><time>2009-12-05T10:36:09Z</time></trkpt>
<trkpt lat="39.704490" lon="2.762345"><ele>370.73</ele><time>2009-12-05T10:36:18Z</time></trkpt>
<trkpt lat="39.704734" lon="2.762318"><ele>372.17</ele><time>2009-12-05T10:36:29Z</time></trkpt>
<trkpt lat="39.704871" lon="2.762279"><ele>374.57</ele><time>2009-12-05T10:36:40Z</time></trkpt>
<trkpt lat="39.705006" lon="2.762314"><ele>376.01</ele><time>2009-12-05T10:36:55Z</time></trkpt>
<trkpt lat="39.705022" lon="2.762287"><ele>375.05</ele><time>2009-12-05T10:37:09Z</time></trkpt>
<trkpt lat="39.705028" lon="2.762277"><ele>375.05</ele><time>2009-12-05T10:37:10Z</time></trkpt>
<trkpt lat="39.705188" lon="2.762186"><ele>374.09</ele><time>2009-12-05T10:37:23Z</time></trkpt>
<trkpt lat="39.705278" lon="2.762191"><ele>374.09</ele><time>2009-12-05T10:37:29Z</time></trkpt>
<trkpt lat="39.705377" lon="2.762194"><ele>375.05</ele><time>2009-12-05T10:37:36Z</time></trkpt>
<trkpt lat="39.705476" lon="2.762216"><ele>376.97</ele><time>2009-12-05T10:37:47Z</time></trkpt>
<trkpt lat="39.705631" lon="2.762301"><ele>377.94</ele><time>2009-12-05T10:38:00Z</time></trkpt>
<trkpt lat="39.705728" lon="2.762387"><ele>378.42</ele><time>2009-12-05T10:38:11Z</time></trkpt>
<trkpt lat="39.705801" lon="2.762436"><ele>378.42</ele><time>2009-12-05T10:38:19Z</time></trkpt>
<trkpt lat="39.705848" lon="2.762577"><ele>381.30</ele><time>2009-12-05T10:38:30Z</time></trkpt>
<trkpt lat="39.705741" lon="2.762594"><ele>383.70</ele><time>2009-12-05T10:38:41Z</time></trkpt>
<trkpt lat="39.705726" lon="2.762641"><ele>384.66</ele><time>2009-12-05T10:38:46Z</time></trkpt>
<trkpt lat="39.705739" lon="2.762791"><ele>385.63</ele><time>2009-12-05T10:38:58Z</time></trkpt>
<trkpt lat="39.705802" lon="2.762799"><ele>387.55</ele><time>2009-12-05T10:39:12Z</time></trkpt>
<trkpt lat="39.705832" lon="2.762836"><ele>388.51</ele><time>2009-12-05T10:39:20Z</time></trkpt>
<trkpt lat="39.705929" lon="2.762928"><ele>391.39</ele><time>2009-12-05T10:39:44Z</time></trkpt>
<trkpt lat="39.705918" lon="2.763073"><ele>394.76</ele><time>2009-12-05T10:40:25Z</time></trkpt>
<trkpt lat="39.705976" lon="2.763164"><ele>396.20</ele><time>2009-12-05T10:40:35Z</time></trkpt>
<trkpt lat="39.705998" lon="2.763219"><ele>396.68</ele><time>2009-12-05T10:40:44Z</time></trkpt>
<trkpt lat="39.706023" lon="2.763371"><ele>398.12</ele><time>2009-12-05T10:40:57Z</time></trkpt>
<trkpt lat="39.706083" lon="2.763508"><ele>398.12</ele><time>2009-12-05T10:41:07Z</time></trkpt>
<trkpt lat="39.706118" lon="2.763617"><ele>397.64</ele><time>2009-12-05T10:41:14Z</time></trkpt>
<trkpt lat="39.706206" lon="2.763797"><ele>398.60</ele><time>2009-12-05T10:41:28Z</time></trkpt>
<trkpt lat="39.706254" lon="2.764017"><ele>400.53</ele><time>2009-12-05T10:41:42Z</time></trkpt>
<trkpt lat="39.706259" lon="2.764180"><ele>401.97</ele><time>2009-12-05T10:41:52Z</time></trkpt>
<trkpt lat="39.706294" lon="2.764367"><ele>403.41</ele><time>2009-12-05T10:42:03Z</time></trkpt>
<trkpt lat="39.706364" lon="2.764517"><ele>405.33</ele><time>2009-12-05T10:42:15Z</time></trkpt>
<trkpt lat="39.706430" lon="2.764579"><ele>405.81</ele><time>2009-12-05T10:42:24Z</time></trkpt>
<trkpt lat="39.706438" lon="2.764686"><ele>405.81</ele><time>2009-12-05T10:42:31Z</time></trkpt>
<trkpt lat="39.706487" lon="2.764742"><ele>406.29</ele><time>2009-12-05T10:42:38Z</time></trkpt>
<trkpt lat="39.706585" lon="2.764758"><ele>405.81</ele><time>2009-12-05T10:42:45Z</time></trkpt>
<trkpt lat="39.706772" lon="2.764798"><ele>405.81</ele><time>2009-12-05T10:42:52Z</time></trkpt>
<trkpt lat="39.706803" lon="2.764809"><ele>405.81</ele><time>2009-12-05T10:42:53Z</time></trkpt>
<trkpt lat="39.706900" lon="2.764872"><ele>406.77</ele><time>2009-12-05T10:43:01Z</time></trkpt>
<trkpt lat="39.707044" lon="2.764886"><ele>407.74</ele><time>2009-12-05T10:43:07Z</time></trkpt>
<trkpt lat="39.707146" lon="2.764895"><ele>408.70</ele><time>2009-12-05T10:43:16Z</time></trkpt>
<trkpt lat="39.707214" lon="2.764948"><ele>409.66</ele><time>2009-12-05T10:43:25Z</time></trkpt>
<trkpt lat="39.707302" lon="2.765006"><ele>412.06</ele><time>2009-12-05T10:43:34Z</time></trkpt>
<trkpt lat="39.707350" lon="2.765001"><ele>413.50</ele><time>2009-12-05T10:43:41Z</time></trkpt>
<trkpt lat="39.707412" lon="2.765039"><ele>414.95</ele><time>2009-12-05T10:43:48Z</time></trkpt>
<trkpt lat="39.707492" lon="2.765100"><ele>416.87</ele><time>2009-12-05T10:43:58Z</time></trkpt>
<trkpt lat="39.707561" lon="2.765160"><ele>418.79</ele><time>2009-12-05T10:44:09Z</time></trkpt>
<trkpt lat="39.707665" lon="2.765247"><ele>420.71</ele><time>2009-12-05T10:44:25Z</time></trkpt>
<trkpt lat="39.707720" lon="2.765327"><ele>422.16</ele><time>2009-12-05T10:44:35Z</time></trkpt>
<trkpt lat="39.707770" lon="2.765413"><ele>423.60</ele><time>2009-12-05T10:44:47Z</time></trkpt>
<trkpt lat="39.707812" lon="2.765487"><ele>426.00</ele><time>2009-12-05T10:45:01Z</time></trkpt>
<trkpt lat="39.707904" lon="2.765484"><ele>426.48</ele><time>2009-12-05T10:45:12Z</time></trkpt>
<trkpt lat="39.707983" lon="2.765533"><ele>428.89</ele><time>2009-12-05T10:45:30Z</time></trkpt>
<trkpt lat="39.708045" lon="2.765594"><ele>430.81</ele><time>2009-12-05T10:45:45Z</time></trkpt>
<trkpt lat="39.708084" lon="2.765597"><ele>430.81</ele><time>2009-12-05T10:45:53Z</time></trkpt>
<trkpt lat="39.708217" lon="2.765678"><ele>432.73</ele><time>2009-12-05T10:46:10Z</time></trkpt>
<trkpt lat="39.708344" lon="2.765659"><ele>435.61</ele><time>2009-12-05T10:46:23Z</time></trkpt>
<trkpt lat="39.708398" lon="2.765704"><ele>437.54</ele><time>2009-12-05T10:46:30Z</time></trkpt>
<trkpt lat="39.708488" lon="2.765789"><ele>439.94</ele><time>2009-12-05T10:46:40Z</time></trkpt>
<trkpt lat="39.708568" lon="2.765891"><ele>441.86</ele><time>2009-12-05T10:46:50Z</time></trkpt>
<trkpt lat="39.708635" lon="2.765934"><ele>443.31</ele><time>2009-12-05T10:47:02Z</time></trkpt>
<trkpt lat="39.708708" lon="2.765973"><ele>443.79</ele><time>2009-12-05T10:47:13Z</time></trkpt>
<trkpt lat="39.708758" lon="2.765990"><ele>444.75</ele><time>2009-12-05T10:47:21Z</time></trkpt>
<trkpt lat="39.708811" lon="2.765997"><ele>445.71</ele><time>2009-12-05T10:47:27Z</time></trkpt>
<trkpt lat="39.708897" lon="2.766042"><ele>447.63</ele><time>2009-12-05T10:47:37Z</time></trkpt>
<trkpt lat="39.708940" lon="2.766077"><ele>448.59</ele><time>2009-12-05T10:47:43Z</time></trkpt>
<trkpt lat="39.708976" lon="2.766090"><ele>449.55</ele><time>2009-12-05T10:47:47Z</time></trkpt>
<trkpt lat="39.709053" lon="2.766072"><ele>451.48</ele><time>2009-12-05T10:47:58Z</time></trkpt>
<trkpt lat="39.709095" lon="2.766075"><ele>451.96</ele><time>2009-12-05T10:48:03Z</time></trkpt>
<trkpt lat="39.709215" lon="2.766137"><ele>453.88</ele><time>2009-12-05T10:48:14Z</time></trkpt>
<trkpt lat="39.709256" lon="2.766191"><ele>454.84</ele><time>2009-12-05T10:48:21Z</time></trkpt>
<trkpt lat="39.709303" lon="2.766245"><ele>455.80</ele><time>2009-12-05T10:48:30Z</time></trkpt>
<trkpt lat="39.709394" lon="2.766281"><ele>457.24</ele><time>2009-12-05T10:48:40Z</time></trkpt>
<trkpt lat="39.709443" lon="2.766321"><ele>458.21</ele><time>2009-12-05T10:48:48Z</time></trkpt>
<trkpt lat="39.709499" lon="2.766415"><ele>460.13</ele><time>2009-12-05T10:48:59Z</time></trkpt>
<trkpt lat="39.709562" lon="2.766487"><ele>462.05</ele><time>2009-12-05T10:49:09Z</time></trkpt>
<trkpt lat="39.709657" lon="2.766588"><ele>464.45</ele><time>2009-12-05T10:49:21Z</time></trkpt>
<trkpt lat="39.709718" lon="2.766669"><ele>466.86</ele><time>2009-12-05T10:49:32Z</time></trkpt>
<trkpt lat="39.709778" lon="2.766725"><ele>467.82</ele><time>2009-12-05T10:49:40Z</time></trkpt>
<trkpt lat="39.709854" lon="2.766779"><ele>468.78</ele><time>2009-12-05T10:49:51Z</time></trkpt>
<trkpt lat="39.709958" lon="2.766819"><ele>470.22</ele><time>2009-12-05T10:50:02Z</time></trkpt>
<trkpt lat="39.710035" lon="2.766853"><ele>471.66</ele><time>2009-12-05T10:50:10Z</time></trkpt>
<trkpt lat="39.710107" lon="2.766900"><ele>474.55</ele><time>2009-12-05T10:50:21Z</time></trkpt>
<trkpt lat="39.710197" lon="2.766924"><ele>475.51</ele><time>2009-12-05T10:50:29Z</time></trkpt>
<trkpt lat="39.710264" lon="2.766983"><ele>477.43</ele><time>2009-12-05T10:50:39Z</time></trkpt>
<trkpt lat="39.710269" lon="2.767013"><ele>477.91</ele><time>2009-12-05T10:50:42Z</time></trkpt>
<trkpt lat="39.710319" lon="2.767092"><ele>478.39</ele><time>2009-12-05T10:50:51Z</time></trkpt>
<trkpt lat="39.710296" lon="2.767096"><ele>478.39</ele><time>2009-12-05T10:52:07Z</time></trkpt>
<trkpt lat="39.710297" lon="2.767097"><ele>478.39</ele><time>2009-12-05T10:52:30Z</time></trkpt>
<trkpt lat="39.710267" lon="2.767096"><ele>478.39</ele><time>2009-12-05T10:54:49Z</time></trkpt>
<trkpt lat="39.710228" lon="2.767091"><ele>478.39</ele><time>2009-12-05T10:54:58Z</time></trkpt>
<trkpt lat="39.710071" lon="2.767116"><ele>479.35</ele><time>2009-12-05T10:55:08Z</time></trkpt>
<trkpt lat="39.709935" lon="2.767146"><ele>477.43</ele><time>2009-12-05T10:55:13Z</time></trkpt>
<trkpt lat="39.709716" lon="2.767198"><ele>473.59</ele><time>2009-12-05T10:55:17Z</time></trkpt>
<trkpt lat="39.709595" lon="2.767247"><ele>470.70</ele><time>2009-12-05T10:55:19Z</time></trkpt>
<trkpt lat="39.709432" lon="2.767504"><ele>465.42</ele><time>2009-12-05T10:55:23Z</time></trkpt>
<trkpt lat="39.709385" lon="2.767585"><ele>463.49</ele><time>2009-12-05T10:55:24Z</time></trkpt>
<trkpt lat="39.709250" lon="2.767957"><ele>458.21</ele><time>2009-12-05T10:55:28Z</time></trkpt>
<trkpt lat="39.709151" lon="2.768185"><ele>453.40</ele><time>2009-12-05T10:55:31Z</time></trkpt>
<trkpt lat="39.708980" lon="2.768248"><ele>449.55</ele><time>2009-12-05T10:55:35Z</time></trkpt>
<trkpt lat="39.708927" lon="2.768190"><ele>448.59</ele><time>2009-12-05T10:55:36Z</time></trkpt>
<trkpt lat="39.708809" lon="2.768078"><ele>446.67</ele><time>2009-12-05T10:55:38Z</time></trkpt>
<trkpt lat="39.708592" lon="2.767933"><ele>441.38</ele><time>2009-12-05T10:55:41Z</time></trkpt>
<trkpt lat="39.708515" lon="2.767875"><ele>439.94</ele><time>2009-12-05T10:55:42Z</time></trkpt>
<trkpt lat="39.708265" lon="2.767795"><ele>435.61</ele><time>2009-12-05T10:55:45Z</time></trkpt>
<trkpt lat="39.708027" lon="2.767786"><ele>431.29</ele><time>2009-12-05T10:55:48Z</time></trkpt>
<trkpt lat="39.707979" lon="2.767788"><ele>429.85</ele><time>2009-12-05T10:55:49Z</time></trkpt>
<trkpt lat="39.707962" lon="2.767919"><ele>426.48</ele><time>2009-12-05T10:55:53Z</time></trkpt>
<trkpt lat="39.708060" lon="2.768038"><ele>423.60</ele><time>2009-12-05T10:55:55Z</time></trkpt>
<trkpt lat="39.708240" lon="2.768376"><ele>416.87</ele><time>2009-12-05T10:55:59Z</time></trkpt>
<trkpt lat="39.708297" lon="2.768729"><ele>410.62</ele><time>2009-12-05T10:56:03Z</time></trkpt>
<trkpt lat="39.708314" lon="2.768800"><ele>409.66</ele><time>2009-12-05T10:56:04Z</time></trkpt>
<trkpt lat="39.708371" lon="2.768968"><ele>407.74</ele><time>2009-12-05T10:56:06Z</time></trkpt>
<trkpt lat="39.708457" lon="2.769225"><ele>404.37</ele><time>2009-12-05T10:56:09Z</time></trkpt>
<trkpt lat="39.708463" lon="2.769475"><ele>399.57</ele><time>2009-12-05T10:56:12Z</time></trkpt>
<trkpt lat="39.708480" lon="2.769687"><ele>396.20</ele><time>2009-12-05T10:56:16Z</time></trkpt>
<trkpt lat="39.708507" lon="2.769865"><ele>392.84</ele><time>2009-12-05T10:56:19Z</time></trkpt>
<trkpt lat="39.708529" lon="2.769979"><ele>390.91</ele><time>2009-12-05T10:56:21Z</time></trkpt>
<trkpt lat="39.708461" lon="2.770341"><ele>385.63</ele><time>2009-12-05T10:56:25Z</time></trkpt>
<trkpt lat="39.708435" lon="2.770550"><ele>382.26</ele><time>2009-12-05T10:56:27Z</time></trkpt>
<trkpt lat="39.708439" lon="2.770723"><ele>378.42</ele><time>2009-12-05T10:56:29Z</time></trkpt>
<trkpt lat="39.708460" lon="2.770800"><ele>376.49</ele><time>2009-12-05T10:56:30Z</time></trkpt>
<trkpt lat="39.708405" lon="2.771153"><ele>369.76</ele><time>2009-12-05T10:56:35Z</time></trkpt>
<trkpt lat="39.708379" lon="2.771237"><ele>368.32</ele><time>2009-12-05T10:56:36Z</time></trkpt>
<trkpt lat="39.708331" lon="2.771529"><ele>363.04</ele><time>2009-12-05T10:56:39Z</time></trkpt>
<trkpt lat="39.708318" lon="2.771721"><ele>360.15</ele><time>2009-12-05T10:56:41Z</time></trkpt>
<trkpt lat="39.708303" lon="2.771857"><ele>356.31</ele><time>2009-12-05T10:56:43Z</time></trkpt>
<trkpt lat="39.708397" lon="2.771802"><ele>352.94</ele><time>2009-12-05T10:56:47Z</time></trkpt>
<trkpt lat="39.708521" lon="2.771694"><ele>351.50</ele><time>2009-12-05T10:56:49Z</time></trkpt>
<trkpt lat="39.708627" lon="2.771581"><ele>348.62</ele><time>2009-12-05T10:56:51Z</time></trkpt>
<trkpt lat="39.708734" lon="2.771656"><ele>345.25</ele><time>2009-12-05T10:56:55Z</time></trkpt>
<trkpt lat="39.708670" lon="2.772031"><ele>339.96</ele><time>2009-12-05T10:56:59Z</time></trkpt>
<trkpt lat="39.708601" lon="2.772346"><ele>332.27</ele><time>2009-12-05T10:57:02Z</time></trkpt>
<trkpt lat="39.708537" lon="2.772589"><ele>328.43</ele><time>2009-12-05T10:57:04Z</time></trkpt>
<trkpt lat="39.708503" lon="2.772828"><ele>325.06</ele><time>2009-12-05T10:57:06Z</time></trkpt>
<trkpt lat="39.708514" lon="2.773216"><ele>320.26</ele><time>2009-12-05T10:57:09Z</time></trkpt>
<trkpt lat="39.708507" lon="2.773351"><ele>318.33</ele><time>2009-12-05T10:57:10Z</time></trkpt>
<trkpt lat="39.708498" lon="2.773849"><ele>314.01</ele><time>2009-12-05T10:57:14Z</time></trkpt>
<trkpt lat="39.708527" lon="2.774352"><ele>308.72</ele><time>2009-12-05T10:57:18Z</time></trkpt>
<trkpt lat="39.708532" lon="2.774475"><ele>306.80</ele><time>2009-12-05T10:57:19Z</time></trkpt>
<trkpt lat="39.708673" lon="2.774963"><ele>301.99</ele><time>2009-12-05T10:57:23Z</time></trkpt>
<trkpt lat="39.708743" lon="2.775187"><ele>300.55</ele><time>2009-12-05T10:57:25Z</time></trkpt>
<trkpt lat="39.708744" lon="2.775422"><ele>299.59</ele><time>2009-12-05T10:57:27Z</time></trkpt>
<trkpt lat="39.708663" lon="2.775916"><ele>296.22</ele><time>2009-12-05T10:57:32Z</time></trkpt>
<trkpt lat="39.708681" lon="2.776256"><ele>294.30</ele><time>2009-12-05T10:57:35Z</time></trkpt>
<trkpt lat="39.708801" lon="2.776619"><ele>293.34</ele><time>2009-12-05T10:57:39Z</time></trkpt>
<trkpt lat="39.708856" lon="2.776686"><ele>292.86</ele><time>2009-12-05T10:57:40Z</time></trkpt>
<trkpt lat="39.709171" lon="2.777094"><ele>291.42</ele><time>2009-12-05T10:57:47Z</time></trkpt>
<trkpt lat="39.709257" lon="2.777400"><ele>289.97</ele><time>2009-12-05T10:57:51Z</time></trkpt>
<trkpt lat="39.709252" lon="2.777481"><ele>290.46</ele><time>2009-12-05T10:57:52Z</time></trkpt>
<trkpt lat="39.709140" lon="2.777814"><ele>290.94</ele><time>2009-12-05T10:57:59Z</time></trkpt>
<trkpt lat="39.709024" lon="2.778071"><ele>291.42</ele><time>2009-12-05T10:58:08Z</time></trkpt>
<trkpt lat="39.708868" lon="2.778290"><ele>289.49</ele><time>2009-12-05T10:58:17Z</time></trkpt>
<trkpt lat="39.708782" lon="2.778409"><ele>288.05</ele><time>2009-12-05T10:58:21Z</time></trkpt>
<trkpt lat="39.708721" lon="2.778506"><ele>287.09</ele><time>2009-12-05T10:58:23Z</time></trkpt>
<trkpt lat="39.708634" lon="2.778699"><ele>284.69</ele><time>2009-12-05T10:58:27Z</time></trkpt>
<trkpt lat="39.708538" lon="2.778964"><ele>281.32</ele><time>2009-12-05T10:58:33Z</time></trkpt>
<trkpt lat="39.708485" lon="2.779111"><ele>279.88</ele><time>2009-12-05T10:58:36Z</time></trkpt>
<trkpt lat="39.708422" lon="2.779299"><ele>277.96</ele><time>2009-12-05T10:58:39Z</time></trkpt>
<trkpt lat="39.708370" lon="2.779904"><ele>274.11</ele><time>2009-12-05T10:58:46Z</time></trkpt>
<trkpt lat="39.708363" lon="2.780094"><ele>272.67</ele><time>2009-12-05T10:58:48Z</time></trkpt>
<trkpt lat="39.708345" lon="2.780293"><ele>271.23</ele><time>2009-12-05T10:58:50Z</time></trkpt>
<trkpt lat="39.708215" lon="2.780845"><ele>267.38</ele><time>2009-12-05T10:58:55Z</time></trkpt>
<trkpt lat="39.708091" lon="2.781310"><ele>263.54</ele><time>2009-12-05T10:58:59Z</time></trkpt>
<trkpt lat="39.707983" lon="2.781675"><ele>259.69</ele><time>2009-12-05T10:59:02Z</time></trkpt>
<trkpt lat="39.707946" lon="2.781797"><ele>257.77</ele><time>2009-12-05T10:59:03Z</time></trkpt>
<trkpt lat="39.707729" lon="2.782249"><ele>252.96</ele><time>2009-12-05T10:59:07Z</time></trkpt>
<trkpt lat="39.707484" lon="2.782976"><ele>248.64</ele><time>2009-12-05T10:59:13Z</time></trkpt>
<trkpt lat="39.707311" lon="2.783447"><ele>245.75</ele><time>2009-12-05T10:59:18Z</time></trkpt>
<trkpt lat="39.707201" lon="2.783539"><ele>244.31</ele><time>2009-12-05T10:59:22Z</time></trkpt>
<trkpt lat="39.707112" lon="2.783600"><ele>243.35</ele><time>2009-12-05T10:59:25Z</time></trkpt>
<trkpt lat="39.707030" lon="2.783800"><ele>242.39</ele><time>2009-12-05T10:59:29Z</time></trkpt>
<trkpt lat="39.706921" lon="2.783849"><ele>242.39</ele><time>2009-12-05T10:59:32Z</time></trkpt>
<trkpt lat="39.706790" lon="2.783785"><ele>241.91</ele><time>2009-12-05T10:59:36Z</time></trkpt>
<trkpt lat="39.706642" lon="2.783862"><ele>241.91</ele><time>2009-12-05T10:59:40Z</time></trkpt>
<trkpt lat="39.706578" lon="2.783941"><ele>241.43</ele><time>2009-12-05T10:59:42Z</time></trkpt>
<trkpt lat="39.706243" lon="2.784396"><ele>239.02</ele><time>2009-12-05T10:59:51Z</time></trkpt>
<trkpt lat="39.706026" lon="2.784656"><ele>235.66</ele><time>2009-12-05T10:59:55Z</time></trkpt>
<trkpt lat="39.705618" lon="2.784986"><ele>233.26</ele><time>2009-12-05T11:00:01Z</time></trkpt>
<trkpt lat="39.705037" lon="2.785295"><ele>230.37</ele><time>2009-12-05T11:00:09Z</time></trkpt>
<trkpt lat="39.704775" lon="2.785420"><ele>227.49</ele><time>2009-12-05T11:00:12Z</time></trkpt>
<trkpt lat="39.704491" lon="2.785567"><ele>224.61</ele><time>2009-12-05T11:00:15Z</time></trkpt>
<trkpt lat="39.704290" lon="2.785647"><ele>225.09</ele><time>2009-12-05T11:00:18Z</time></trkpt>
<trkpt lat="39.704317" lon="2.785823"><ele>225.09</ele><time>2009-12-05T11:00:22Z</time></trkpt>
<trkpt lat="39.704422" lon="2.786030"><ele>225.09</ele><time>2009-12-05T11:00:26Z</time></trkpt>
<trkpt lat="39.704715" lon="2.786801"><ele>226.05</ele><time>2009-12-05T11:00:40Z</time></trkpt>
<trkpt lat="39.704772" lon="2.786950"><ele>226.53</ele><time>2009-12-05T11:00:43Z</time></trkpt>
<trkpt lat="39.704842" lon="2.787176"><ele>227.49</ele><time>2009-12-05T11:00:48Z</time></trkpt>
<trkpt lat="39.704894" lon="2.787502"><ele>227.01</ele><time>2009-12-05T11:00:56Z</time></trkpt>
<trkpt lat="39.704842" lon="2.787772"><ele>226.05</ele><time>2009-12-05T11:01:01Z</time></trkpt>
<trkpt lat="39.704786" lon="2.787875"><ele>226.05</ele><time>2009-12-05T11:01:03Z</time></trkpt>
<trkpt lat="39.704918" lon="2.788113"><ele>225.57</ele><time>2009-12-05T11:01:07Z</time></trkpt>
<trkpt lat="39.704982" lon="2.788374"><ele>225.09</ele><time>2009-12-05T11:01:11Z</time></trkpt>
<trkpt lat="39.704967" lon="2.788442"><ele>224.61</ele><time>2009-12-05T11:01:12Z</time></trkpt>
<trkpt lat="39.704901" lon="2.788583"><ele>224.12</ele><time>2009-12-05T11:01:14Z</time></trkpt>
<trkpt lat="39.704636" lon="2.788871"><ele>223.16</ele><time>2009-12-05T11:01:20Z</time></trkpt>
<trkpt lat="39.704545" lon="2.788978"><ele>222.68</ele><time>2009-12-05T11:01:22Z</time></trkpt>
<trkpt lat="39.704244" lon="2.789271"><ele>220.76</ele><time>2009-12-05T11:01:28Z</time></trkpt>
<trkpt lat="39.704098" lon="2.789479"><ele>218.84</ele><time>2009-12-05T11:01:33Z</time></trkpt>
<trkpt lat="39.704001" lon="2.789582"><ele>218.36</ele><time>2009-12-05T11:01:36Z</time></trkpt>
<trkpt lat="39.703903" lon="2.789705"><ele>217.88</ele><time>2009-12-05T11:01:39Z</time></trkpt>
<trkpt lat="39.703555" lon="2.790091"><ele>215.95</ele><time>2009-12-05T11:01:47Z</time></trkpt>
<trkpt lat="39.703486" lon="2.790187"><ele>214.99</ele><time>2009-12-05T11:01:50Z</time></trkpt>
<trkpt lat="39.703509" lon="2.790290"><ele>214.99</ele><time>2009-12-05T11:01:54Z</time></trkpt>
<trkpt lat="39.703569" lon="2.790356"><ele>214.99</ele><time>2009-12-05T11:01:56Z</time></trkpt>
<trkpt lat="39.703760" lon="2.790704"><ele>215.95</ele><time>2009-12-05T11:02:04Z</time></trkpt>
<trkpt lat="39.703791" lon="2.790777"><ele>215.95</ele><time>2009-12-05T11:02:06Z</time></trkpt>
<trkpt lat="39.703983" lon="2.790983"><ele>215.95</ele><time>2009-12-05T11:02:11Z</time></trkpt>
<trkpt lat="39.704139" lon="2.791148"><ele>215.47</ele><time>2009-12-05T11:02:16Z</time></trkpt>
<trkpt lat="39.703953" lon="2.791402"><ele>214.99</ele><time>2009-12-05T11:02:23Z</time></trkpt>
<trkpt lat="39.703616" lon="2.791724"><ele>213.55</ele><time>2009-12-05T11:02:31Z</time></trkpt>
<trkpt lat="39.703586" lon="2.791947"><ele>213.07</ele><time>2009-12-05T11:02:35Z</time></trkpt>
<trkpt lat="39.703603" lon="2.792082"><ele>212.59</ele><time>2009-12-05T11:02:37Z</time></trkpt>
<trkpt lat="39.703666" lon="2.792677"><ele>211.15</ele><time>2009-12-05T11:02:46Z</time></trkpt>
<trkpt lat="39.703668" lon="2.792789"><ele>210.67</ele><time>2009-12-05T11:02:48Z</time></trkpt>
<trkpt lat="39.703599" lon="2.792910"><ele>210.67</ele><time>2009-12-05T11:02:52Z</time></trkpt>
<trkpt lat="39.703283" lon="2.793316"><ele>208.74</ele><time>2009-12-05T11:03:01Z</time></trkpt>
<trkpt lat="39.702882" lon="2.793739"><ele>206.82</ele><time>2009-12-05T11:03:10Z</time></trkpt>
<trkpt lat="39.702574" lon="2.794102"><ele>205.38</ele><time>2009-12-05T11:03:17Z</time></trkpt>
<trkpt lat="39.702484" lon="2.794309"><ele>204.90</ele><time>2009-12-05T11:03:21Z</time></trkpt>
<trkpt lat="39.702527" lon="2.794427"><ele>204.90</ele><time>2009-12-05T11:03:23Z</time></trkpt>
<trkpt lat="39.702900" lon="2.795010"><ele>203.94</ele><time>2009-12-05T11:03:35Z</time></trkpt>
<trkpt lat="39.703025" lon="2.795126"><ele>203.94</ele><time>2009-12-05T11:03:39Z</time></trkpt>
<trkpt lat="39.703190" lon="2.794970"><ele>204.42</ele><time>2009-12-05T11:03:45Z</time></trkpt>
<trkpt lat="39.703252" lon="2.794886"><ele>204.90</ele><time>2009-12-05T11:03:48Z</time></trkpt>
<trkpt lat="39.703298" lon="2.794825"><ele>205.38</ele><time>2009-12-05T11:03:54Z</time></trkpt>
<trkpt lat="39.703291" lon="2.794831"><ele>205.38</ele><time>2009-12-05T11:04:17Z</time></trkpt>
</trkseg></trk></gpx>